<?xml version="1.0" encoding="UTF-8" standalone="no" ?>
<gpx xmlns="http://www.topografix.com/GPX/1/1" xmlns:xsi="http://www.w3.org/2001/XMLSchema-instance" xsi:schemaLocation="http://www.topografix.com/GPX/1/1 http://www.topografix.com/GPX/1/1/gpx.xsd" version="1.1" creator="VisuGPX - https://www.visugpx.com">
  <metadata>
    <name>Randonnée à Duravel(46) du 02 septembre 2012</name>
    <desc><![CDATA[Randonnée à Duravel(46) du 02 septembre 2012]]></desc>
  </metadata>
  <trk>
    <name><![CDATA[Randonnée à Duravel(46) du 02 septembre 2012_1]]></name>
    <trkseg>
      <trkpt lat="44.51505" lon="1.07906">
        <ele>113</ele>
        <time>2012-09-02T05:59:16Z</time>
      </trkpt>
      <trkpt lat="44.51485" lon="1.0788">
        <ele>97</ele>
        <time>2012-09-02T06:00:45Z</time>
      </trkpt>
      <trkpt lat="44.51464" lon="1.07876">
        <ele>94</ele>
        <time>2012-09-02T06:00:50Z</time>
      </trkpt>
      <trkpt lat="44.51437" lon="1.0787">
        <ele>91</ele>
        <time>2012-09-02T06:00:55Z</time>
      </trkpt>
      <trkpt lat="44.51409" lon="1.07864">
        <ele>90</ele>
        <time>2012-09-02T06:01:00Z</time>
      </trkpt>
      <trkpt lat="44.51386" lon="1.07861">
        <ele>89</ele>
        <time>2012-09-02T06:01:05Z</time>
      </trkpt>
      <trkpt lat="44.51358" lon="1.07858">
        <ele>88</ele>
        <time>2012-09-02T06:01:10Z</time>
      </trkpt>
      <trkpt lat="44.51329" lon="1.07855">
        <ele>87</ele>
        <time>2012-09-02T06:01:15Z</time>
      </trkpt>
      <trkpt lat="44.51299" lon="1.07853">
        <ele>85</ele>
        <time>2012-09-02T06:01:20Z</time>
      </trkpt>
      <trkpt lat="44.51268" lon="1.07858">
        <ele>84</ele>
        <time>2012-09-02T06:01:25Z</time>
      </trkpt>
      <trkpt lat="44.51235" lon="1.07871">
        <ele>82</ele>
        <time>2012-09-02T06:01:30Z</time>
      </trkpt>
      <trkpt lat="44.51203" lon="1.07888">
        <ele>82</ele>
        <time>2012-09-02T06:01:35Z</time>
      </trkpt>
      <trkpt lat="44.51173" lon="1.07904">
        <ele>82</ele>
        <time>2012-09-02T06:01:40Z</time>
      </trkpt>
      <trkpt lat="44.51149" lon="1.07915">
        <ele>81</ele>
        <time>2012-09-02T06:01:45Z</time>
      </trkpt>
      <trkpt lat="44.51139" lon="1.079">
        <ele>81</ele>
        <time>2012-09-02T06:01:50Z</time>
      </trkpt>
      <trkpt lat="44.51139" lon="1.0786">
        <ele>80</ele>
        <time>2012-09-02T06:01:55Z</time>
      </trkpt>
      <trkpt lat="44.51139" lon="1.07821">
        <ele>80</ele>
        <time>2012-09-02T06:02:00Z</time>
      </trkpt>
      <trkpt lat="44.5114" lon="1.07782">
        <ele>80</ele>
        <time>2012-09-02T06:02:05Z</time>
      </trkpt>
      <trkpt lat="44.51141" lon="1.07744">
        <ele>80</ele>
        <time>2012-09-02T06:02:10Z</time>
      </trkpt>
      <trkpt lat="44.51141" lon="1.07712">
        <ele>80</ele>
        <time>2012-09-02T06:02:15Z</time>
      </trkpt>
      <trkpt lat="44.51139" lon="1.0768">
        <ele>80</ele>
        <time>2012-09-02T06:02:20Z</time>
      </trkpt>
      <trkpt lat="44.5114" lon="1.07642">
        <ele>80</ele>
        <time>2012-09-02T06:02:25Z</time>
      </trkpt>
      <trkpt lat="44.51141" lon="1.07606">
        <ele>80</ele>
        <time>2012-09-02T06:02:30Z</time>
      </trkpt>
      <trkpt lat="44.51144" lon="1.07575">
        <ele>80</ele>
        <time>2012-09-02T06:02:35Z</time>
      </trkpt>
      <trkpt lat="44.51138" lon="1.07544">
        <ele>80</ele>
        <time>2012-09-02T06:02:40Z</time>
      </trkpt>
      <trkpt lat="44.51128" lon="1.07515">
        <ele>80</ele>
        <time>2012-09-02T06:02:45Z</time>
      </trkpt>
      <trkpt lat="44.51107" lon="1.07501">
        <ele>80</ele>
        <time>2012-09-02T06:02:50Z</time>
      </trkpt>
      <trkpt lat="44.51081" lon="1.07496">
        <ele>80</ele>
        <time>2012-09-02T06:02:55Z</time>
      </trkpt>
      <trkpt lat="44.51052" lon="1.07492">
        <ele>80</ele>
        <time>2012-09-02T06:03:00Z</time>
      </trkpt>
      <trkpt lat="44.51022" lon="1.07488">
        <ele>79</ele>
        <time>2012-09-02T06:03:05Z</time>
      </trkpt>
      <trkpt lat="44.50991" lon="1.07485">
        <ele>76</ele>
        <time>2012-09-02T06:03:10Z</time>
      </trkpt>
      <trkpt lat="44.50961" lon="1.07484">
        <ele>75</ele>
        <time>2012-09-02T06:03:15Z</time>
      </trkpt>
      <trkpt lat="44.5093" lon="1.07487">
        <ele>74</ele>
        <time>2012-09-02T06:03:20Z</time>
      </trkpt>
      <trkpt lat="44.509" lon="1.07486">
        <ele>74</ele>
        <time>2012-09-02T06:03:25Z</time>
      </trkpt>
      <trkpt lat="44.50865" lon="1.07482">
        <ele>74</ele>
        <time>2012-09-02T06:03:31Z</time>
      </trkpt>
      <trkpt lat="44.50838" lon="1.07475">
        <ele>74</ele>
        <time>2012-09-02T06:03:36Z</time>
      </trkpt>
      <trkpt lat="44.50816" lon="1.07458">
        <ele>74</ele>
        <time>2012-09-02T06:03:41Z</time>
      </trkpt>
      <trkpt lat="44.50819" lon="1.07431">
        <ele>74</ele>
        <time>2012-09-02T06:03:46Z</time>
      </trkpt>
      <trkpt lat="44.50833" lon="1.07396">
        <ele>74</ele>
        <time>2012-09-02T06:03:51Z</time>
      </trkpt>
      <trkpt lat="44.50846" lon="1.07361">
        <ele>74</ele>
        <time>2012-09-02T06:03:56Z</time>
      </trkpt>
      <trkpt lat="44.50859" lon="1.07328">
        <ele>74</ele>
        <time>2012-09-02T06:04:01Z</time>
      </trkpt>
      <trkpt lat="44.50872" lon="1.07295">
        <ele>74</ele>
        <time>2012-09-02T06:04:06Z</time>
      </trkpt>
      <trkpt lat="44.50887" lon="1.07258">
        <ele>74</ele>
        <time>2012-09-02T06:04:11Z</time>
      </trkpt>
      <trkpt lat="44.50901" lon="1.07223">
        <ele>74</ele>
        <time>2012-09-02T06:04:16Z</time>
      </trkpt>
      <trkpt lat="44.50917" lon="1.07187">
        <ele>73</ele>
        <time>2012-09-02T06:04:21Z</time>
      </trkpt>
      <trkpt lat="44.50932" lon="1.07149">
        <ele>73</ele>
        <time>2012-09-02T06:04:26Z</time>
      </trkpt>
      <trkpt lat="44.50948" lon="1.07111">
        <ele>73</ele>
        <time>2012-09-02T06:04:31Z</time>
      </trkpt>
      <trkpt lat="44.50963" lon="1.07073">
        <ele>73</ele>
        <time>2012-09-02T06:04:36Z</time>
      </trkpt>
      <trkpt lat="44.50979" lon="1.07036">
        <ele>73</ele>
        <time>2012-09-02T06:04:41Z</time>
      </trkpt>
      <trkpt lat="44.50994" lon="1.06999">
        <ele>73</ele>
        <time>2012-09-02T06:04:46Z</time>
      </trkpt>
      <trkpt lat="44.5101" lon="1.06961">
        <ele>73</ele>
        <time>2012-09-02T06:04:51Z</time>
      </trkpt>
      <trkpt lat="44.51025" lon="1.06924">
        <ele>73</ele>
        <time>2012-09-02T06:04:56Z</time>
      </trkpt>
      <trkpt lat="44.51041" lon="1.06887">
        <ele>72</ele>
        <time>2012-09-02T06:05:01Z</time>
      </trkpt>
      <trkpt lat="44.51057" lon="1.0685">
        <ele>71</ele>
        <time>2012-09-02T06:05:06Z</time>
      </trkpt>
      <trkpt lat="44.51072" lon="1.06812">
        <ele>71</ele>
        <time>2012-09-02T06:05:11Z</time>
      </trkpt>
      <trkpt lat="44.51087" lon="1.06774">
        <ele>71</ele>
        <time>2012-09-02T06:05:16Z</time>
      </trkpt>
      <trkpt lat="44.51102" lon="1.06738">
        <ele>71</ele>
        <time>2012-09-02T06:05:21Z</time>
      </trkpt>
      <trkpt lat="44.51118" lon="1.06702">
        <ele>71</ele>
        <time>2012-09-02T06:05:26Z</time>
      </trkpt>
      <trkpt lat="44.51133" lon="1.06667">
        <ele>71</ele>
        <time>2012-09-02T06:05:31Z</time>
      </trkpt>
      <trkpt lat="44.51147" lon="1.06633">
        <ele>71</ele>
        <time>2012-09-02T06:05:36Z</time>
      </trkpt>
      <trkpt lat="44.51159" lon="1.06601">
        <ele>71</ele>
        <time>2012-09-02T06:05:41Z</time>
      </trkpt>
      <trkpt lat="44.51172" lon="1.06567">
        <ele>71</ele>
        <time>2012-09-02T06:05:46Z</time>
      </trkpt>
      <trkpt lat="44.51187" lon="1.0653">
        <ele>71</ele>
        <time>2012-09-02T06:05:51Z</time>
      </trkpt>
      <trkpt lat="44.51199" lon="1.06489">
        <ele>71</ele>
        <time>2012-09-02T06:05:56Z</time>
      </trkpt>
      <trkpt lat="44.51209" lon="1.06455">
        <ele>72</ele>
        <time>2012-09-02T06:06:01Z</time>
      </trkpt>
      <trkpt lat="44.51219" lon="1.06415">
        <ele>72</ele>
        <time>2012-09-02T06:06:06Z</time>
      </trkpt>
      <trkpt lat="44.51225" lon="1.06371">
        <ele>72</ele>
        <time>2012-09-02T06:06:11Z</time>
      </trkpt>
      <trkpt lat="44.51229" lon="1.06329">
        <ele>74</ele>
        <time>2012-09-02T06:06:16Z</time>
      </trkpt>
      <trkpt lat="44.51232" lon="1.06289">
        <ele>74</ele>
        <time>2012-09-02T06:06:21Z</time>
      </trkpt>
      <trkpt lat="44.51232" lon="1.06243">
        <ele>76</ele>
        <time>2012-09-02T06:06:26Z</time>
      </trkpt>
      <trkpt lat="44.51234" lon="1.06199">
        <ele>76</ele>
        <time>2012-09-02T06:06:31Z</time>
      </trkpt>
      <trkpt lat="44.51234" lon="1.06155">
        <ele>76</ele>
        <time>2012-09-02T06:06:36Z</time>
      </trkpt>
      <trkpt lat="44.51233" lon="1.06112">
        <ele>76</ele>
        <time>2012-09-02T06:06:41Z</time>
      </trkpt>
      <trkpt lat="44.51232" lon="1.06072">
        <ele>76</ele>
        <time>2012-09-02T06:06:46Z</time>
      </trkpt>
      <trkpt lat="44.51231" lon="1.0603">
        <ele>76</ele>
        <time>2012-09-02T06:06:51Z</time>
      </trkpt>
      <trkpt lat="44.51231" lon="1.05988">
        <ele>76</ele>
        <time>2012-09-02T06:06:56Z</time>
      </trkpt>
      <trkpt lat="44.51231" lon="1.05944">
        <ele>77</ele>
        <time>2012-09-02T06:07:01Z</time>
      </trkpt>
      <trkpt lat="44.51231" lon="1.05896">
        <ele>78</ele>
        <time>2012-09-02T06:07:06Z</time>
      </trkpt>
      <trkpt lat="44.5123" lon="1.05852">
        <ele>79</ele>
        <time>2012-09-02T06:07:11Z</time>
      </trkpt>
      <trkpt lat="44.51226" lon="1.05812">
        <ele>80</ele>
        <time>2012-09-02T06:07:16Z</time>
      </trkpt>
      <trkpt lat="44.51218" lon="1.0577">
        <ele>83</ele>
        <time>2012-09-02T06:07:21Z</time>
      </trkpt>
      <trkpt lat="44.51205" lon="1.05731">
        <ele>85</ele>
        <time>2012-09-02T06:07:26Z</time>
      </trkpt>
      <trkpt lat="44.5119" lon="1.05692">
        <ele>86</ele>
        <time>2012-09-02T06:07:31Z</time>
      </trkpt>
      <trkpt lat="44.51172" lon="1.05654">
        <ele>86</ele>
        <time>2012-09-02T06:07:36Z</time>
      </trkpt>
      <trkpt lat="44.51152" lon="1.05617">
        <ele>86</ele>
        <time>2012-09-02T06:07:41Z</time>
      </trkpt>
      <trkpt lat="44.51131" lon="1.0558">
        <ele>86</ele>
        <time>2012-09-02T06:07:46Z</time>
      </trkpt>
      <trkpt lat="44.51111" lon="1.05546">
        <ele>86</ele>
        <time>2012-09-02T06:07:51Z</time>
      </trkpt>
      <trkpt lat="44.51093" lon="1.05507">
        <ele>82</ele>
        <time>2012-09-02T06:07:56Z</time>
      </trkpt>
      <trkpt lat="44.51075" lon="1.05469">
        <ele>77</ele>
        <time>2012-09-02T06:08:01Z</time>
      </trkpt>
      <trkpt lat="44.51055" lon="1.05436">
        <ele>75</ele>
        <time>2012-09-02T06:08:06Z</time>
      </trkpt>
      <trkpt lat="44.51036" lon="1.05406">
        <ele>73</ele>
        <time>2012-09-02T06:08:11Z</time>
      </trkpt>
      <trkpt lat="44.51014" lon="1.05375">
        <ele>73</ele>
        <time>2012-09-02T06:08:16Z</time>
      </trkpt>
      <trkpt lat="44.50995" lon="1.05345">
        <ele>73</ele>
        <time>2012-09-02T06:08:21Z</time>
      </trkpt>
      <trkpt lat="44.50976" lon="1.05319">
        <ele>73</ele>
        <time>2012-09-02T06:08:26Z</time>
      </trkpt>
      <trkpt lat="44.50952" lon="1.05289">
        <ele>73</ele>
        <time>2012-09-02T06:08:31Z</time>
      </trkpt>
      <trkpt lat="44.5093" lon="1.05262">
        <ele>75</ele>
        <time>2012-09-02T06:08:36Z</time>
      </trkpt>
      <trkpt lat="44.50905" lon="1.05239">
        <ele>75</ele>
        <time>2012-09-02T06:08:41Z</time>
      </trkpt>
      <trkpt lat="44.5088" lon="1.05217">
        <ele>77</ele>
        <time>2012-09-02T06:08:46Z</time>
      </trkpt>
      <trkpt lat="44.50853" lon="1.05193">
        <ele>77</ele>
        <time>2012-09-02T06:08:51Z</time>
      </trkpt>
      <trkpt lat="44.50825" lon="1.05171">
        <ele>77</ele>
        <time>2012-09-02T06:08:56Z</time>
      </trkpt>
      <trkpt lat="44.50796" lon="1.05147">
        <ele>76</ele>
        <time>2012-09-02T06:09:01Z</time>
      </trkpt>
      <trkpt lat="44.50767" lon="1.05128">
        <ele>75</ele>
        <time>2012-09-02T06:09:06Z</time>
      </trkpt>
      <trkpt lat="44.50739" lon="1.05107">
        <ele>75</ele>
        <time>2012-09-02T06:09:11Z</time>
      </trkpt>
      <trkpt lat="44.50712" lon="1.05089">
        <ele>75</ele>
        <time>2012-09-02T06:09:16Z</time>
      </trkpt>
      <trkpt lat="44.50684" lon="1.05072">
        <ele>75</ele>
        <time>2012-09-02T06:09:21Z</time>
      </trkpt>
      <trkpt lat="44.50653" lon="1.05058">
        <ele>75</ele>
        <time>2012-09-02T06:09:26Z</time>
      </trkpt>
      <trkpt lat="44.50622" lon="1.05045">
        <ele>75</ele>
        <time>2012-09-02T06:09:31Z</time>
      </trkpt>
      <trkpt lat="44.5059" lon="1.05034">
        <ele>75</ele>
        <time>2012-09-02T06:09:36Z</time>
      </trkpt>
      <trkpt lat="44.50559" lon="1.05024">
        <ele>75</ele>
        <time>2012-09-02T06:09:41Z</time>
      </trkpt>
      <trkpt lat="44.50528" lon="1.05016">
        <ele>75</ele>
        <time>2012-09-02T06:09:46Z</time>
      </trkpt>
      <trkpt lat="44.50496" lon="1.05007">
        <ele>75</ele>
        <time>2012-09-02T06:09:51Z</time>
      </trkpt>
      <trkpt lat="44.50464" lon="1.04997">
        <ele>75</ele>
        <time>2012-09-02T06:09:56Z</time>
      </trkpt>
      <trkpt lat="44.50433" lon="1.04986">
        <ele>75</ele>
        <time>2012-09-02T06:10:01Z</time>
      </trkpt>
      <trkpt lat="44.50401" lon="1.04974">
        <ele>75</ele>
        <time>2012-09-02T06:10:06Z</time>
      </trkpt>
      <trkpt lat="44.50369" lon="1.0496">
        <ele>75</ele>
        <time>2012-09-02T06:10:11Z</time>
      </trkpt>
      <trkpt lat="44.50337" lon="1.0495">
        <ele>75</ele>
        <time>2012-09-02T06:10:16Z</time>
      </trkpt>
      <trkpt lat="44.50305" lon="1.04941">
        <ele>74</ele>
        <time>2012-09-02T06:10:21Z</time>
      </trkpt>
      <trkpt lat="44.50274" lon="1.04931">
        <ele>74</ele>
        <time>2012-09-02T06:10:26Z</time>
      </trkpt>
      <trkpt lat="44.50242" lon="1.04922">
        <ele>73</ele>
        <time>2012-09-02T06:10:31Z</time>
      </trkpt>
      <trkpt lat="44.50211" lon="1.04911">
        <ele>73</ele>
        <time>2012-09-02T06:10:36Z</time>
      </trkpt>
      <trkpt lat="44.50179" lon="1.04903">
        <ele>72</ele>
        <time>2012-09-02T06:10:41Z</time>
      </trkpt>
      <trkpt lat="44.50148" lon="1.04897">
        <ele>72</ele>
        <time>2012-09-02T06:10:46Z</time>
      </trkpt>
      <trkpt lat="44.50118" lon="1.0489">
        <ele>72</ele>
        <time>2012-09-02T06:10:51Z</time>
      </trkpt>
      <trkpt lat="44.50089" lon="1.04884">
        <ele>71</ele>
        <time>2012-09-02T06:10:56Z</time>
      </trkpt>
      <trkpt lat="44.5006" lon="1.04882">
        <ele>71</ele>
        <time>2012-09-02T06:11:01Z</time>
      </trkpt>
      <trkpt lat="44.50032" lon="1.04878">
        <ele>71</ele>
        <time>2012-09-02T06:11:06Z</time>
      </trkpt>
      <trkpt lat="44.50004" lon="1.04873">
        <ele>71</ele>
        <time>2012-09-02T06:11:11Z</time>
      </trkpt>
      <trkpt lat="44.49974" lon="1.04872">
        <ele>71</ele>
        <time>2012-09-02T06:11:16Z</time>
      </trkpt>
      <trkpt lat="44.49943" lon="1.04872">
        <ele>72</ele>
        <time>2012-09-02T06:11:21Z</time>
      </trkpt>
      <trkpt lat="44.49907" lon="1.04869">
        <ele>76</ele>
        <time>2012-09-02T06:11:27Z</time>
      </trkpt>
      <trkpt lat="44.49877" lon="1.04867">
        <ele>78</ele>
        <time>2012-09-02T06:11:32Z</time>
      </trkpt>
      <trkpt lat="44.49849" lon="1.04859">
        <ele>79</ele>
        <time>2012-09-02T06:11:37Z</time>
      </trkpt>
      <trkpt lat="44.49818" lon="1.04857">
        <ele>79</ele>
        <time>2012-09-02T06:11:42Z</time>
      </trkpt>
      <trkpt lat="44.49792" lon="1.04857">
        <ele>79</ele>
        <time>2012-09-02T06:11:47Z</time>
      </trkpt>
      <trkpt lat="44.49784" lon="1.04845">
        <ele>79</ele>
        <time>2012-09-02T06:11:52Z</time>
      </trkpt>
      <trkpt lat="44.49803" lon="1.04844">
        <ele>79</ele>
        <time>2012-09-02T06:11:57Z</time>
      </trkpt>
      <trkpt lat="44.49826" lon="1.04841">
        <ele>78</ele>
        <time>2012-09-02T06:12:02Z</time>
      </trkpt>
      <trkpt lat="44.49847" lon="1.04834">
        <ele>78</ele>
        <time>2012-09-02T06:12:07Z</time>
      </trkpt>
      <trkpt lat="44.49865" lon="1.04819">
        <ele>78</ele>
        <time>2012-09-02T06:12:12Z</time>
      </trkpt>
      <trkpt lat="44.49876" lon="1.04789">
        <ele>78</ele>
        <time>2012-09-02T06:12:17Z</time>
      </trkpt>
      <trkpt lat="44.4988" lon="1.04757">
        <ele>78</ele>
        <time>2012-09-02T06:12:22Z</time>
      </trkpt>
      <trkpt lat="44.49891" lon="1.0473">
        <ele>78</ele>
        <time>2012-09-02T06:12:27Z</time>
      </trkpt>
      <trkpt lat="44.49905" lon="1.04709">
        <ele>78</ele>
        <time>2012-09-02T06:12:32Z</time>
      </trkpt>
      <trkpt lat="44.49919" lon="1.04687">
        <ele>78</ele>
        <time>2012-09-02T06:12:37Z</time>
      </trkpt>
      <trkpt lat="44.49932" lon="1.04662">
        <ele>78</ele>
        <time>2012-09-02T06:12:42Z</time>
      </trkpt>
      <trkpt lat="44.49947" lon="1.04638">
        <ele>78</ele>
        <time>2012-09-02T06:12:47Z</time>
      </trkpt>
      <trkpt lat="44.49961" lon="1.04608">
        <ele>78</ele>
        <time>2012-09-02T06:12:52Z</time>
      </trkpt>
      <trkpt lat="44.49963" lon="1.04568">
        <ele>78</ele>
        <time>2012-09-02T06:12:57Z</time>
      </trkpt>
      <trkpt lat="44.49967" lon="1.04532">
        <ele>79</ele>
        <time>2012-09-02T06:13:02Z</time>
      </trkpt>
      <trkpt lat="44.49973" lon="1.04497">
        <ele>80</ele>
        <time>2012-09-02T06:13:07Z</time>
      </trkpt>
      <trkpt lat="44.4998" lon="1.04465">
        <ele>80</ele>
        <time>2012-09-02T06:13:12Z</time>
      </trkpt>
      <trkpt lat="44.49987" lon="1.04435">
        <ele>81</ele>
        <time>2012-09-02T06:13:17Z</time>
      </trkpt>
      <trkpt lat="44.49997" lon="1.04409">
        <ele>83</ele>
        <time>2012-09-02T06:13:22Z</time>
      </trkpt>
      <trkpt lat="44.50008" lon="1.04386">
        <ele>84</ele>
        <time>2012-09-02T06:13:27Z</time>
      </trkpt>
      <trkpt lat="44.5002" lon="1.04362">
        <ele>85</ele>
        <time>2012-09-02T06:13:32Z</time>
      </trkpt>
      <trkpt lat="44.50032" lon="1.0434">
        <ele>87</ele>
        <time>2012-09-02T06:13:37Z</time>
      </trkpt>
      <trkpt lat="44.50045" lon="1.04318">
        <ele>88</ele>
        <time>2012-09-02T06:13:42Z</time>
      </trkpt>
      <trkpt lat="44.50055" lon="1.04299">
        <ele>89</ele>
        <time>2012-09-02T06:13:47Z</time>
      </trkpt>
      <trkpt lat="44.50066" lon="1.0428">
        <ele>90</ele>
        <time>2012-09-02T06:13:52Z</time>
      </trkpt>
      <trkpt lat="44.50078" lon="1.04261">
        <ele>90</ele>
        <time>2012-09-02T06:13:57Z</time>
      </trkpt>
      <trkpt lat="44.50087" lon="1.0424">
        <ele>90</ele>
        <time>2012-09-02T06:14:02Z</time>
      </trkpt>
      <trkpt lat="44.50097" lon="1.04217">
        <ele>90</ele>
        <time>2012-09-02T06:14:07Z</time>
      </trkpt>
      <trkpt lat="44.50109" lon="1.04194">
        <ele>90</ele>
        <time>2012-09-02T06:14:12Z</time>
      </trkpt>
      <trkpt lat="44.50122" lon="1.04174">
        <ele>90</ele>
        <time>2012-09-02T06:14:17Z</time>
      </trkpt>
      <trkpt lat="44.50128" lon="1.04153">
        <ele>92</ele>
        <time>2012-09-02T06:14:22Z</time>
      </trkpt>
      <trkpt lat="44.50118" lon="1.04133">
        <ele>96</ele>
        <time>2012-09-02T06:14:27Z</time>
      </trkpt>
      <trkpt lat="44.50104" lon="1.04126">
        <ele>100</ele>
        <time>2012-09-02T06:14:32Z</time>
      </trkpt>
      <trkpt lat="44.50086" lon="1.0412">
        <ele>100</ele>
        <time>2012-09-02T06:14:37Z</time>
      </trkpt>
      <trkpt lat="44.50065" lon="1.04113">
        <ele>100</ele>
        <time>2012-09-02T06:14:43Z</time>
      </trkpt>
      <trkpt lat="44.50049" lon="1.04109">
        <ele>100</ele>
        <time>2012-09-02T06:14:48Z</time>
      </trkpt>
      <trkpt lat="44.50033" lon="1.04103">
        <ele>100</ele>
        <time>2012-09-02T06:14:53Z</time>
      </trkpt>
      <trkpt lat="44.50017" lon="1.04094">
        <ele>100</ele>
        <time>2012-09-02T06:14:58Z</time>
      </trkpt>
      <trkpt lat="44.50003" lon="1.04086">
        <ele>100</ele>
        <time>2012-09-02T06:15:03Z</time>
      </trkpt>
      <trkpt lat="44.49989" lon="1.04097">
        <ele>103</ele>
        <time>2012-09-02T06:15:08Z</time>
      </trkpt>
      <trkpt lat="44.49972" lon="1.04114">
        <ele>104</ele>
        <time>2012-09-02T06:15:13Z</time>
      </trkpt>
      <trkpt lat="44.49962" lon="1.04129">
        <ele>104</ele>
        <time>2012-09-02T06:15:18Z</time>
      </trkpt>
      <trkpt lat="44.49953" lon="1.04148">
        <ele>101</ele>
        <time>2012-09-02T06:15:23Z</time>
      </trkpt>
      <trkpt lat="44.49948" lon="1.04172">
        <ele>98</ele>
        <time>2012-09-02T06:15:28Z</time>
      </trkpt>
      <trkpt lat="44.49943" lon="1.04194">
        <ele>98</ele>
        <time>2012-09-02T06:15:33Z</time>
      </trkpt>
      <trkpt lat="44.49939" lon="1.04217">
        <ele>96</ele>
        <time>2012-09-02T06:15:38Z</time>
      </trkpt>
      <trkpt lat="44.49932" lon="1.04239">
        <ele>93</ele>
        <time>2012-09-02T06:15:43Z</time>
      </trkpt>
      <trkpt lat="44.49916" lon="1.04265">
        <ele>94</ele>
        <time>2012-09-02T06:15:48Z</time>
      </trkpt>
      <trkpt lat="44.49899" lon="1.04274">
        <ele>99</ele>
        <time>2012-09-02T06:15:53Z</time>
      </trkpt>
      <trkpt lat="44.49881" lon="1.04278">
        <ele>104</ele>
        <time>2012-09-02T06:15:58Z</time>
      </trkpt>
      <trkpt lat="44.49864" lon="1.04282">
        <ele>109</ele>
        <time>2012-09-02T06:16:03Z</time>
      </trkpt>
      <trkpt lat="44.49847" lon="1.0428">
        <ele>114</ele>
        <time>2012-09-02T06:16:08Z</time>
      </trkpt>
      <trkpt lat="44.49845" lon="1.04255">
        <ele>117</ele>
        <time>2012-09-02T06:16:13Z</time>
      </trkpt>
      <trkpt lat="44.49844" lon="1.04232">
        <ele>119</ele>
        <time>2012-09-02T06:16:18Z</time>
      </trkpt>
      <trkpt lat="44.49844" lon="1.0421">
        <ele>120</ele>
        <time>2012-09-02T06:16:23Z</time>
      </trkpt>
      <trkpt lat="44.49844" lon="1.04188">
        <ele>122</ele>
        <time>2012-09-02T06:16:28Z</time>
      </trkpt>
      <trkpt lat="44.49844" lon="1.04167">
        <ele>123</ele>
        <time>2012-09-02T06:16:33Z</time>
      </trkpt>
      <trkpt lat="44.49844" lon="1.04148">
        <ele>125</ele>
        <time>2012-09-02T06:16:38Z</time>
      </trkpt>
      <trkpt lat="44.49844" lon="1.04129">
        <ele>126</ele>
        <time>2012-09-02T06:16:43Z</time>
      </trkpt>
      <trkpt lat="44.49843" lon="1.0411">
        <ele>128</ele>
        <time>2012-09-02T06:16:48Z</time>
      </trkpt>
      <trkpt lat="44.49841" lon="1.0409">
        <ele>130</ele>
        <time>2012-09-02T06:16:53Z</time>
      </trkpt>
      <trkpt lat="44.49834" lon="1.0407">
        <ele>132</ele>
        <time>2012-09-02T06:16:59Z</time>
      </trkpt>
      <trkpt lat="44.49826" lon="1.04054">
        <ele>135</ele>
        <time>2012-09-02T06:17:04Z</time>
      </trkpt>
      <trkpt lat="44.49821" lon="1.0404">
        <ele>138</ele>
        <time>2012-09-02T06:17:09Z</time>
      </trkpt>
      <trkpt lat="44.4982" lon="1.04019">
        <ele>139</ele>
        <time>2012-09-02T06:17:14Z</time>
      </trkpt>
      <trkpt lat="44.49819" lon="1.03999">
        <ele>139</ele>
        <time>2012-09-02T06:17:19Z</time>
      </trkpt>
      <trkpt lat="44.49814" lon="1.03979">
        <ele>139</ele>
        <time>2012-09-02T06:17:24Z</time>
      </trkpt>
      <trkpt lat="44.49804" lon="1.03951">
        <ele>139</ele>
        <time>2012-09-02T06:17:29Z</time>
      </trkpt>
      <trkpt lat="44.49786" lon="1.03901">
        <ele>139</ele>
        <time>2012-09-02T06:17:35Z</time>
      </trkpt>
      <trkpt lat="44.49777" lon="1.03849">
        <ele>138</ele>
        <time>2012-09-02T06:17:40Z</time>
      </trkpt>
      <trkpt lat="44.49774" lon="1.03791">
        <ele>136</ele>
        <time>2012-09-02T06:17:45Z</time>
      </trkpt>
      <trkpt lat="44.49775" lon="1.03733">
        <ele>133</ele>
        <time>2012-09-02T06:17:50Z</time>
      </trkpt>
      <trkpt lat="44.49796" lon="1.03686">
        <ele>128</ele>
        <time>2012-09-02T06:17:55Z</time>
      </trkpt>
      <trkpt lat="44.49808" lon="1.03642">
        <ele>123</ele>
        <time>2012-09-02T06:18:00Z</time>
      </trkpt>
      <trkpt lat="44.49791" lon="1.03613">
        <ele>120</ele>
        <time>2012-09-02T06:18:05Z</time>
      </trkpt>
      <trkpt lat="44.49775" lon="1.0359">
        <ele>120</ele>
        <time>2012-09-02T06:18:10Z</time>
      </trkpt>
      <trkpt lat="44.49765" lon="1.03574">
        <ele>120</ele>
        <time>2012-09-02T06:18:15Z</time>
      </trkpt>
      <trkpt lat="44.49754" lon="1.03565">
        <ele>120</ele>
        <time>2012-09-02T06:18:20Z</time>
      </trkpt>
      <trkpt lat="44.49745" lon="1.0356">
        <ele>120</ele>
        <time>2012-09-02T06:18:25Z</time>
      </trkpt>
      <trkpt lat="44.49735" lon="1.03552">
        <ele>123</ele>
        <time>2012-09-02T06:18:31Z</time>
      </trkpt>
      <trkpt lat="44.49725" lon="1.03548">
        <ele>126</ele>
        <time>2012-09-02T06:18:36Z</time>
      </trkpt>
      <trkpt lat="44.49712" lon="1.0354">
        <ele>130</ele>
        <time>2012-09-02T06:18:42Z</time>
      </trkpt>
      <trkpt lat="44.49703" lon="1.03528">
        <ele>132</ele>
        <time>2012-09-02T06:18:48Z</time>
      </trkpt>
      <trkpt lat="44.49698" lon="1.03513">
        <ele>133</ele>
        <time>2012-09-02T06:18:53Z</time>
      </trkpt>
      <trkpt lat="44.49695" lon="1.03495">
        <ele>134</ele>
        <time>2012-09-02T06:18:59Z</time>
      </trkpt>
      <trkpt lat="44.49693" lon="1.03479">
        <ele>136</ele>
        <time>2012-09-02T06:19:04Z</time>
      </trkpt>
      <trkpt lat="44.49691" lon="1.03458">
        <ele>137</ele>
        <time>2012-09-02T06:19:09Z</time>
      </trkpt>
      <trkpt lat="44.49687" lon="1.03428">
        <ele>138</ele>
        <time>2012-09-02T06:19:15Z</time>
      </trkpt>
      <trkpt lat="44.49688" lon="1.03407">
        <ele>140</ele>
        <time>2012-09-02T06:19:20Z</time>
      </trkpt>
      <trkpt lat="44.49685" lon="1.03381">
        <ele>140</ele>
        <time>2012-09-02T06:19:26Z</time>
      </trkpt>
      <trkpt lat="44.49676" lon="1.03364">
        <ele>140</ele>
        <time>2012-09-02T06:19:31Z</time>
      </trkpt>
      <trkpt lat="44.49667" lon="1.03342">
        <ele>142</ele>
        <time>2012-09-02T06:19:37Z</time>
      </trkpt>
      <trkpt lat="44.49662" lon="1.03327">
        <ele>144</ele>
        <time>2012-09-02T06:19:42Z</time>
      </trkpt>
      <trkpt lat="44.49657" lon="1.03312">
        <ele>146</ele>
        <time>2012-09-02T06:19:47Z</time>
      </trkpt>
      <trkpt lat="44.49654" lon="1.03297">
        <ele>148</ele>
        <time>2012-09-02T06:19:52Z</time>
      </trkpt>
      <trkpt lat="44.49652" lon="1.03282">
        <ele>149</ele>
        <time>2012-09-02T06:19:58Z</time>
      </trkpt>
      <trkpt lat="44.49649" lon="1.03271">
        <ele>149</ele>
        <time>2012-09-02T06:20:03Z</time>
      </trkpt>
      <trkpt lat="44.49643" lon="1.03262">
        <ele>150</ele>
        <time>2012-09-02T06:20:09Z</time>
      </trkpt>
      <trkpt lat="44.49633" lon="1.0326">
        <ele>150</ele>
        <time>2012-09-02T06:20:14Z</time>
      </trkpt>
      <trkpt lat="44.49618" lon="1.0326">
        <ele>150</ele>
        <time>2012-09-02T06:20:19Z</time>
      </trkpt>
      <trkpt lat="44.49602" lon="1.03255">
        <ele>150</ele>
        <time>2012-09-02T06:20:24Z</time>
      </trkpt>
      <trkpt lat="44.49593" lon="1.03235">
        <ele>150</ele>
        <time>2012-09-02T06:20:29Z</time>
      </trkpt>
      <trkpt lat="44.49585" lon="1.03215">
        <ele>151</ele>
        <time>2012-09-02T06:20:34Z</time>
      </trkpt>
      <trkpt lat="44.49575" lon="1.03194">
        <ele>154</ele>
        <time>2012-09-02T06:20:39Z</time>
      </trkpt>
      <trkpt lat="44.49559" lon="1.03178">
        <ele>156</ele>
        <time>2012-09-02T06:20:44Z</time>
      </trkpt>
      <trkpt lat="44.49558" lon="1.03153">
        <ele>157</ele>
        <time>2012-09-02T06:20:49Z</time>
      </trkpt>
      <trkpt lat="44.49569" lon="1.03116">
        <ele>157</ele>
        <time>2012-09-02T06:20:55Z</time>
      </trkpt>
      <trkpt lat="44.4958" lon="1.03079">
        <ele>157</ele>
        <time>2012-09-02T06:21:00Z</time>
      </trkpt>
      <trkpt lat="44.49584" lon="1.03028">
        <ele>153</ele>
        <time>2012-09-02T06:21:05Z</time>
      </trkpt>
      <trkpt lat="44.49594" lon="1.0297">
        <ele>149</ele>
        <time>2012-09-02T06:21:10Z</time>
      </trkpt>
      <trkpt lat="44.49619" lon="1.02895">
        <ele>143</ele>
        <time>2012-09-02T06:21:15Z</time>
      </trkpt>
      <trkpt lat="44.49641" lon="1.02836">
        <ele>138</ele>
        <time>2012-09-02T06:21:20Z</time>
      </trkpt>
      <trkpt lat="44.49655" lon="1.02806">
        <ele>133</ele>
        <time>2012-09-02T06:21:25Z</time>
      </trkpt>
      <trkpt lat="44.49675" lon="1.02819">
        <ele>129</ele>
        <time>2012-09-02T06:21:30Z</time>
      </trkpt>
      <trkpt lat="44.49697" lon="1.02839">
        <ele>128</ele>
        <time>2012-09-02T06:21:35Z</time>
      </trkpt>
      <trkpt lat="44.49727" lon="1.02848">
        <ele>127</ele>
        <time>2012-09-02T06:21:40Z</time>
      </trkpt>
      <trkpt lat="44.49756" lon="1.02838">
        <ele>126</ele>
        <time>2012-09-02T06:21:45Z</time>
      </trkpt>
      <trkpt lat="44.49783" lon="1.0284">
        <ele>126</ele>
        <time>2012-09-02T06:21:50Z</time>
      </trkpt>
      <trkpt lat="44.49809" lon="1.02842">
        <ele>126</ele>
        <time>2012-09-02T06:21:55Z</time>
      </trkpt>
      <trkpt lat="44.49834" lon="1.02842">
        <ele>126</ele>
        <time>2012-09-02T06:22:00Z</time>
      </trkpt>
      <trkpt lat="44.49863" lon="1.02845">
        <ele>125</ele>
        <time>2012-09-02T06:22:05Z</time>
      </trkpt>
      <trkpt lat="44.49889" lon="1.02833">
        <ele>123</ele>
        <time>2012-09-02T06:22:10Z</time>
      </trkpt>
      <trkpt lat="44.49914" lon="1.02823">
        <ele>123</ele>
        <time>2012-09-02T06:22:15Z</time>
      </trkpt>
      <trkpt lat="44.4994" lon="1.02823">
        <ele>123</ele>
        <time>2012-09-02T06:22:21Z</time>
      </trkpt>
      <trkpt lat="44.49972" lon="1.02827">
        <ele>123</ele>
        <time>2012-09-02T06:22:26Z</time>
      </trkpt>
      <trkpt lat="44.5" lon="1.02831">
        <ele>123</ele>
        <time>2012-09-02T06:22:31Z</time>
      </trkpt>
      <trkpt lat="44.50026" lon="1.02835">
        <ele>123</ele>
        <time>2012-09-02T06:22:36Z</time>
      </trkpt>
      <trkpt lat="44.50049" lon="1.02835">
        <ele>123</ele>
        <time>2012-09-02T06:22:41Z</time>
      </trkpt>
      <trkpt lat="44.50071" lon="1.02827">
        <ele>123</ele>
        <time>2012-09-02T06:22:46Z</time>
      </trkpt>
      <trkpt lat="44.50093" lon="1.02822">
        <ele>123</ele>
        <time>2012-09-02T06:22:51Z</time>
      </trkpt>
      <trkpt lat="44.50111" lon="1.02825">
        <ele>124</ele>
        <time>2012-09-02T06:22:56Z</time>
      </trkpt>
      <trkpt lat="44.50128" lon="1.02824">
        <ele>125</ele>
        <time>2012-09-02T06:23:01Z</time>
      </trkpt>
      <trkpt lat="44.50143" lon="1.02813">
        <ele>126</ele>
        <time>2012-09-02T06:23:06Z</time>
      </trkpt>
      <trkpt lat="44.50157" lon="1.028">
        <ele>126</ele>
        <time>2012-09-02T06:23:11Z</time>
      </trkpt>
      <trkpt lat="44.50168" lon="1.0279">
        <ele>127</ele>
        <time>2012-09-02T06:23:17Z</time>
      </trkpt>
      <trkpt lat="44.50183" lon="1.02781">
        <ele>128</ele>
        <time>2012-09-02T06:23:22Z</time>
      </trkpt>
      <trkpt lat="44.50195" lon="1.02774">
        <ele>129</ele>
        <time>2012-09-02T06:23:27Z</time>
      </trkpt>
      <trkpt lat="44.50207" lon="1.02767">
        <ele>130</ele>
        <time>2012-09-02T06:23:32Z</time>
      </trkpt>
      <trkpt lat="44.50218" lon="1.02762">
        <ele>131</ele>
        <time>2012-09-02T06:23:37Z</time>
      </trkpt>
      <trkpt lat="44.5023" lon="1.02754">
        <ele>132</ele>
        <time>2012-09-02T06:23:42Z</time>
      </trkpt>
      <trkpt lat="44.50243" lon="1.02747">
        <ele>134</ele>
        <time>2012-09-02T06:23:47Z</time>
      </trkpt>
      <trkpt lat="44.50255" lon="1.02742">
        <ele>135</ele>
        <time>2012-09-02T06:23:52Z</time>
      </trkpt>
      <trkpt lat="44.50267" lon="1.02737">
        <ele>137</ele>
        <time>2012-09-02T06:23:57Z</time>
      </trkpt>
      <trkpt lat="44.5028" lon="1.02734">
        <ele>139</ele>
        <time>2012-09-02T06:24:02Z</time>
      </trkpt>
      <trkpt lat="44.50291" lon="1.02733">
        <ele>139</ele>
        <time>2012-09-02T06:24:07Z</time>
      </trkpt>
      <trkpt lat="44.50303" lon="1.02731">
        <ele>139</ele>
        <time>2012-09-02T06:24:12Z</time>
      </trkpt>
      <trkpt lat="44.50316" lon="1.0273">
        <ele>140</ele>
        <time>2012-09-02T06:24:17Z</time>
      </trkpt>
      <trkpt lat="44.50328" lon="1.02729">
        <ele>142</ele>
        <time>2012-09-02T06:24:22Z</time>
      </trkpt>
      <trkpt lat="44.50341" lon="1.02728">
        <ele>143</ele>
        <time>2012-09-02T06:24:27Z</time>
      </trkpt>
      <trkpt lat="44.50354" lon="1.02729">
        <ele>144</ele>
        <time>2012-09-02T06:24:32Z</time>
      </trkpt>
      <trkpt lat="44.50367" lon="1.02729">
        <ele>144</ele>
        <time>2012-09-02T06:24:37Z</time>
      </trkpt>
      <trkpt lat="44.50381" lon="1.02726">
        <ele>146</ele>
        <time>2012-09-02T06:24:42Z</time>
      </trkpt>
      <trkpt lat="44.50397" lon="1.02721">
        <ele>147</ele>
        <time>2012-09-02T06:24:47Z</time>
      </trkpt>
      <trkpt lat="44.50412" lon="1.02718">
        <ele>148</ele>
        <time>2012-09-02T06:24:52Z</time>
      </trkpt>
      <trkpt lat="44.50429" lon="1.02726">
        <ele>149</ele>
        <time>2012-09-02T06:24:57Z</time>
      </trkpt>
      <trkpt lat="44.50442" lon="1.02742">
        <ele>152</ele>
        <time>2012-09-02T06:25:02Z</time>
      </trkpt>
      <trkpt lat="44.50454" lon="1.02761">
        <ele>155</ele>
        <time>2012-09-02T06:25:07Z</time>
      </trkpt>
      <trkpt lat="44.50467" lon="1.02789">
        <ele>155</ele>
        <time>2012-09-02T06:25:12Z</time>
      </trkpt>
      <trkpt lat="44.50479" lon="1.02822">
        <ele>155</ele>
        <time>2012-09-02T06:25:17Z</time>
      </trkpt>
      <trkpt lat="44.50492" lon="1.02856">
        <ele>155</ele>
        <time>2012-09-02T06:25:22Z</time>
      </trkpt>
      <trkpt lat="44.50501" lon="1.02889">
        <ele>155</ele>
        <time>2012-09-02T06:25:27Z</time>
      </trkpt>
      <trkpt lat="44.50512" lon="1.02918">
        <ele>155</ele>
        <time>2012-09-02T06:25:32Z</time>
      </trkpt>
      <trkpt lat="44.50525" lon="1.02934">
        <ele>155</ele>
        <time>2012-09-02T06:25:37Z</time>
      </trkpt>
      <trkpt lat="44.50535" lon="1.02947">
        <ele>155</ele>
        <time>2012-09-02T06:25:42Z</time>
      </trkpt>
      <trkpt lat="44.50541" lon="1.02959">
        <ele>158</ele>
        <time>2012-09-02T06:25:47Z</time>
      </trkpt>
      <trkpt lat="44.50548" lon="1.02971">
        <ele>160</ele>
        <time>2012-09-02T06:25:52Z</time>
      </trkpt>
      <trkpt lat="44.50555" lon="1.02983">
        <ele>160</ele>
        <time>2012-09-02T06:25:57Z</time>
      </trkpt>
      <trkpt lat="44.50563" lon="1.02994">
        <ele>160</ele>
        <time>2012-09-02T06:26:02Z</time>
      </trkpt>
      <trkpt lat="44.5057" lon="1.03004">
        <ele>161</ele>
        <time>2012-09-02T06:26:07Z</time>
      </trkpt>
      <trkpt lat="44.50576" lon="1.03013">
        <ele>161</ele>
        <time>2012-09-02T06:26:12Z</time>
      </trkpt>
      <trkpt lat="44.50585" lon="1.03023">
        <ele>161</ele>
        <time>2012-09-02T06:26:17Z</time>
      </trkpt>
      <trkpt lat="44.50592" lon="1.03032">
        <ele>161</ele>
        <time>2012-09-02T06:26:22Z</time>
      </trkpt>
      <trkpt lat="44.50597" lon="1.03042">
        <ele>162</ele>
        <time>2012-09-02T06:26:27Z</time>
      </trkpt>
      <trkpt lat="44.506" lon="1.03053">
        <ele>163</ele>
        <time>2012-09-02T06:26:32Z</time>
      </trkpt>
      <trkpt lat="44.50603" lon="1.03072">
        <ele>163</ele>
        <time>2012-09-02T06:26:37Z</time>
      </trkpt>
      <trkpt lat="44.50607" lon="1.03087">
        <ele>163</ele>
        <time>2012-09-02T06:26:42Z</time>
      </trkpt>
      <trkpt lat="44.5061" lon="1.03102">
        <ele>163</ele>
        <time>2012-09-02T06:26:47Z</time>
      </trkpt>
      <trkpt lat="44.50613" lon="1.03115">
        <ele>163</ele>
        <time>2012-09-02T06:26:52Z</time>
      </trkpt>
      <trkpt lat="44.50618" lon="1.03127">
        <ele>163</ele>
        <time>2012-09-02T06:26:57Z</time>
      </trkpt>
      <trkpt lat="44.50623" lon="1.03137">
        <ele>163</ele>
        <time>2012-09-02T06:27:02Z</time>
      </trkpt>
      <trkpt lat="44.50629" lon="1.03148">
        <ele>163</ele>
        <time>2012-09-02T06:27:07Z</time>
      </trkpt>
      <trkpt lat="44.50635" lon="1.03158">
        <ele>163</ele>
        <time>2012-09-02T06:27:12Z</time>
      </trkpt>
      <trkpt lat="44.50641" lon="1.03169">
        <ele>163</ele>
        <time>2012-09-02T06:27:17Z</time>
      </trkpt>
      <trkpt lat="44.50648" lon="1.0318">
        <ele>166</ele>
        <time>2012-09-02T06:27:22Z</time>
      </trkpt>
      <trkpt lat="44.50659" lon="1.03193">
        <ele>168</ele>
        <time>2012-09-02T06:27:27Z</time>
      </trkpt>
      <trkpt lat="44.50672" lon="1.03205">
        <ele>169</ele>
        <time>2012-09-02T06:27:32Z</time>
      </trkpt>
      <trkpt lat="44.50686" lon="1.03205">
        <ele>171</ele>
        <time>2012-09-02T06:27:37Z</time>
      </trkpt>
      <trkpt lat="44.50703" lon="1.03202">
        <ele>172</ele>
        <time>2012-09-02T06:27:42Z</time>
      </trkpt>
      <trkpt lat="44.50718" lon="1.03198">
        <ele>172</ele>
        <time>2012-09-02T06:27:47Z</time>
      </trkpt>
      <trkpt lat="44.50732" lon="1.0319">
        <ele>173</ele>
        <time>2012-09-02T06:27:52Z</time>
      </trkpt>
      <trkpt lat="44.50746" lon="1.03183">
        <ele>173</ele>
        <time>2012-09-02T06:27:57Z</time>
      </trkpt>
      <trkpt lat="44.50758" lon="1.03176">
        <ele>174</ele>
        <time>2012-09-02T06:28:02Z</time>
      </trkpt>
      <trkpt lat="44.50769" lon="1.03166">
        <ele>175</ele>
        <time>2012-09-02T06:28:07Z</time>
      </trkpt>
      <trkpt lat="44.50782" lon="1.03153">
        <ele>177</ele>
        <time>2012-09-02T06:28:12Z</time>
      </trkpt>
      <trkpt lat="44.50796" lon="1.03143">
        <ele>179</ele>
        <time>2012-09-02T06:28:17Z</time>
      </trkpt>
      <trkpt lat="44.5081" lon="1.03139">
        <ele>181</ele>
        <time>2012-09-02T06:28:22Z</time>
      </trkpt>
      <trkpt lat="44.50824" lon="1.03139">
        <ele>183</ele>
        <time>2012-09-02T06:28:27Z</time>
      </trkpt>
      <trkpt lat="44.50836" lon="1.03139">
        <ele>187</ele>
        <time>2012-09-02T06:28:32Z</time>
      </trkpt>
      <trkpt lat="44.50846" lon="1.0314">
        <ele>190</ele>
        <time>2012-09-02T06:28:37Z</time>
      </trkpt>
      <trkpt lat="44.50855" lon="1.03145">
        <ele>193</ele>
        <time>2012-09-02T06:28:42Z</time>
      </trkpt>
      <trkpt lat="44.50864" lon="1.03149">
        <ele>195</ele>
        <time>2012-09-02T06:28:47Z</time>
      </trkpt>
      <trkpt lat="44.50874" lon="1.03154">
        <ele>196</ele>
        <time>2012-09-02T06:28:52Z</time>
      </trkpt>
      <trkpt lat="44.50882" lon="1.03161">
        <ele>198</ele>
        <time>2012-09-02T06:28:57Z</time>
      </trkpt>
      <trkpt lat="44.50891" lon="1.03165">
        <ele>198</ele>
        <time>2012-09-02T06:29:02Z</time>
      </trkpt>
      <trkpt lat="44.509" lon="1.03169">
        <ele>199</ele>
        <time>2012-09-02T06:29:07Z</time>
      </trkpt>
      <trkpt lat="44.50908" lon="1.03172">
        <ele>202</ele>
        <time>2012-09-02T06:29:12Z</time>
      </trkpt>
      <trkpt lat="44.50916" lon="1.03176">
        <ele>205</ele>
        <time>2012-09-02T06:29:17Z</time>
      </trkpt>
      <trkpt lat="44.50924" lon="1.03181">
        <ele>207</ele>
        <time>2012-09-02T06:29:22Z</time>
      </trkpt>
      <trkpt lat="44.5093" lon="1.03187">
        <ele>208</ele>
        <time>2012-09-02T06:29:27Z</time>
      </trkpt>
      <trkpt lat="44.50939" lon="1.03193">
        <ele>210</ele>
        <time>2012-09-02T06:29:32Z</time>
      </trkpt>
      <trkpt lat="44.50946" lon="1.03201">
        <ele>210</ele>
        <time>2012-09-02T06:29:37Z</time>
      </trkpt>
      <trkpt lat="44.50956" lon="1.03214">
        <ele>212</ele>
        <time>2012-09-02T06:29:42Z</time>
      </trkpt>
      <trkpt lat="44.50968" lon="1.03235">
        <ele>213</ele>
        <time>2012-09-02T06:29:47Z</time>
      </trkpt>
      <trkpt lat="44.50979" lon="1.03256">
        <ele>215</ele>
        <time>2012-09-02T06:29:52Z</time>
      </trkpt>
      <trkpt lat="44.50993" lon="1.03286">
        <ele>215</ele>
        <time>2012-09-02T06:29:57Z</time>
      </trkpt>
      <trkpt lat="44.51009" lon="1.0333">
        <ele>215</ele>
        <time>2012-09-02T06:30:02Z</time>
      </trkpt>
      <trkpt lat="44.51027" lon="1.03384">
        <ele>211</ele>
        <time>2012-09-02T06:30:07Z</time>
      </trkpt>
      <trkpt lat="44.51065" lon="1.03426">
        <ele>206</ele>
        <time>2012-09-02T06:30:12Z</time>
      </trkpt>
      <trkpt lat="44.51103" lon="1.03466">
        <ele>201</ele>
        <time>2012-09-02T06:30:17Z</time>
      </trkpt>
      <trkpt lat="44.51126" lon="1.03495">
        <ele>201</ele>
        <time>2012-09-02T06:30:22Z</time>
      </trkpt>
      <trkpt lat="44.5114" lon="1.03522">
        <ele>201</ele>
        <time>2012-09-02T06:30:27Z</time>
      </trkpt>
      <trkpt lat="44.51157" lon="1.03542">
        <ele>201</ele>
        <time>2012-09-02T06:30:32Z</time>
      </trkpt>
      <trkpt lat="44.5117" lon="1.03566">
        <ele>202</ele>
        <time>2012-09-02T06:30:37Z</time>
      </trkpt>
      <trkpt lat="44.51177" lon="1.03588">
        <ele>203</ele>
        <time>2012-09-02T06:30:42Z</time>
      </trkpt>
      <trkpt lat="44.51181" lon="1.03615">
        <ele>203</ele>
        <time>2012-09-02T06:30:47Z</time>
      </trkpt>
      <trkpt lat="44.51181" lon="1.03648">
        <ele>203</ele>
        <time>2012-09-02T06:30:52Z</time>
      </trkpt>
      <trkpt lat="44.51181" lon="1.0368">
        <ele>202</ele>
        <time>2012-09-02T06:30:57Z</time>
      </trkpt>
      <trkpt lat="44.51183" lon="1.03709">
        <ele>200</ele>
        <time>2012-09-02T06:31:02Z</time>
      </trkpt>
      <trkpt lat="44.51184" lon="1.03737">
        <ele>198</ele>
        <time>2012-09-02T06:31:07Z</time>
      </trkpt>
      <trkpt lat="44.51196" lon="1.0376">
        <ele>197</ele>
        <time>2012-09-02T06:31:12Z</time>
      </trkpt>
      <trkpt lat="44.51216" lon="1.03789">
        <ele>194</ele>
        <time>2012-09-02T06:31:17Z</time>
      </trkpt>
      <trkpt lat="44.5123" lon="1.03807">
        <ele>191</ele>
        <time>2012-09-02T06:31:22Z</time>
      </trkpt>
      <trkpt lat="44.51244" lon="1.03829">
        <ele>190</ele>
        <time>2012-09-02T06:31:27Z</time>
      </trkpt>
      <trkpt lat="44.51251" lon="1.03872">
        <ele>188</ele>
        <time>2012-09-02T06:31:32Z</time>
      </trkpt>
      <trkpt lat="44.51259" lon="1.03921">
        <ele>184</ele>
        <time>2012-09-02T06:31:37Z</time>
      </trkpt>
      <trkpt lat="44.51278" lon="1.03949">
        <ele>183</ele>
        <time>2012-09-02T06:31:42Z</time>
      </trkpt>
      <trkpt lat="44.51304" lon="1.03961">
        <ele>183</ele>
        <time>2012-09-02T06:31:47Z</time>
      </trkpt>
      <trkpt lat="44.51322" lon="1.03968">
        <ele>183</ele>
        <time>2012-09-02T06:31:52Z</time>
      </trkpt>
      <trkpt lat="44.51347" lon="1.03964">
        <ele>183</ele>
        <time>2012-09-02T06:31:57Z</time>
      </trkpt>
      <trkpt lat="44.51374" lon="1.03958">
        <ele>181</ele>
        <time>2012-09-02T06:32:02Z</time>
      </trkpt>
      <trkpt lat="44.51403" lon="1.03956">
        <ele>176</ele>
        <time>2012-09-02T06:32:07Z</time>
      </trkpt>
      <trkpt lat="44.51431" lon="1.03944">
        <ele>171</ele>
        <time>2012-09-02T06:32:12Z</time>
      </trkpt>
      <trkpt lat="44.51457" lon="1.03923">
        <ele>170</ele>
        <time>2012-09-02T06:32:17Z</time>
      </trkpt>
      <trkpt lat="44.51486" lon="1.03902">
        <ele>170</ele>
        <time>2012-09-02T06:32:22Z</time>
      </trkpt>
      <trkpt lat="44.51512" lon="1.0389">
        <ele>167</ele>
        <time>2012-09-02T06:32:27Z</time>
      </trkpt>
      <trkpt lat="44.51526" lon="1.03884">
        <ele>162</ele>
        <time>2012-09-02T06:32:32Z</time>
      </trkpt>
      <trkpt lat="44.51552" lon="1.03874">
        <ele>159</ele>
        <time>2012-09-02T06:32:37Z</time>
      </trkpt>
      <trkpt lat="44.51583" lon="1.0386">
        <ele>157</ele>
        <time>2012-09-02T06:32:42Z</time>
      </trkpt>
      <trkpt lat="44.51617" lon="1.03852">
        <ele>153</ele>
        <time>2012-09-02T06:32:47Z</time>
      </trkpt>
      <trkpt lat="44.51644" lon="1.03844">
        <ele>149</ele>
        <time>2012-09-02T06:32:52Z</time>
      </trkpt>
      <trkpt lat="44.51667" lon="1.03835">
        <ele>145</ele>
        <time>2012-09-02T06:32:57Z</time>
      </trkpt>
      <trkpt lat="44.5169" lon="1.03837">
        <ele>140</ele>
        <time>2012-09-02T06:33:02Z</time>
      </trkpt>
      <trkpt lat="44.51714" lon="1.03844">
        <ele>135</ele>
        <time>2012-09-02T06:33:07Z</time>
      </trkpt>
      <trkpt lat="44.51746" lon="1.03855">
        <ele>130</ele>
        <time>2012-09-02T06:33:12Z</time>
      </trkpt>
      <trkpt lat="44.51782" lon="1.03866">
        <ele>127</ele>
        <time>2012-09-02T06:33:17Z</time>
      </trkpt>
      <trkpt lat="44.51819" lon="1.03877">
        <ele>124</ele>
        <time>2012-09-02T06:33:22Z</time>
      </trkpt>
      <trkpt lat="44.51851" lon="1.03879">
        <ele>121</ele>
        <time>2012-09-02T06:33:27Z</time>
      </trkpt>
      <trkpt lat="44.51882" lon="1.03881">
        <ele>118</ele>
        <time>2012-09-02T06:33:32Z</time>
      </trkpt>
      <trkpt lat="44.51911" lon="1.03891">
        <ele>115</ele>
        <time>2012-09-02T06:33:37Z</time>
      </trkpt>
      <trkpt lat="44.51936" lon="1.03908">
        <ele>113</ele>
        <time>2012-09-02T06:33:42Z</time>
      </trkpt>
      <trkpt lat="44.51965" lon="1.03932">
        <ele>109</ele>
        <time>2012-09-02T06:33:47Z</time>
      </trkpt>
      <trkpt lat="44.51999" lon="1.03953">
        <ele>105</ele>
        <time>2012-09-02T06:33:52Z</time>
      </trkpt>
      <trkpt lat="44.52016" lon="1.03964">
        <ele>103</ele>
        <time>2012-09-02T06:33:58Z</time>
      </trkpt>
      <trkpt lat="44.52016" lon="1.03968">
        <ele>102</ele>
        <time>2012-09-02T06:34:03Z</time>
      </trkpt>
      <trkpt lat="44.52017" lon="1.0397">
        <ele>102</ele>
        <time>2012-09-02T06:34:08Z</time>
      </trkpt>
      <trkpt lat="44.52018" lon="1.03971">
        <ele>102</ele>
        <time>2012-09-02T06:34:13Z</time>
      </trkpt>
      <trkpt lat="44.52017" lon="1.03974">
        <ele>102</ele>
        <time>2012-09-02T06:34:24Z</time>
      </trkpt>
      <trkpt lat="44.52017" lon="1.03976">
        <ele>102</ele>
        <time>2012-09-02T06:34:32Z</time>
      </trkpt>
      <trkpt lat="44.52017" lon="1.03977">
        <ele>102</ele>
        <time>2012-09-02T06:34:42Z</time>
      </trkpt>
      <trkpt lat="44.52016" lon="1.03979">
        <ele>102</ele>
        <time>2012-09-02T06:34:59Z</time>
      </trkpt>
      <trkpt lat="44.52015" lon="1.0398">
        <ele>102</ele>
        <time>2012-09-02T06:35:23Z</time>
      </trkpt>
      <trkpt lat="44.52014" lon="1.03978">
        <ele>102</ele>
        <time>2012-09-02T06:35:36Z</time>
      </trkpt>
      <trkpt lat="44.52014" lon="1.03973">
        <ele>102</ele>
        <time>2012-09-02T06:35:42Z</time>
      </trkpt>
      <trkpt lat="44.52005" lon="1.03962">
        <ele>102</ele>
        <time>2012-09-02T06:35:47Z</time>
      </trkpt>
      <trkpt lat="44.51992" lon="1.03934">
        <ele>102</ele>
        <time>2012-09-02T06:35:52Z</time>
      </trkpt>
      <trkpt lat="44.51973" lon="1.03899">
        <ele>99</ele>
        <time>2012-09-02T06:35:57Z</time>
      </trkpt>
      <trkpt lat="44.51953" lon="1.03859">
        <ele>96</ele>
        <time>2012-09-02T06:36:02Z</time>
      </trkpt>
      <trkpt lat="44.51933" lon="1.03814">
        <ele>92</ele>
        <time>2012-09-02T06:36:07Z</time>
      </trkpt>
      <trkpt lat="44.51919" lon="1.03768">
        <ele>89</ele>
        <time>2012-09-02T06:36:12Z</time>
      </trkpt>
      <trkpt lat="44.51907" lon="1.0372">
        <ele>89</ele>
        <time>2012-09-02T06:36:17Z</time>
      </trkpt>
      <trkpt lat="44.51897" lon="1.03665">
        <ele>86</ele>
        <time>2012-09-02T06:36:22Z</time>
      </trkpt>
      <trkpt lat="44.51885" lon="1.03615">
        <ele>85</ele>
        <time>2012-09-02T06:36:27Z</time>
      </trkpt>
      <trkpt lat="44.5188" lon="1.03562">
        <ele>85</ele>
        <time>2012-09-02T06:36:32Z</time>
      </trkpt>
      <trkpt lat="44.51881" lon="1.03505">
        <ele>85</ele>
        <time>2012-09-02T06:36:37Z</time>
      </trkpt>
      <trkpt lat="44.51886" lon="1.03456">
        <ele>85</ele>
        <time>2012-09-02T06:36:42Z</time>
      </trkpt>
      <trkpt lat="44.51886" lon="1.03414">
        <ele>85</ele>
        <time>2012-09-02T06:36:47Z</time>
      </trkpt>
      <trkpt lat="44.51894" lon="1.03375">
        <ele>85</ele>
        <time>2012-09-02T06:36:52Z</time>
      </trkpt>
      <trkpt lat="44.51892" lon="1.03328">
        <ele>85</ele>
        <time>2012-09-02T06:36:57Z</time>
      </trkpt>
      <trkpt lat="44.51886" lon="1.03287">
        <ele>85</ele>
        <time>2012-09-02T06:37:02Z</time>
      </trkpt>
      <trkpt lat="44.51879" lon="1.03252">
        <ele>85</ele>
        <time>2012-09-02T06:37:07Z</time>
      </trkpt>
      <trkpt lat="44.51878" lon="1.03226">
        <ele>86</ele>
        <time>2012-09-02T06:37:12Z</time>
      </trkpt>
      <trkpt lat="44.5189" lon="1.03225">
        <ele>87</ele>
        <time>2012-09-02T06:37:17Z</time>
      </trkpt>
      <trkpt lat="44.51915" lon="1.03225">
        <ele>87</ele>
        <time>2012-09-02T06:37:22Z</time>
      </trkpt>
      <trkpt lat="44.51921" lon="1.03203">
        <ele>87</ele>
        <time>2012-09-02T06:37:27Z</time>
      </trkpt>
      <trkpt lat="44.51923" lon="1.03175">
        <ele>87</ele>
        <time>2012-09-02T06:37:32Z</time>
      </trkpt>
      <trkpt lat="44.51925" lon="1.03144">
        <ele>87</ele>
        <time>2012-09-02T06:37:37Z</time>
      </trkpt>
      <trkpt lat="44.51924" lon="1.03115">
        <ele>87</ele>
        <time>2012-09-02T06:37:42Z</time>
      </trkpt>
      <trkpt lat="44.51929" lon="1.03098">
        <ele>86</ele>
        <time>2012-09-02T06:37:47Z</time>
      </trkpt>
      <trkpt lat="44.51948" lon="1.03096">
        <ele>86</ele>
        <time>2012-09-02T06:37:52Z</time>
      </trkpt>
      <trkpt lat="44.51971" lon="1.03102">
        <ele>86</ele>
        <time>2012-09-02T06:37:57Z</time>
      </trkpt>
      <trkpt lat="44.52" lon="1.03104">
        <ele>86</ele>
        <time>2012-09-02T06:38:02Z</time>
      </trkpt>
      <trkpt lat="44.52029" lon="1.03105">
        <ele>86</ele>
        <time>2012-09-02T06:38:07Z</time>
      </trkpt>
      <trkpt lat="44.52058" lon="1.03105">
        <ele>85</ele>
        <time>2012-09-02T06:38:12Z</time>
      </trkpt>
      <trkpt lat="44.52086" lon="1.03108">
        <ele>84</ele>
        <time>2012-09-02T06:38:17Z</time>
      </trkpt>
      <trkpt lat="44.52114" lon="1.03114">
        <ele>84</ele>
        <time>2012-09-02T06:38:22Z</time>
      </trkpt>
      <trkpt lat="44.52141" lon="1.03122">
        <ele>84</ele>
        <time>2012-09-02T06:38:27Z</time>
      </trkpt>
      <trkpt lat="44.52167" lon="1.03131">
        <ele>84</ele>
        <time>2012-09-02T06:38:32Z</time>
      </trkpt>
      <trkpt lat="44.52182" lon="1.03136">
        <ele>84</ele>
        <time>2012-09-02T06:38:37Z</time>
      </trkpt>
      <trkpt lat="44.52186" lon="1.03117">
        <ele>84</ele>
        <time>2012-09-02T06:38:42Z</time>
      </trkpt>
      <trkpt lat="44.52183" lon="1.03086">
        <ele>84</ele>
        <time>2012-09-02T06:38:47Z</time>
      </trkpt>
      <trkpt lat="44.52179" lon="1.0305">
        <ele>84</ele>
        <time>2012-09-02T06:38:52Z</time>
      </trkpt>
      <trkpt lat="44.52176" lon="1.03013">
        <ele>84</ele>
        <time>2012-09-02T06:38:57Z</time>
      </trkpt>
      <trkpt lat="44.52172" lon="1.02976">
        <ele>85</ele>
        <time>2012-09-02T06:39:02Z</time>
      </trkpt>
      <trkpt lat="44.52169" lon="1.02939">
        <ele>85</ele>
        <time>2012-09-02T06:39:07Z</time>
      </trkpt>
      <trkpt lat="44.52167" lon="1.02904">
        <ele>85</ele>
        <time>2012-09-02T06:39:12Z</time>
      </trkpt>
      <trkpt lat="44.52176" lon="1.02878">
        <ele>85</ele>
        <time>2012-09-02T06:39:17Z</time>
      </trkpt>
      <trkpt lat="44.52195" lon="1.02868">
        <ele>85</ele>
        <time>2012-09-02T06:39:22Z</time>
      </trkpt>
      <trkpt lat="44.52211" lon="1.02854">
        <ele>86</ele>
        <time>2012-09-02T06:39:27Z</time>
      </trkpt>
      <trkpt lat="44.52225" lon="1.02837">
        <ele>88</ele>
        <time>2012-09-02T06:39:32Z</time>
      </trkpt>
      <trkpt lat="44.52238" lon="1.02822">
        <ele>89</ele>
        <time>2012-09-02T06:39:37Z</time>
      </trkpt>
      <trkpt lat="44.52245" lon="1.02806">
        <ele>90</ele>
        <time>2012-09-02T06:39:42Z</time>
      </trkpt>
      <trkpt lat="44.52253" lon="1.02795">
        <ele>92</ele>
        <time>2012-09-02T06:39:47Z</time>
      </trkpt>
      <trkpt lat="44.5226" lon="1.02788">
        <ele>96</ele>
        <time>2012-09-02T06:39:53Z</time>
      </trkpt>
      <trkpt lat="44.52267" lon="1.02782">
        <ele>99</ele>
        <time>2012-09-02T06:39:58Z</time>
      </trkpt>
      <trkpt lat="44.52277" lon="1.02775">
        <ele>102</ele>
        <time>2012-09-02T06:40:03Z</time>
      </trkpt>
      <trkpt lat="44.52286" lon="1.02765">
        <ele>106</ele>
        <time>2012-09-02T06:40:08Z</time>
      </trkpt>
      <trkpt lat="44.52295" lon="1.02757">
        <ele>109</ele>
        <time>2012-09-02T06:40:13Z</time>
      </trkpt>
      <trkpt lat="44.52305" lon="1.02751">
        <ele>110</ele>
        <time>2012-09-02T06:40:18Z</time>
      </trkpt>
      <trkpt lat="44.52317" lon="1.02745">
        <ele>111</ele>
        <time>2012-09-02T06:40:23Z</time>
      </trkpt>
      <trkpt lat="44.52329" lon="1.02739">
        <ele>111</ele>
        <time>2012-09-02T06:40:28Z</time>
      </trkpt>
      <trkpt lat="44.5234" lon="1.02731">
        <ele>113</ele>
        <time>2012-09-02T06:40:33Z</time>
      </trkpt>
      <trkpt lat="44.5235" lon="1.02722">
        <ele>115</ele>
        <time>2012-09-02T06:40:38Z</time>
      </trkpt>
      <trkpt lat="44.52359" lon="1.02712">
        <ele>116</ele>
        <time>2012-09-02T06:40:43Z</time>
      </trkpt>
      <trkpt lat="44.52367" lon="1.027">
        <ele>117</ele>
        <time>2012-09-02T06:40:48Z</time>
      </trkpt>
      <trkpt lat="44.52375" lon="1.02686">
        <ele>119</ele>
        <time>2012-09-02T06:40:53Z</time>
      </trkpt>
      <trkpt lat="44.52384" lon="1.02674">
        <ele>121</ele>
        <time>2012-09-02T06:40:58Z</time>
      </trkpt>
      <trkpt lat="44.52391" lon="1.02662">
        <ele>121</ele>
        <time>2012-09-02T06:41:03Z</time>
      </trkpt>
      <trkpt lat="44.52399" lon="1.02649">
        <ele>121</ele>
        <time>2012-09-02T06:41:08Z</time>
      </trkpt>
      <trkpt lat="44.52404" lon="1.02636">
        <ele>121</ele>
        <time>2012-09-02T06:41:13Z</time>
      </trkpt>
      <trkpt lat="44.52407" lon="1.02624">
        <ele>121</ele>
        <time>2012-09-02T06:41:18Z</time>
      </trkpt>
      <trkpt lat="44.52409" lon="1.02612">
        <ele>121</ele>
        <time>2012-09-02T06:41:23Z</time>
      </trkpt>
      <trkpt lat="44.52412" lon="1.02599">
        <ele>121</ele>
        <time>2012-09-02T06:41:28Z</time>
      </trkpt>
      <trkpt lat="44.52415" lon="1.02588">
        <ele>121</ele>
        <time>2012-09-02T06:41:33Z</time>
      </trkpt>
      <trkpt lat="44.5242" lon="1.02576">
        <ele>121</ele>
        <time>2012-09-02T06:41:38Z</time>
      </trkpt>
      <trkpt lat="44.52426" lon="1.02564">
        <ele>123</ele>
        <time>2012-09-02T06:41:43Z</time>
      </trkpt>
      <trkpt lat="44.52431" lon="1.02552">
        <ele>124</ele>
        <time>2012-09-02T06:41:48Z</time>
      </trkpt>
      <trkpt lat="44.52437" lon="1.02541">
        <ele>125</ele>
        <time>2012-09-02T06:41:53Z</time>
      </trkpt>
      <trkpt lat="44.52444" lon="1.0253">
        <ele>125</ele>
        <time>2012-09-02T06:41:58Z</time>
      </trkpt>
      <trkpt lat="44.52453" lon="1.02517">
        <ele>126</ele>
        <time>2012-09-02T06:42:03Z</time>
      </trkpt>
      <trkpt lat="44.52461" lon="1.02505">
        <ele>127</ele>
        <time>2012-09-02T06:42:08Z</time>
      </trkpt>
      <trkpt lat="44.52467" lon="1.02493">
        <ele>129</ele>
        <time>2012-09-02T06:42:13Z</time>
      </trkpt>
      <trkpt lat="44.52471" lon="1.02484">
        <ele>133</ele>
        <time>2012-09-02T06:42:18Z</time>
      </trkpt>
      <trkpt lat="44.52479" lon="1.02475">
        <ele>138</ele>
        <time>2012-09-02T06:42:23Z</time>
      </trkpt>
      <trkpt lat="44.52489" lon="1.02463">
        <ele>143</ele>
        <time>2012-09-02T06:42:28Z</time>
      </trkpt>
      <trkpt lat="44.525" lon="1.02454">
        <ele>148</ele>
        <time>2012-09-02T06:42:33Z</time>
      </trkpt>
      <trkpt lat="44.52511" lon="1.02445">
        <ele>150</ele>
        <time>2012-09-02T06:42:38Z</time>
      </trkpt>
      <trkpt lat="44.52522" lon="1.02434">
        <ele>154</ele>
        <time>2012-09-02T06:42:43Z</time>
      </trkpt>
      <trkpt lat="44.52533" lon="1.02424">
        <ele>155</ele>
        <time>2012-09-02T06:42:48Z</time>
      </trkpt>
      <trkpt lat="44.52546" lon="1.02417">
        <ele>157</ele>
        <time>2012-09-02T06:42:53Z</time>
      </trkpt>
      <trkpt lat="44.52563" lon="1.02403">
        <ele>157</ele>
        <time>2012-09-02T06:42:58Z</time>
      </trkpt>
      <trkpt lat="44.5258" lon="1.02382">
        <ele>157</ele>
        <time>2012-09-02T06:43:03Z</time>
      </trkpt>
      <trkpt lat="44.52593" lon="1.02354">
        <ele>157</ele>
        <time>2012-09-02T06:43:08Z</time>
      </trkpt>
      <trkpt lat="44.52601" lon="1.02321">
        <ele>157</ele>
        <time>2012-09-02T06:43:13Z</time>
      </trkpt>
      <trkpt lat="44.5261" lon="1.0228">
        <ele>157</ele>
        <time>2012-09-02T06:43:18Z</time>
      </trkpt>
      <trkpt lat="44.52628" lon="1.02245">
        <ele>156</ele>
        <time>2012-09-02T06:43:23Z</time>
      </trkpt>
      <trkpt lat="44.52649" lon="1.0222">
        <ele>154</ele>
        <time>2012-09-02T06:43:28Z</time>
      </trkpt>
      <trkpt lat="44.52671" lon="1.02202">
        <ele>154</ele>
        <time>2012-09-02T06:43:33Z</time>
      </trkpt>
      <trkpt lat="44.52689" lon="1.02176">
        <ele>154</ele>
        <time>2012-09-02T06:43:38Z</time>
      </trkpt>
      <trkpt lat="44.52708" lon="1.02152">
        <ele>154</ele>
        <time>2012-09-02T06:43:43Z</time>
      </trkpt>
      <trkpt lat="44.52723" lon="1.02141">
        <ele>154</ele>
        <time>2012-09-02T06:43:48Z</time>
      </trkpt>
      <trkpt lat="44.52736" lon="1.02133">
        <ele>158</ele>
        <time>2012-09-02T06:43:53Z</time>
      </trkpt>
      <trkpt lat="44.52753" lon="1.02123">
        <ele>161</ele>
        <time>2012-09-02T06:43:58Z</time>
      </trkpt>
      <trkpt lat="44.52766" lon="1.0212">
        <ele>164</ele>
        <time>2012-09-02T06:44:03Z</time>
      </trkpt>
      <trkpt lat="44.52783" lon="1.0212">
        <ele>166</ele>
        <time>2012-09-02T06:44:08Z</time>
      </trkpt>
      <trkpt lat="44.52806" lon="1.02117">
        <ele>168</ele>
        <time>2012-09-02T06:44:13Z</time>
      </trkpt>
      <trkpt lat="44.52823" lon="1.02122">
        <ele>169</ele>
        <time>2012-09-02T06:44:18Z</time>
      </trkpt>
      <trkpt lat="44.52836" lon="1.0212">
        <ele>171</ele>
        <time>2012-09-02T06:44:23Z</time>
      </trkpt>
      <trkpt lat="44.52848" lon="1.02118">
        <ele>171</ele>
        <time>2012-09-02T06:44:28Z</time>
      </trkpt>
      <trkpt lat="44.52863" lon="1.02115">
        <ele>174</ele>
        <time>2012-09-02T06:44:33Z</time>
      </trkpt>
      <trkpt lat="44.52875" lon="1.02113">
        <ele>178</ele>
        <time>2012-09-02T06:44:38Z</time>
      </trkpt>
      <trkpt lat="44.52885" lon="1.02108">
        <ele>179</ele>
        <time>2012-09-02T06:44:43Z</time>
      </trkpt>
      <trkpt lat="44.52897" lon="1.02098">
        <ele>179</ele>
        <time>2012-09-02T06:44:48Z</time>
      </trkpt>
      <trkpt lat="44.52903" lon="1.02084">
        <ele>179</ele>
        <time>2012-09-02T06:44:53Z</time>
      </trkpt>
      <trkpt lat="44.52914" lon="1.02066">
        <ele>179</ele>
        <time>2012-09-02T06:44:58Z</time>
      </trkpt>
      <trkpt lat="44.52929" lon="1.02044">
        <ele>181</ele>
        <time>2012-09-02T06:45:03Z</time>
      </trkpt>
      <trkpt lat="44.52937" lon="1.02023">
        <ele>182</ele>
        <time>2012-09-02T06:45:08Z</time>
      </trkpt>
      <trkpt lat="44.52946" lon="1.02001">
        <ele>183</ele>
        <time>2012-09-02T06:45:13Z</time>
      </trkpt>
      <trkpt lat="44.52946" lon="1.0198">
        <ele>180</ele>
        <time>2012-09-02T06:45:18Z</time>
      </trkpt>
      <trkpt lat="44.52939" lon="1.01956">
        <ele>180</ele>
        <time>2012-09-02T06:45:23Z</time>
      </trkpt>
      <trkpt lat="44.52937" lon="1.0193">
        <ele>177</ele>
        <time>2012-09-02T06:45:28Z</time>
      </trkpt>
      <trkpt lat="44.52947" lon="1.01911">
        <ele>177</ele>
        <time>2012-09-02T06:45:33Z</time>
      </trkpt>
      <trkpt lat="44.52958" lon="1.01901">
        <ele>178</ele>
        <time>2012-09-02T06:45:38Z</time>
      </trkpt>
      <trkpt lat="44.52969" lon="1.01902">
        <ele>181</ele>
        <time>2012-09-02T06:45:43Z</time>
      </trkpt>
      <trkpt lat="44.52978" lon="1.01904">
        <ele>181</ele>
        <time>2012-09-02T06:45:48Z</time>
      </trkpt>
      <trkpt lat="44.5299" lon="1.01901">
        <ele>183</ele>
        <time>2012-09-02T06:45:53Z</time>
      </trkpt>
      <trkpt lat="44.53" lon="1.01899">
        <ele>185</ele>
        <time>2012-09-02T06:45:58Z</time>
      </trkpt>
      <trkpt lat="44.53009" lon="1.01896">
        <ele>186</ele>
        <time>2012-09-02T06:46:03Z</time>
      </trkpt>
      <trkpt lat="44.53016" lon="1.01894">
        <ele>189</ele>
        <time>2012-09-02T06:46:08Z</time>
      </trkpt>
      <trkpt lat="44.53024" lon="1.01888">
        <ele>191</ele>
        <time>2012-09-02T06:46:13Z</time>
      </trkpt>
      <trkpt lat="44.5303" lon="1.01881">
        <ele>192</ele>
        <time>2012-09-02T06:46:19Z</time>
      </trkpt>
      <trkpt lat="44.53036" lon="1.01873">
        <ele>192</ele>
        <time>2012-09-02T06:46:24Z</time>
      </trkpt>
      <trkpt lat="44.53043" lon="1.01867">
        <ele>192</ele>
        <time>2012-09-02T06:46:29Z</time>
      </trkpt>
      <trkpt lat="44.53048" lon="1.01863">
        <ele>192</ele>
        <time>2012-09-02T06:46:34Z</time>
      </trkpt>
      <trkpt lat="44.53055" lon="1.01859">
        <ele>192</ele>
        <time>2012-09-02T06:46:39Z</time>
      </trkpt>
      <trkpt lat="44.53062" lon="1.01856">
        <ele>193</ele>
        <time>2012-09-02T06:46:44Z</time>
      </trkpt>
      <trkpt lat="44.5307" lon="1.01856">
        <ele>194</ele>
        <time>2012-09-02T06:46:49Z</time>
      </trkpt>
      <trkpt lat="44.53079" lon="1.01857">
        <ele>195</ele>
        <time>2012-09-02T06:46:54Z</time>
      </trkpt>
      <trkpt lat="44.53087" lon="1.01861">
        <ele>195</ele>
        <time>2012-09-02T06:46:59Z</time>
      </trkpt>
      <trkpt lat="44.53094" lon="1.01865">
        <ele>195</ele>
        <time>2012-09-02T06:47:04Z</time>
      </trkpt>
      <trkpt lat="44.53102" lon="1.01872">
        <ele>197</ele>
        <time>2012-09-02T06:47:09Z</time>
      </trkpt>
      <trkpt lat="44.53106" lon="1.01881">
        <ele>198</ele>
        <time>2012-09-02T06:47:14Z</time>
      </trkpt>
      <trkpt lat="44.53111" lon="1.0189">
        <ele>199</ele>
        <time>2012-09-02T06:47:19Z</time>
      </trkpt>
      <trkpt lat="44.5312" lon="1.01894">
        <ele>199</ele>
        <time>2012-09-02T06:47:24Z</time>
      </trkpt>
      <trkpt lat="44.53128" lon="1.01899">
        <ele>199</ele>
        <time>2012-09-02T06:47:29Z</time>
      </trkpt>
      <trkpt lat="44.53137" lon="1.01902">
        <ele>199</ele>
        <time>2012-09-02T06:47:34Z</time>
      </trkpt>
      <trkpt lat="44.53144" lon="1.01903">
        <ele>199</ele>
        <time>2012-09-02T06:47:39Z</time>
      </trkpt>
      <trkpt lat="44.53151" lon="1.01901">
        <ele>199</ele>
        <time>2012-09-02T06:47:44Z</time>
      </trkpt>
      <trkpt lat="44.53159" lon="1.01901">
        <ele>200</ele>
        <time>2012-09-02T06:47:49Z</time>
      </trkpt>
      <trkpt lat="44.53166" lon="1.01903">
        <ele>202</ele>
        <time>2012-09-02T06:47:54Z</time>
      </trkpt>
      <trkpt lat="44.53176" lon="1.01902">
        <ele>206</ele>
        <time>2012-09-02T06:47:59Z</time>
      </trkpt>
      <trkpt lat="44.53185" lon="1.019">
        <ele>207</ele>
        <time>2012-09-02T06:48:04Z</time>
      </trkpt>
      <trkpt lat="44.53193" lon="1.019">
        <ele>209</ele>
        <time>2012-09-02T06:48:09Z</time>
      </trkpt>
      <trkpt lat="44.53202" lon="1.01901">
        <ele>211</ele>
        <time>2012-09-02T06:48:14Z</time>
      </trkpt>
      <trkpt lat="44.53211" lon="1.01901">
        <ele>212</ele>
        <time>2012-09-02T06:48:19Z</time>
      </trkpt>
      <trkpt lat="44.5322" lon="1.01904">
        <ele>212</ele>
        <time>2012-09-02T06:48:24Z</time>
      </trkpt>
      <trkpt lat="44.53228" lon="1.01901">
        <ele>212</ele>
        <time>2012-09-02T06:48:29Z</time>
      </trkpt>
      <trkpt lat="44.53241" lon="1.01904">
        <ele>212</ele>
        <time>2012-09-02T06:48:34Z</time>
      </trkpt>
      <trkpt lat="44.53252" lon="1.01912">
        <ele>212</ele>
        <time>2012-09-02T06:48:39Z</time>
      </trkpt>
      <trkpt lat="44.53264" lon="1.01913">
        <ele>212</ele>
        <time>2012-09-02T06:48:44Z</time>
      </trkpt>
      <trkpt lat="44.53281" lon="1.01913">
        <ele>215</ele>
        <time>2012-09-02T06:48:49Z</time>
      </trkpt>
      <trkpt lat="44.533" lon="1.01914">
        <ele>216</ele>
        <time>2012-09-02T06:48:54Z</time>
      </trkpt>
      <trkpt lat="44.53322" lon="1.01911">
        <ele>216</ele>
        <time>2012-09-02T06:48:59Z</time>
      </trkpt>
      <trkpt lat="44.53339" lon="1.01927">
        <ele>215</ele>
        <time>2012-09-02T06:49:04Z</time>
      </trkpt>
      <trkpt lat="44.53354" lon="1.01947">
        <ele>213</ele>
        <time>2012-09-02T06:49:09Z</time>
      </trkpt>
      <trkpt lat="44.53365" lon="1.01968">
        <ele>211</ele>
        <time>2012-09-02T06:49:14Z</time>
      </trkpt>
      <trkpt lat="44.53375" lon="1.01962">
        <ele>209</ele>
        <time>2012-09-02T06:49:19Z</time>
      </trkpt>
      <trkpt lat="44.53374" lon="1.01924">
        <ele>207</ele>
        <time>2012-09-02T06:49:24Z</time>
      </trkpt>
      <trkpt lat="44.53376" lon="1.01881">
        <ele>202</ele>
        <time>2012-09-02T06:49:29Z</time>
      </trkpt>
      <trkpt lat="44.53382" lon="1.01846">
        <ele>197</ele>
        <time>2012-09-02T06:49:34Z</time>
      </trkpt>
      <trkpt lat="44.53389" lon="1.018">
        <ele>192</ele>
        <time>2012-09-02T06:49:39Z</time>
      </trkpt>
      <trkpt lat="44.53399" lon="1.01766">
        <ele>188</ele>
        <time>2012-09-02T06:49:44Z</time>
      </trkpt>
      <trkpt lat="44.53424" lon="1.01741">
        <ele>188</ele>
        <time>2012-09-02T06:49:49Z</time>
      </trkpt>
      <trkpt lat="44.53445" lon="1.01717">
        <ele>184</ele>
        <time>2012-09-02T06:49:54Z</time>
      </trkpt>
      <trkpt lat="44.53458" lon="1.01697">
        <ele>180</ele>
        <time>2012-09-02T06:49:59Z</time>
      </trkpt>
      <trkpt lat="44.53472" lon="1.01671">
        <ele>177</ele>
        <time>2012-09-02T06:50:04Z</time>
      </trkpt>
      <trkpt lat="44.53484" lon="1.0165">
        <ele>172</ele>
        <time>2012-09-02T06:50:09Z</time>
      </trkpt>
      <trkpt lat="44.53489" lon="1.01627">
        <ele>167</ele>
        <time>2012-09-02T06:50:14Z</time>
      </trkpt>
      <trkpt lat="44.53504" lon="1.01597">
        <ele>162</ele>
        <time>2012-09-02T06:50:19Z</time>
      </trkpt>
      <trkpt lat="44.53518" lon="1.01569">
        <ele>159</ele>
        <time>2012-09-02T06:50:24Z</time>
      </trkpt>
      <trkpt lat="44.53526" lon="1.0156">
        <ele>156</ele>
        <time>2012-09-02T06:50:29Z</time>
      </trkpt>
      <trkpt lat="44.5353" lon="1.01576">
        <ele>156</ele>
        <time>2012-09-02T06:50:34Z</time>
      </trkpt>
      <trkpt lat="44.53535" lon="1.01597">
        <ele>156</ele>
        <time>2012-09-02T06:50:39Z</time>
      </trkpt>
      <trkpt lat="44.53542" lon="1.01631">
        <ele>156</ele>
        <time>2012-09-02T06:50:44Z</time>
      </trkpt>
      <trkpt lat="44.53557" lon="1.01662">
        <ele>156</ele>
        <time>2012-09-02T06:50:49Z</time>
      </trkpt>
      <trkpt lat="44.53572" lon="1.01686">
        <ele>155</ele>
        <time>2012-09-02T06:50:54Z</time>
      </trkpt>
      <trkpt lat="44.53583" lon="1.01678">
        <ele>155</ele>
        <time>2012-09-02T06:50:59Z</time>
      </trkpt>
      <trkpt lat="44.53588" lon="1.01639">
        <ele>155</ele>
        <time>2012-09-02T06:51:04Z</time>
      </trkpt>
      <trkpt lat="44.53603" lon="1.01605">
        <ele>155</ele>
        <time>2012-09-02T06:51:09Z</time>
      </trkpt>
      <trkpt lat="44.53617" lon="1.01572">
        <ele>155</ele>
        <time>2012-09-02T06:51:14Z</time>
      </trkpt>
      <trkpt lat="44.53642" lon="1.01539">
        <ele>150</ele>
        <time>2012-09-02T06:51:19Z</time>
      </trkpt>
      <trkpt lat="44.53672" lon="1.01511">
        <ele>144</ele>
        <time>2012-09-02T06:51:24Z</time>
      </trkpt>
      <trkpt lat="44.53704" lon="1.01482">
        <ele>136</ele>
        <time>2012-09-02T06:51:29Z</time>
      </trkpt>
      <trkpt lat="44.5373" lon="1.01462">
        <ele>131</ele>
        <time>2012-09-02T06:51:34Z</time>
      </trkpt>
      <trkpt lat="44.53741" lon="1.01449">
        <ele>127</ele>
        <time>2012-09-02T06:51:39Z</time>
      </trkpt>
      <trkpt lat="44.53741" lon="1.01429">
        <ele>125</ele>
        <time>2012-09-02T06:51:44Z</time>
      </trkpt>
      <trkpt lat="44.53738" lon="1.01407">
        <ele>124</ele>
        <time>2012-09-02T06:51:49Z</time>
      </trkpt>
      <trkpt lat="44.53737" lon="1.01389">
        <ele>123</ele>
        <time>2012-09-02T06:51:54Z</time>
      </trkpt>
      <trkpt lat="44.53742" lon="1.01389">
        <ele>123</ele>
        <time>2012-09-02T06:51:59Z</time>
      </trkpt>
      <trkpt lat="44.53748" lon="1.01394">
        <ele>123</ele>
        <time>2012-09-02T06:52:04Z</time>
      </trkpt>
      <trkpt lat="44.53747" lon="1.01384">
        <ele>123</ele>
        <time>2012-09-02T06:52:09Z</time>
      </trkpt>
      <trkpt lat="44.53749" lon="1.01366">
        <ele>123</ele>
        <time>2012-09-02T06:52:14Z</time>
      </trkpt>
      <trkpt lat="44.53759" lon="1.01348">
        <ele>125</ele>
        <time>2012-09-02T06:52:19Z</time>
      </trkpt>
      <trkpt lat="44.53773" lon="1.01342">
        <ele>130</ele>
        <time>2012-09-02T06:52:24Z</time>
      </trkpt>
      <trkpt lat="44.53785" lon="1.01336">
        <ele>135</ele>
        <time>2012-09-02T06:52:29Z</time>
      </trkpt>
      <trkpt lat="44.53798" lon="1.01337">
        <ele>140</ele>
        <time>2012-09-02T06:52:34Z</time>
      </trkpt>
      <trkpt lat="44.53814" lon="1.01336">
        <ele>141</ele>
        <time>2012-09-02T06:52:39Z</time>
      </trkpt>
      <trkpt lat="44.5383" lon="1.01335">
        <ele>141</ele>
        <time>2012-09-02T06:52:44Z</time>
      </trkpt>
      <trkpt lat="44.53844" lon="1.01337">
        <ele>141</ele>
        <time>2012-09-02T06:52:49Z</time>
      </trkpt>
      <trkpt lat="44.53858" lon="1.01338">
        <ele>141</ele>
        <time>2012-09-02T06:52:54Z</time>
      </trkpt>
      <trkpt lat="44.53861" lon="1.01344">
        <ele>141</ele>
        <time>2012-09-02T06:52:59Z</time>
      </trkpt>
      <trkpt lat="44.53847" lon="1.01351">
        <ele>141</ele>
        <time>2012-09-02T06:53:04Z</time>
      </trkpt>
      <trkpt lat="44.53838" lon="1.01356">
        <ele>145</ele>
        <time>2012-09-02T06:53:09Z</time>
      </trkpt>
      <trkpt lat="44.53835" lon="1.01366">
        <ele>147</ele>
        <time>2012-09-02T06:53:15Z</time>
      </trkpt>
      <trkpt lat="44.53836" lon="1.0137">
        <ele>147</ele>
        <time>2012-09-02T06:53:21Z</time>
      </trkpt>
      <trkpt lat="44.53836" lon="1.01374">
        <ele>147</ele>
        <time>2012-09-02T06:53:28Z</time>
      </trkpt>
      <trkpt lat="44.5384" lon="1.01377">
        <ele>147</ele>
        <time>2012-09-02T06:53:34Z</time>
      </trkpt>
      <trkpt lat="44.53844" lon="1.01381">
        <ele>147</ele>
        <time>2012-09-02T06:53:41Z</time>
      </trkpt>
      <trkpt lat="44.53847" lon="1.01383">
        <ele>149</ele>
        <time>2012-09-02T06:53:46Z</time>
      </trkpt>
      <trkpt lat="44.5385" lon="1.01384">
        <ele>149</ele>
        <time>2012-09-02T06:53:51Z</time>
      </trkpt>
      <trkpt lat="44.53854" lon="1.01387">
        <ele>150</ele>
        <time>2012-09-02T06:53:57Z</time>
      </trkpt>
      <trkpt lat="44.53852" lon="1.01388">
        <ele>152</ele>
        <time>2012-09-02T06:54:04Z</time>
      </trkpt>
      <trkpt lat="44.53849" lon="1.0139">
        <ele>157</ele>
        <time>2012-09-02T06:54:09Z</time>
      </trkpt>
      <trkpt lat="44.53849" lon="1.01395">
        <ele>159</ele>
        <time>2012-09-02T06:54:14Z</time>
      </trkpt>
      <trkpt lat="44.53853" lon="1.01399">
        <ele>161</ele>
        <time>2012-09-02T06:54:20Z</time>
      </trkpt>
      <trkpt lat="44.53854" lon="1.01402">
        <ele>161</ele>
        <time>2012-09-02T06:54:30Z</time>
      </trkpt>
      <trkpt lat="44.53861" lon="1.01409">
        <ele>161</ele>
        <time>2012-09-02T06:54:35Z</time>
      </trkpt>
      <trkpt lat="44.5387" lon="1.01416">
        <ele>162</ele>
        <time>2012-09-02T06:54:40Z</time>
      </trkpt>
      <trkpt lat="44.53879" lon="1.01408">
        <ele>163</ele>
        <time>2012-09-02T06:54:45Z</time>
      </trkpt>
      <trkpt lat="44.53884" lon="1.01403">
        <ele>164</ele>
        <time>2012-09-02T06:54:50Z</time>
      </trkpt>
      <trkpt lat="44.53887" lon="1.01404">
        <ele>164</ele>
        <time>2012-09-02T06:54:55Z</time>
      </trkpt>
      <trkpt lat="44.53888" lon="1.01409">
        <ele>164</ele>
        <time>2012-09-02T06:55:00Z</time>
      </trkpt>
      <trkpt lat="44.53892" lon="1.01418">
        <ele>164</ele>
        <time>2012-09-02T06:55:05Z</time>
      </trkpt>
      <trkpt lat="44.53902" lon="1.01417">
        <ele>164</ele>
        <time>2012-09-02T06:55:10Z</time>
      </trkpt>
      <trkpt lat="44.5391" lon="1.01407">
        <ele>166</ele>
        <time>2012-09-02T06:55:15Z</time>
      </trkpt>
      <trkpt lat="44.53917" lon="1.01395">
        <ele>169</ele>
        <time>2012-09-02T06:55:20Z</time>
      </trkpt>
      <trkpt lat="44.53924" lon="1.01388">
        <ele>170</ele>
        <time>2012-09-02T06:55:25Z</time>
      </trkpt>
      <trkpt lat="44.53929" lon="1.01387">
        <ele>173</ele>
        <time>2012-09-02T06:55:30Z</time>
      </trkpt>
      <trkpt lat="44.53936" lon="1.01386">
        <ele>176</ele>
        <time>2012-09-02T06:55:35Z</time>
      </trkpt>
      <trkpt lat="44.53944" lon="1.01382">
        <ele>181</ele>
        <time>2012-09-02T06:55:41Z</time>
      </trkpt>
      <trkpt lat="44.53952" lon="1.0138">
        <ele>184</ele>
        <time>2012-09-02T06:55:46Z</time>
      </trkpt>
      <trkpt lat="44.53959" lon="1.01379">
        <ele>186</ele>
        <time>2012-09-02T06:55:51Z</time>
      </trkpt>
      <trkpt lat="44.53966" lon="1.01382">
        <ele>188</ele>
        <time>2012-09-02T06:55:56Z</time>
      </trkpt>
      <trkpt lat="44.53975" lon="1.01382">
        <ele>190</ele>
        <time>2012-09-02T06:56:01Z</time>
      </trkpt>
      <trkpt lat="44.53981" lon="1.01388">
        <ele>190</ele>
        <time>2012-09-02T06:56:07Z</time>
      </trkpt>
      <trkpt lat="44.53989" lon="1.01391">
        <ele>190</ele>
        <time>2012-09-02T06:56:12Z</time>
      </trkpt>
      <trkpt lat="44.53999" lon="1.01389">
        <ele>190</ele>
        <time>2012-09-02T06:56:17Z</time>
      </trkpt>
      <trkpt lat="44.54008" lon="1.01392">
        <ele>193</ele>
        <time>2012-09-02T06:56:22Z</time>
      </trkpt>
      <trkpt lat="44.54012" lon="1.01398">
        <ele>194</ele>
        <time>2012-09-02T06:56:27Z</time>
      </trkpt>
      <trkpt lat="44.54013" lon="1.01409">
        <ele>194</ele>
        <time>2012-09-02T06:56:32Z</time>
      </trkpt>
      <trkpt lat="44.5401" lon="1.01421">
        <ele>194</ele>
        <time>2012-09-02T06:56:37Z</time>
      </trkpt>
      <trkpt lat="44.5401" lon="1.01434">
        <ele>194</ele>
        <time>2012-09-02T06:56:42Z</time>
      </trkpt>
      <trkpt lat="44.54015" lon="1.01442">
        <ele>194</ele>
        <time>2012-09-02T06:56:47Z</time>
      </trkpt>
      <trkpt lat="44.54021" lon="1.01437">
        <ele>194</ele>
        <time>2012-09-02T06:56:52Z</time>
      </trkpt>
      <trkpt lat="44.5403" lon="1.01428">
        <ele>198</ele>
        <time>2012-09-02T06:56:57Z</time>
      </trkpt>
      <trkpt lat="44.54039" lon="1.01421">
        <ele>203</ele>
        <time>2012-09-02T06:57:02Z</time>
      </trkpt>
      <trkpt lat="44.54047" lon="1.01415">
        <ele>205</ele>
        <time>2012-09-02T06:57:07Z</time>
      </trkpt>
      <trkpt lat="44.54056" lon="1.01417">
        <ele>208</ele>
        <time>2012-09-02T06:57:12Z</time>
      </trkpt>
      <trkpt lat="44.5406" lon="1.01426">
        <ele>208</ele>
        <time>2012-09-02T06:57:17Z</time>
      </trkpt>
      <trkpt lat="44.54063" lon="1.0144">
        <ele>208</ele>
        <time>2012-09-02T06:57:22Z</time>
      </trkpt>
      <trkpt lat="44.54069" lon="1.01452">
        <ele>208</ele>
        <time>2012-09-02T06:57:27Z</time>
      </trkpt>
      <trkpt lat="44.54077" lon="1.01465">
        <ele>208</ele>
        <time>2012-09-02T06:57:32Z</time>
      </trkpt>
      <trkpt lat="44.54085" lon="1.01477">
        <ele>208</ele>
        <time>2012-09-02T06:57:37Z</time>
      </trkpt>
      <trkpt lat="44.54092" lon="1.01481">
        <ele>208</ele>
        <time>2012-09-02T06:57:42Z</time>
      </trkpt>
      <trkpt lat="44.54101" lon="1.01481">
        <ele>208</ele>
        <time>2012-09-02T06:57:47Z</time>
      </trkpt>
      <trkpt lat="44.54111" lon="1.01487">
        <ele>209</ele>
        <time>2012-09-02T06:57:52Z</time>
      </trkpt>
      <trkpt lat="44.54121" lon="1.01487">
        <ele>211</ele>
        <time>2012-09-02T06:57:57Z</time>
      </trkpt>
      <trkpt lat="44.54132" lon="1.0148">
        <ele>214</ele>
        <time>2012-09-02T06:58:02Z</time>
      </trkpt>
      <trkpt lat="44.54144" lon="1.01481">
        <ele>215</ele>
        <time>2012-09-02T06:58:07Z</time>
      </trkpt>
      <trkpt lat="44.54158" lon="1.01477">
        <ele>215</ele>
        <time>2012-09-02T06:58:12Z</time>
      </trkpt>
      <trkpt lat="44.54177" lon="1.01473">
        <ele>215</ele>
        <time>2012-09-02T06:58:17Z</time>
      </trkpt>
      <trkpt lat="44.54194" lon="1.01464">
        <ele>216</ele>
        <time>2012-09-02T06:58:22Z</time>
      </trkpt>
      <trkpt lat="44.54206" lon="1.01469">
        <ele>217</ele>
        <time>2012-09-02T06:58:27Z</time>
      </trkpt>
      <trkpt lat="44.54219" lon="1.01485">
        <ele>218</ele>
        <time>2012-09-02T06:58:32Z</time>
      </trkpt>
      <trkpt lat="44.54234" lon="1.01479">
        <ele>218</ele>
        <time>2012-09-02T06:58:37Z</time>
      </trkpt>
      <trkpt lat="44.54253" lon="1.01464">
        <ele>217</ele>
        <time>2012-09-02T06:58:42Z</time>
      </trkpt>
      <trkpt lat="44.54265" lon="1.01444">
        <ele>215</ele>
        <time>2012-09-02T06:58:47Z</time>
      </trkpt>
      <trkpt lat="44.54275" lon="1.01421">
        <ele>214</ele>
        <time>2012-09-02T06:58:52Z</time>
      </trkpt>
      <trkpt lat="44.54297" lon="1.01403">
        <ele>214</ele>
        <time>2012-09-02T06:58:57Z</time>
      </trkpt>
      <trkpt lat="44.54321" lon="1.01386">
        <ele>214</ele>
        <time>2012-09-02T06:59:02Z</time>
      </trkpt>
      <trkpt lat="44.54343" lon="1.01374">
        <ele>215</ele>
        <time>2012-09-02T06:59:07Z</time>
      </trkpt>
      <trkpt lat="44.54363" lon="1.01369">
        <ele>216</ele>
        <time>2012-09-02T06:59:12Z</time>
      </trkpt>
      <trkpt lat="44.54373" lon="1.01374">
        <ele>216</ele>
        <time>2012-09-02T06:59:17Z</time>
      </trkpt>
      <trkpt lat="44.54394" lon="1.01365">
        <ele>214</ele>
        <time>2012-09-02T06:59:22Z</time>
      </trkpt>
      <trkpt lat="44.54417" lon="1.01352">
        <ele>210</ele>
        <time>2012-09-02T06:59:27Z</time>
      </trkpt>
      <trkpt lat="44.54443" lon="1.01353">
        <ele>208</ele>
        <time>2012-09-02T06:59:32Z</time>
      </trkpt>
      <trkpt lat="44.54467" lon="1.01358">
        <ele>207</ele>
        <time>2012-09-02T06:59:37Z</time>
      </trkpt>
      <trkpt lat="44.54493" lon="1.01384">
        <ele>203</ele>
        <time>2012-09-02T06:59:42Z</time>
      </trkpt>
      <trkpt lat="44.54521" lon="1.01398">
        <ele>201</ele>
        <time>2012-09-02T06:59:47Z</time>
      </trkpt>
      <trkpt lat="44.54546" lon="1.01417">
        <ele>198</ele>
        <time>2012-09-02T06:59:52Z</time>
      </trkpt>
      <trkpt lat="44.54571" lon="1.01441">
        <ele>193</ele>
        <time>2012-09-02T06:59:57Z</time>
      </trkpt>
      <trkpt lat="44.54578" lon="1.01467">
        <ele>188</ele>
        <time>2012-09-02T07:00:02Z</time>
      </trkpt>
      <trkpt lat="44.54595" lon="1.0147">
        <ele>187</ele>
        <time>2012-09-02T07:00:07Z</time>
      </trkpt>
      <trkpt lat="44.54628" lon="1.01469">
        <ele>187</ele>
        <time>2012-09-02T07:00:12Z</time>
      </trkpt>
      <trkpt lat="44.5466" lon="1.01467">
        <ele>187</ele>
        <time>2012-09-02T07:00:17Z</time>
      </trkpt>
      <trkpt lat="44.54685" lon="1.01471">
        <ele>187</ele>
        <time>2012-09-02T07:00:22Z</time>
      </trkpt>
      <trkpt lat="44.54712" lon="1.01468">
        <ele>190</ele>
        <time>2012-09-02T07:00:27Z</time>
      </trkpt>
      <trkpt lat="44.54754" lon="1.01456">
        <ele>192</ele>
        <time>2012-09-02T07:00:32Z</time>
      </trkpt>
      <trkpt lat="44.54795" lon="1.01455">
        <ele>193</ele>
        <time>2012-09-02T07:00:37Z</time>
      </trkpt>
      <trkpt lat="44.5483" lon="1.01477">
        <ele>193</ele>
        <time>2012-09-02T07:00:42Z</time>
      </trkpt>
      <trkpt lat="44.54856" lon="1.01516">
        <ele>193</ele>
        <time>2012-09-02T07:00:47Z</time>
      </trkpt>
      <trkpt lat="44.54879" lon="1.01554">
        <ele>193</ele>
        <time>2012-09-02T07:00:52Z</time>
      </trkpt>
      <trkpt lat="44.54916" lon="1.01557">
        <ele>193</ele>
        <time>2012-09-02T07:00:57Z</time>
      </trkpt>
      <trkpt lat="44.5495" lon="1.01564">
        <ele>193</ele>
        <time>2012-09-02T07:01:02Z</time>
      </trkpt>
      <trkpt lat="44.54982" lon="1.01569">
        <ele>193</ele>
        <time>2012-09-02T07:01:07Z</time>
      </trkpt>
      <trkpt lat="44.5501" lon="1.01576">
        <ele>193</ele>
        <time>2012-09-02T07:01:12Z</time>
      </trkpt>
      <trkpt lat="44.55035" lon="1.01591">
        <ele>193</ele>
        <time>2012-09-02T07:01:17Z</time>
      </trkpt>
      <trkpt lat="44.55061" lon="1.01609">
        <ele>193</ele>
        <time>2012-09-02T07:01:22Z</time>
      </trkpt>
      <trkpt lat="44.55088" lon="1.01622">
        <ele>193</ele>
        <time>2012-09-02T07:01:27Z</time>
      </trkpt>
      <trkpt lat="44.55112" lon="1.01642">
        <ele>193</ele>
        <time>2012-09-02T07:01:32Z</time>
      </trkpt>
      <trkpt lat="44.55137" lon="1.01663">
        <ele>193</ele>
        <time>2012-09-02T07:01:37Z</time>
      </trkpt>
      <trkpt lat="44.55158" lon="1.0168">
        <ele>193</ele>
        <time>2012-09-02T07:01:42Z</time>
      </trkpt>
      <trkpt lat="44.55174" lon="1.01696">
        <ele>193</ele>
        <time>2012-09-02T07:01:47Z</time>
      </trkpt>
      <trkpt lat="44.55188" lon="1.01715">
        <ele>195</ele>
        <time>2012-09-02T07:01:52Z</time>
      </trkpt>
      <trkpt lat="44.55199" lon="1.01733">
        <ele>197</ele>
        <time>2012-09-02T07:01:57Z</time>
      </trkpt>
      <trkpt lat="44.5521" lon="1.0175">
        <ele>199</ele>
        <time>2012-09-02T07:02:02Z</time>
      </trkpt>
      <trkpt lat="44.55224" lon="1.01764">
        <ele>201</ele>
        <time>2012-09-02T07:02:07Z</time>
      </trkpt>
      <trkpt lat="44.55244" lon="1.01786">
        <ele>202</ele>
        <time>2012-09-02T07:02:12Z</time>
      </trkpt>
      <trkpt lat="44.55267" lon="1.01809">
        <ele>202</ele>
        <time>2012-09-02T07:02:17Z</time>
      </trkpt>
      <trkpt lat="44.55289" lon="1.01831">
        <ele>203</ele>
        <time>2012-09-02T07:02:22Z</time>
      </trkpt>
      <trkpt lat="44.55309" lon="1.01844">
        <ele>204</ele>
        <time>2012-09-02T07:02:27Z</time>
      </trkpt>
      <trkpt lat="44.55326" lon="1.01842">
        <ele>205</ele>
        <time>2012-09-02T07:02:32Z</time>
      </trkpt>
      <trkpt lat="44.55339" lon="1.0182">
        <ele>205</ele>
        <time>2012-09-02T07:02:37Z</time>
      </trkpt>
      <trkpt lat="44.55354" lon="1.01795">
        <ele>205</ele>
        <time>2012-09-02T07:02:42Z</time>
      </trkpt>
      <trkpt lat="44.55384" lon="1.01797">
        <ele>205</ele>
        <time>2012-09-02T07:02:48Z</time>
      </trkpt>
      <trkpt lat="44.55407" lon="1.01788">
        <ele>205</ele>
        <time>2012-09-02T07:02:53Z</time>
      </trkpt>
      <trkpt lat="44.55425" lon="1.01786">
        <ele>205</ele>
        <time>2012-09-02T07:02:58Z</time>
      </trkpt>
      <trkpt lat="44.55435" lon="1.01811">
        <ele>205</ele>
        <time>2012-09-02T07:03:03Z</time>
      </trkpt>
      <trkpt lat="44.55439" lon="1.01844">
        <ele>205</ele>
        <time>2012-09-02T07:03:08Z</time>
      </trkpt>
      <trkpt lat="44.55434" lon="1.01874">
        <ele>205</ele>
        <time>2012-09-02T07:03:13Z</time>
      </trkpt>
      <trkpt lat="44.5543" lon="1.01898">
        <ele>205</ele>
        <time>2012-09-02T07:03:18Z</time>
      </trkpt>
      <trkpt lat="44.55425" lon="1.01919">
        <ele>206</ele>
        <time>2012-09-02T07:03:23Z</time>
      </trkpt>
      <trkpt lat="44.55422" lon="1.01938">
        <ele>208</ele>
        <time>2012-09-02T07:03:28Z</time>
      </trkpt>
      <trkpt lat="44.55419" lon="1.01956">
        <ele>209</ele>
        <time>2012-09-02T07:03:33Z</time>
      </trkpt>
      <trkpt lat="44.55425" lon="1.0197">
        <ele>212</ele>
        <time>2012-09-02T07:03:38Z</time>
      </trkpt>
      <trkpt lat="44.55439" lon="1.01984">
        <ele>214</ele>
        <time>2012-09-02T07:03:43Z</time>
      </trkpt>
      <trkpt lat="44.55453" lon="1.02002">
        <ele>214</ele>
        <time>2012-09-02T07:03:48Z</time>
      </trkpt>
      <trkpt lat="44.55467" lon="1.02024">
        <ele>216</ele>
        <time>2012-09-02T07:03:53Z</time>
      </trkpt>
      <trkpt lat="44.5548" lon="1.02047">
        <ele>217</ele>
        <time>2012-09-02T07:03:58Z</time>
      </trkpt>
      <trkpt lat="44.55495" lon="1.02069">
        <ele>218</ele>
        <time>2012-09-02T07:04:03Z</time>
      </trkpt>
      <trkpt lat="44.55508" lon="1.0209">
        <ele>218</ele>
        <time>2012-09-02T07:04:08Z</time>
      </trkpt>
      <trkpt lat="44.55524" lon="1.0211">
        <ele>220</ele>
        <time>2012-09-02T07:04:13Z</time>
      </trkpt>
      <trkpt lat="44.5554" lon="1.02126">
        <ele>223</ele>
        <time>2012-09-02T07:04:18Z</time>
      </trkpt>
      <trkpt lat="44.55557" lon="1.0214">
        <ele>224</ele>
        <time>2012-09-02T07:04:23Z</time>
      </trkpt>
      <trkpt lat="44.5557" lon="1.02156">
        <ele>226</ele>
        <time>2012-09-02T07:04:28Z</time>
      </trkpt>
      <trkpt lat="44.55582" lon="1.02168">
        <ele>229</ele>
        <time>2012-09-02T07:04:33Z</time>
      </trkpt>
      <trkpt lat="44.55597" lon="1.02178">
        <ele>231</ele>
        <time>2012-09-02T07:04:38Z</time>
      </trkpt>
      <trkpt lat="44.55613" lon="1.02188">
        <ele>231</ele>
        <time>2012-09-02T07:04:43Z</time>
      </trkpt>
      <trkpt lat="44.55631" lon="1.02189">
        <ele>231</ele>
        <time>2012-09-02T07:04:48Z</time>
      </trkpt>
      <trkpt lat="44.55652" lon="1.02174">
        <ele>231</ele>
        <time>2012-09-02T07:04:53Z</time>
      </trkpt>
      <trkpt lat="44.55675" lon="1.02161">
        <ele>231</ele>
        <time>2012-09-02T07:04:58Z</time>
      </trkpt>
      <trkpt lat="44.55697" lon="1.02148">
        <ele>231</ele>
        <time>2012-09-02T07:05:03Z</time>
      </trkpt>
      <trkpt lat="44.55718" lon="1.02137">
        <ele>231</ele>
        <time>2012-09-02T07:05:08Z</time>
      </trkpt>
      <trkpt lat="44.55739" lon="1.02127">
        <ele>231</ele>
        <time>2012-09-02T07:05:13Z</time>
      </trkpt>
      <trkpt lat="44.55761" lon="1.0212">
        <ele>231</ele>
        <time>2012-09-02T07:05:18Z</time>
      </trkpt>
      <trkpt lat="44.55779" lon="1.02114">
        <ele>236</ele>
        <time>2012-09-02T07:05:23Z</time>
      </trkpt>
      <trkpt lat="44.55798" lon="1.02111">
        <ele>240</ele>
        <time>2012-09-02T07:05:28Z</time>
      </trkpt>
      <trkpt lat="44.55821" lon="1.02108">
        <ele>240</ele>
        <time>2012-09-02T07:05:33Z</time>
      </trkpt>
      <trkpt lat="44.55843" lon="1.02103">
        <ele>240</ele>
        <time>2012-09-02T07:05:38Z</time>
      </trkpt>
      <trkpt lat="44.55867" lon="1.02099">
        <ele>240</ele>
        <time>2012-09-02T07:05:43Z</time>
      </trkpt>
      <trkpt lat="44.55894" lon="1.02095">
        <ele>240</ele>
        <time>2012-09-02T07:05:48Z</time>
      </trkpt>
      <trkpt lat="44.55925" lon="1.0209">
        <ele>240</ele>
        <time>2012-09-02T07:05:53Z</time>
      </trkpt>
      <trkpt lat="44.55943" lon="1.02111">
        <ele>240</ele>
        <time>2012-09-02T07:05:59Z</time>
      </trkpt>
      <trkpt lat="44.55958" lon="1.02136">
        <ele>240</ele>
        <time>2012-09-02T07:06:04Z</time>
      </trkpt>
      <trkpt lat="44.55969" lon="1.02162">
        <ele>240</ele>
        <time>2012-09-02T07:06:09Z</time>
      </trkpt>
      <trkpt lat="44.55973" lon="1.02188">
        <ele>242</ele>
        <time>2012-09-02T07:06:14Z</time>
      </trkpt>
      <trkpt lat="44.55975" lon="1.02213">
        <ele>244</ele>
        <time>2012-09-02T07:06:19Z</time>
      </trkpt>
      <trkpt lat="44.5598" lon="1.02229">
        <ele>246</ele>
        <time>2012-09-02T07:06:24Z</time>
      </trkpt>
      <trkpt lat="44.55985" lon="1.02248">
        <ele>246</ele>
        <time>2012-09-02T07:06:29Z</time>
      </trkpt>
      <trkpt lat="44.55993" lon="1.02268">
        <ele>246</ele>
        <time>2012-09-02T07:06:34Z</time>
      </trkpt>
      <trkpt lat="44.56002" lon="1.02289">
        <ele>246</ele>
        <time>2012-09-02T07:06:39Z</time>
      </trkpt>
      <trkpt lat="44.56008" lon="1.02316">
        <ele>246</ele>
        <time>2012-09-02T07:06:44Z</time>
      </trkpt>
      <trkpt lat="44.56016" lon="1.02346">
        <ele>247</ele>
        <time>2012-09-02T07:06:49Z</time>
      </trkpt>
      <trkpt lat="44.56019" lon="1.02371">
        <ele>247</ele>
        <time>2012-09-02T07:06:54Z</time>
      </trkpt>
      <trkpt lat="44.56016" lon="1.02395">
        <ele>247</ele>
        <time>2012-09-02T07:06:59Z</time>
      </trkpt>
      <trkpt lat="44.56011" lon="1.02422">
        <ele>247</ele>
        <time>2012-09-02T07:07:04Z</time>
      </trkpt>
      <trkpt lat="44.56003" lon="1.02452">
        <ele>247</ele>
        <time>2012-09-02T07:07:09Z</time>
      </trkpt>
      <trkpt lat="44.55998" lon="1.02484">
        <ele>247</ele>
        <time>2012-09-02T07:07:14Z</time>
      </trkpt>
      <trkpt lat="44.55997" lon="1.02526">
        <ele>247</ele>
        <time>2012-09-02T07:07:19Z</time>
      </trkpt>
      <trkpt lat="44.55996" lon="1.02562">
        <ele>247</ele>
        <time>2012-09-02T07:07:24Z</time>
      </trkpt>
      <trkpt lat="44.55999" lon="1.02573">
        <ele>247</ele>
        <time>2012-09-02T07:07:31Z</time>
      </trkpt>
      <trkpt lat="44.56006" lon="1.02577">
        <ele>247</ele>
        <time>2012-09-02T07:07:36Z</time>
      </trkpt>
      <trkpt lat="44.56027" lon="1.02593">
        <ele>247</ele>
        <time>2012-09-02T07:07:42Z</time>
      </trkpt>
      <trkpt lat="44.56055" lon="1.02624">
        <ele>244</ele>
        <time>2012-09-02T07:07:47Z</time>
      </trkpt>
      <trkpt lat="44.56107" lon="1.02634">
        <ele>239</ele>
        <time>2012-09-02T07:07:53Z</time>
      </trkpt>
      <trkpt lat="44.56139" lon="1.02637">
        <ele>237</ele>
        <time>2012-09-02T07:07:58Z</time>
      </trkpt>
      <trkpt lat="44.56172" lon="1.02643">
        <ele>234</ele>
        <time>2012-09-02T07:08:03Z</time>
      </trkpt>
      <trkpt lat="44.56194" lon="1.02644">
        <ele>232</ele>
        <time>2012-09-02T07:08:10Z</time>
      </trkpt>
      <trkpt lat="44.56198" lon="1.02639">
        <ele>231</ele>
        <time>2012-09-02T07:08:15Z</time>
      </trkpt>
      <trkpt lat="44.56218" lon="1.02624">
        <ele>234</ele>
        <time>2012-09-02T07:08:20Z</time>
      </trkpt>
      <trkpt lat="44.56243" lon="1.02604">
        <ele>239</ele>
        <time>2012-09-02T07:08:25Z</time>
      </trkpt>
      <trkpt lat="44.56267" lon="1.02594">
        <ele>243</ele>
        <time>2012-09-02T07:08:30Z</time>
      </trkpt>
      <trkpt lat="44.5628" lon="1.02587">
        <ele>244</ele>
        <time>2012-09-02T07:08:35Z</time>
      </trkpt>
      <trkpt lat="44.56287" lon="1.02605">
        <ele>244</ele>
        <time>2012-09-02T07:08:40Z</time>
      </trkpt>
      <trkpt lat="44.56299" lon="1.02632">
        <ele>247</ele>
        <time>2012-09-02T07:08:46Z</time>
      </trkpt>
      <trkpt lat="44.56316" lon="1.02646">
        <ele>247</ele>
        <time>2012-09-02T07:08:51Z</time>
      </trkpt>
      <trkpt lat="44.56331" lon="1.02656">
        <ele>247</ele>
        <time>2012-09-02T07:08:56Z</time>
      </trkpt>
      <trkpt lat="44.56349" lon="1.02674">
        <ele>246</ele>
        <time>2012-09-02T07:09:01Z</time>
      </trkpt>
      <trkpt lat="44.56362" lon="1.02699">
        <ele>245</ele>
        <time>2012-09-02T07:09:06Z</time>
      </trkpt>
      <trkpt lat="44.56371" lon="1.02727">
        <ele>243</ele>
        <time>2012-09-02T07:09:11Z</time>
      </trkpt>
      <trkpt lat="44.56381" lon="1.02759">
        <ele>242</ele>
        <time>2012-09-02T07:09:16Z</time>
      </trkpt>
      <trkpt lat="44.56389" lon="1.02793">
        <ele>241</ele>
        <time>2012-09-02T07:09:21Z</time>
      </trkpt>
      <trkpt lat="44.56394" lon="1.02826">
        <ele>239</ele>
        <time>2012-09-02T07:09:26Z</time>
      </trkpt>
      <trkpt lat="44.56394" lon="1.0286">
        <ele>239</ele>
        <time>2012-09-02T07:09:31Z</time>
      </trkpt>
      <trkpt lat="44.56393" lon="1.02894">
        <ele>238</ele>
        <time>2012-09-02T07:09:36Z</time>
      </trkpt>
      <trkpt lat="44.5639" lon="1.02929">
        <ele>238</ele>
        <time>2012-09-02T07:09:41Z</time>
      </trkpt>
      <trkpt lat="44.56388" lon="1.02961">
        <ele>238</ele>
        <time>2012-09-02T07:09:46Z</time>
      </trkpt>
      <trkpt lat="44.56385" lon="1.02994">
        <ele>238</ele>
        <time>2012-09-02T07:09:51Z</time>
      </trkpt>
      <trkpt lat="44.56378" lon="1.03025">
        <ele>238</ele>
        <time>2012-09-02T07:09:56Z</time>
      </trkpt>
      <trkpt lat="44.56376" lon="1.03056">
        <ele>238</ele>
        <time>2012-09-02T07:10:01Z</time>
      </trkpt>
      <trkpt lat="44.56371" lon="1.03086">
        <ele>238</ele>
        <time>2012-09-02T07:10:06Z</time>
      </trkpt>
      <trkpt lat="44.56364" lon="1.03118">
        <ele>238</ele>
        <time>2012-09-02T07:10:11Z</time>
      </trkpt>
      <trkpt lat="44.56353" lon="1.03147">
        <ele>238</ele>
        <time>2012-09-02T07:10:16Z</time>
      </trkpt>
      <trkpt lat="44.56343" lon="1.03179">
        <ele>242</ele>
        <time>2012-09-02T07:10:21Z</time>
      </trkpt>
      <trkpt lat="44.56331" lon="1.03213">
        <ele>246</ele>
        <time>2012-09-02T07:10:26Z</time>
      </trkpt>
      <trkpt lat="44.56319" lon="1.03247">
        <ele>247</ele>
        <time>2012-09-02T07:10:31Z</time>
      </trkpt>
      <trkpt lat="44.56307" lon="1.03286">
        <ele>248</ele>
        <time>2012-09-02T07:10:36Z</time>
      </trkpt>
      <trkpt lat="44.56278" lon="1.03326">
        <ele>249</ele>
        <time>2012-09-02T07:10:42Z</time>
      </trkpt>
      <trkpt lat="44.56247" lon="1.03354">
        <ele>249</ele>
        <time>2012-09-02T07:10:47Z</time>
      </trkpt>
      <trkpt lat="44.56225" lon="1.0339">
        <ele>249</ele>
        <time>2012-09-02T07:10:52Z</time>
      </trkpt>
      <trkpt lat="44.56211" lon="1.03426">
        <ele>249</ele>
        <time>2012-09-02T07:10:57Z</time>
      </trkpt>
      <trkpt lat="44.56197" lon="1.03461">
        <ele>249</ele>
        <time>2012-09-02T07:11:02Z</time>
      </trkpt>
      <trkpt lat="44.56188" lon="1.03498">
        <ele>248</ele>
        <time>2012-09-02T07:11:07Z</time>
      </trkpt>
      <trkpt lat="44.56187" lon="1.03532">
        <ele>248</ele>
        <time>2012-09-02T07:11:12Z</time>
      </trkpt>
      <trkpt lat="44.56193" lon="1.03567">
        <ele>248</ele>
        <time>2012-09-02T07:11:17Z</time>
      </trkpt>
      <trkpt lat="44.56203" lon="1.03598">
        <ele>250</ele>
        <time>2012-09-02T07:11:22Z</time>
      </trkpt>
      <trkpt lat="44.56216" lon="1.03623">
        <ele>251</ele>
        <time>2012-09-02T07:11:27Z</time>
      </trkpt>
      <trkpt lat="44.56228" lon="1.03641">
        <ele>252</ele>
        <time>2012-09-02T07:11:32Z</time>
      </trkpt>
      <trkpt lat="44.56221" lon="1.03647">
        <ele>252</ele>
        <time>2012-09-02T07:11:37Z</time>
      </trkpt>
      <trkpt lat="44.56208" lon="1.03636">
        <ele>252</ele>
        <time>2012-09-02T07:11:42Z</time>
      </trkpt>
      <trkpt lat="44.56193" lon="1.03628">
        <ele>251</ele>
        <time>2012-09-02T07:11:47Z</time>
      </trkpt>
      <trkpt lat="44.56178" lon="1.03615">
        <ele>247</ele>
        <time>2012-09-02T07:11:52Z</time>
      </trkpt>
      <trkpt lat="44.56157" lon="1.03602">
        <ele>245</ele>
        <time>2012-09-02T07:11:57Z</time>
      </trkpt>
      <trkpt lat="44.56131" lon="1.03583">
        <ele>245</ele>
        <time>2012-09-02T07:12:02Z</time>
      </trkpt>
      <trkpt lat="44.56101" lon="1.03562">
        <ele>245</ele>
        <time>2012-09-02T07:12:07Z</time>
      </trkpt>
      <trkpt lat="44.56075" lon="1.03537">
        <ele>245</ele>
        <time>2012-09-02T07:12:12Z</time>
      </trkpt>
      <trkpt lat="44.56053" lon="1.0351">
        <ele>245</ele>
        <time>2012-09-02T07:12:17Z</time>
      </trkpt>
      <trkpt lat="44.56027" lon="1.03486">
        <ele>245</ele>
        <time>2012-09-02T07:12:22Z</time>
      </trkpt>
      <trkpt lat="44.55997" lon="1.0346">
        <ele>248</ele>
        <time>2012-09-02T07:12:27Z</time>
      </trkpt>
      <trkpt lat="44.55962" lon="1.03438">
        <ele>249</ele>
        <time>2012-09-02T07:12:32Z</time>
      </trkpt>
      <trkpt lat="44.55933" lon="1.03417">
        <ele>249</ele>
        <time>2012-09-02T07:12:37Z</time>
      </trkpt>
      <trkpt lat="44.55909" lon="1.03386">
        <ele>248</ele>
        <time>2012-09-02T07:12:42Z</time>
      </trkpt>
      <trkpt lat="44.55878" lon="1.03361">
        <ele>243</ele>
        <time>2012-09-02T07:12:47Z</time>
      </trkpt>
      <trkpt lat="44.55838" lon="1.0335">
        <ele>239</ele>
        <time>2012-09-02T07:12:52Z</time>
      </trkpt>
      <trkpt lat="44.55827" lon="1.03343">
        <ele>234</ele>
        <time>2012-09-02T07:12:57Z</time>
      </trkpt>
      <trkpt lat="44.55816" lon="1.03333">
        <ele>229</ele>
        <time>2012-09-02T07:13:02Z</time>
      </trkpt>
      <trkpt lat="44.5579" lon="1.03318">
        <ele>224</ele>
        <time>2012-09-02T07:13:07Z</time>
      </trkpt>
      <trkpt lat="44.55767" lon="1.03297">
        <ele>220</ele>
        <time>2012-09-02T07:13:12Z</time>
      </trkpt>
      <trkpt lat="44.55744" lon="1.03294">
        <ele>216</ele>
        <time>2012-09-02T07:13:17Z</time>
      </trkpt>
      <trkpt lat="44.55744" lon="1.03311">
        <ele>215</ele>
        <time>2012-09-02T07:13:22Z</time>
      </trkpt>
      <trkpt lat="44.55738" lon="1.0333">
        <ele>213</ele>
        <time>2012-09-02T07:13:27Z</time>
      </trkpt>
      <trkpt lat="44.55734" lon="1.03354">
        <ele>213</ele>
        <time>2012-09-02T07:13:32Z</time>
      </trkpt>
      <trkpt lat="44.55732" lon="1.03378">
        <ele>213</ele>
        <time>2012-09-02T07:13:37Z</time>
      </trkpt>
      <trkpt lat="44.55728" lon="1.03402">
        <ele>213</ele>
        <time>2012-09-02T07:13:42Z</time>
      </trkpt>
      <trkpt lat="44.55723" lon="1.03423">
        <ele>213</ele>
        <time>2012-09-02T07:13:47Z</time>
      </trkpt>
      <trkpt lat="44.55719" lon="1.03443">
        <ele>213</ele>
        <time>2012-09-02T07:13:52Z</time>
      </trkpt>
      <trkpt lat="44.55714" lon="1.03467">
        <ele>213</ele>
        <time>2012-09-02T07:13:57Z</time>
      </trkpt>
      <trkpt lat="44.55706" lon="1.03493">
        <ele>214</ele>
        <time>2012-09-02T07:14:02Z</time>
      </trkpt>
      <trkpt lat="44.55695" lon="1.03526">
        <ele>214</ele>
        <time>2012-09-02T07:14:07Z</time>
      </trkpt>
      <trkpt lat="44.5568" lon="1.03564">
        <ele>214</ele>
        <time>2012-09-02T07:14:12Z</time>
      </trkpt>
      <trkpt lat="44.55662" lon="1.03606">
        <ele>213</ele>
        <time>2012-09-02T07:14:17Z</time>
      </trkpt>
      <trkpt lat="44.55645" lon="1.03638">
        <ele>212</ele>
        <time>2012-09-02T07:14:22Z</time>
      </trkpt>
      <trkpt lat="44.55631" lon="1.03666">
        <ele>211</ele>
        <time>2012-09-02T07:14:27Z</time>
      </trkpt>
      <trkpt lat="44.55619" lon="1.03689">
        <ele>211</ele>
        <time>2012-09-02T07:14:32Z</time>
      </trkpt>
      <trkpt lat="44.55606" lon="1.03675">
        <ele>211</ele>
        <time>2012-09-02T07:14:37Z</time>
      </trkpt>
      <trkpt lat="44.55584" lon="1.03647">
        <ele>211</ele>
        <time>2012-09-02T07:14:42Z</time>
      </trkpt>
      <trkpt lat="44.55558" lon="1.03619">
        <ele>210</ele>
        <time>2012-09-02T07:14:47Z</time>
      </trkpt>
      <trkpt lat="44.55542" lon="1.03579">
        <ele>207</ele>
        <time>2012-09-02T07:14:52Z</time>
      </trkpt>
      <trkpt lat="44.55519" lon="1.03535">
        <ele>204</ele>
        <time>2012-09-02T07:14:57Z</time>
      </trkpt>
      <trkpt lat="44.55497" lon="1.03499">
        <ele>202</ele>
        <time>2012-09-02T07:15:02Z</time>
      </trkpt>
      <trkpt lat="44.55491" lon="1.03462">
        <ele>199</ele>
        <time>2012-09-02T07:15:07Z</time>
      </trkpt>
      <trkpt lat="44.55494" lon="1.03418">
        <ele>198</ele>
        <time>2012-09-02T07:15:12Z</time>
      </trkpt>
      <trkpt lat="44.55478" lon="1.03382">
        <ele>198</ele>
        <time>2012-09-02T07:15:17Z</time>
      </trkpt>
      <trkpt lat="44.55452" lon="1.03363">
        <ele>198</ele>
        <time>2012-09-02T07:15:22Z</time>
      </trkpt>
      <trkpt lat="44.55436" lon="1.03341">
        <ele>198</ele>
        <time>2012-09-02T07:15:27Z</time>
      </trkpt>
      <trkpt lat="44.55426" lon="1.03319">
        <ele>198</ele>
        <time>2012-09-02T07:15:32Z</time>
      </trkpt>
      <trkpt lat="44.5541" lon="1.03313">
        <ele>198</ele>
        <time>2012-09-02T07:15:37Z</time>
      </trkpt>
      <trkpt lat="44.55386" lon="1.03314">
        <ele>198</ele>
        <time>2012-09-02T07:15:42Z</time>
      </trkpt>
      <trkpt lat="44.55359" lon="1.03314">
        <ele>198</ele>
        <time>2012-09-02T07:15:47Z</time>
      </trkpt>
      <trkpt lat="44.55328" lon="1.03315">
        <ele>198</ele>
        <time>2012-09-02T07:15:52Z</time>
      </trkpt>
      <trkpt lat="44.5529" lon="1.03316">
        <ele>198</ele>
        <time>2012-09-02T07:15:57Z</time>
      </trkpt>
      <trkpt lat="44.55252" lon="1.03317">
        <ele>196</ele>
        <time>2012-09-02T07:16:02Z</time>
      </trkpt>
      <trkpt lat="44.5522" lon="1.03322">
        <ele>196</ele>
        <time>2012-09-02T07:16:07Z</time>
      </trkpt>
      <trkpt lat="44.55188" lon="1.0333">
        <ele>196</ele>
        <time>2012-09-02T07:16:12Z</time>
      </trkpt>
      <trkpt lat="44.55158" lon="1.03349">
        <ele>196</ele>
        <time>2012-09-02T07:16:17Z</time>
      </trkpt>
      <trkpt lat="44.55141" lon="1.03364">
        <ele>196</ele>
        <time>2012-09-02T07:16:22Z</time>
      </trkpt>
      <trkpt lat="44.55125" lon="1.03377">
        <ele>196</ele>
        <time>2012-09-02T07:16:27Z</time>
      </trkpt>
      <trkpt lat="44.55103" lon="1.03395">
        <ele>196</ele>
        <time>2012-09-02T07:16:32Z</time>
      </trkpt>
      <trkpt lat="44.55072" lon="1.03413">
        <ele>196</ele>
        <time>2012-09-02T07:16:37Z</time>
      </trkpt>
      <trkpt lat="44.55031" lon="1.03417">
        <ele>196</ele>
        <time>2012-09-02T07:16:42Z</time>
      </trkpt>
      <trkpt lat="44.54993" lon="1.03417">
        <ele>193</ele>
        <time>2012-09-02T07:16:47Z</time>
      </trkpt>
      <trkpt lat="44.54962" lon="1.03434">
        <ele>192</ele>
        <time>2012-09-02T07:16:52Z</time>
      </trkpt>
      <trkpt lat="44.54937" lon="1.03449">
        <ele>192</ele>
        <time>2012-09-02T07:16:57Z</time>
      </trkpt>
      <trkpt lat="44.54905" lon="1.03455">
        <ele>192</ele>
        <time>2012-09-02T07:17:02Z</time>
      </trkpt>
      <trkpt lat="44.54866" lon="1.03457">
        <ele>192</ele>
        <time>2012-09-02T07:17:07Z</time>
      </trkpt>
      <trkpt lat="44.5483" lon="1.03466">
        <ele>192</ele>
        <time>2012-09-02T07:17:12Z</time>
      </trkpt>
      <trkpt lat="44.54792" lon="1.03483">
        <ele>192</ele>
        <time>2012-09-02T07:17:17Z</time>
      </trkpt>
      <trkpt lat="44.54764" lon="1.03512">
        <ele>192</ele>
        <time>2012-09-02T07:17:22Z</time>
      </trkpt>
      <trkpt lat="44.54739" lon="1.0355">
        <ele>192</ele>
        <time>2012-09-02T07:17:27Z</time>
      </trkpt>
      <trkpt lat="44.54728" lon="1.03597">
        <ele>192</ele>
        <time>2012-09-02T07:17:32Z</time>
      </trkpt>
      <trkpt lat="44.54727" lon="1.0365">
        <ele>192</ele>
        <time>2012-09-02T07:17:37Z</time>
      </trkpt>
      <trkpt lat="44.54732" lon="1.03704">
        <ele>192</ele>
        <time>2012-09-02T07:17:42Z</time>
      </trkpt>
      <trkpt lat="44.54743" lon="1.03753">
        <ele>192</ele>
        <time>2012-09-02T07:17:47Z</time>
      </trkpt>
      <trkpt lat="44.54749" lon="1.03809">
        <ele>188</ele>
        <time>2012-09-02T07:17:52Z</time>
      </trkpt>
      <trkpt lat="44.54745" lon="1.03862">
        <ele>183</ele>
        <time>2012-09-02T07:17:57Z</time>
      </trkpt>
      <trkpt lat="44.54732" lon="1.03916">
        <ele>178</ele>
        <time>2012-09-02T07:18:02Z</time>
      </trkpt>
      <trkpt lat="44.54715" lon="1.03964">
        <ele>176</ele>
        <time>2012-09-02T07:18:07Z</time>
      </trkpt>
      <trkpt lat="44.54688" lon="1.04017">
        <ele>176</ele>
        <time>2012-09-02T07:18:12Z</time>
      </trkpt>
      <trkpt lat="44.54661" lon="1.04058">
        <ele>176</ele>
        <time>2012-09-02T07:18:17Z</time>
      </trkpt>
      <trkpt lat="44.54626" lon="1.04095">
        <ele>176</ele>
        <time>2012-09-02T07:18:22Z</time>
      </trkpt>
      <trkpt lat="44.54598" lon="1.04123">
        <ele>174</ele>
        <time>2012-09-02T07:18:27Z</time>
      </trkpt>
      <trkpt lat="44.5457" lon="1.04132">
        <ele>168</ele>
        <time>2012-09-02T07:18:32Z</time>
      </trkpt>
      <trkpt lat="44.54532" lon="1.04145">
        <ele>160</ele>
        <time>2012-09-02T07:18:37Z</time>
      </trkpt>
      <trkpt lat="44.54488" lon="1.04187">
        <ele>156</ele>
        <time>2012-09-02T07:18:42Z</time>
      </trkpt>
      <trkpt lat="44.54458" lon="1.04216">
        <ele>156</ele>
        <time>2012-09-02T07:18:47Z</time>
      </trkpt>
      <trkpt lat="44.54425" lon="1.04219">
        <ele>155</ele>
        <time>2012-09-02T07:18:52Z</time>
      </trkpt>
      <trkpt lat="44.54386" lon="1.04211">
        <ele>155</ele>
        <time>2012-09-02T07:18:57Z</time>
      </trkpt>
      <trkpt lat="44.54342" lon="1.04185">
        <ele>155</ele>
        <time>2012-09-02T07:19:02Z</time>
      </trkpt>
      <trkpt lat="44.54305" lon="1.04164">
        <ele>155</ele>
        <time>2012-09-02T07:19:07Z</time>
      </trkpt>
      <trkpt lat="44.54269" lon="1.04146">
        <ele>155</ele>
        <time>2012-09-02T07:19:12Z</time>
      </trkpt>
      <trkpt lat="44.54236" lon="1.04132">
        <ele>153</ele>
        <time>2012-09-02T07:19:17Z</time>
      </trkpt>
      <trkpt lat="44.542" lon="1.0412">
        <ele>148</ele>
        <time>2012-09-02T07:19:22Z</time>
      </trkpt>
      <trkpt lat="44.54163" lon="1.04111">
        <ele>146</ele>
        <time>2012-09-02T07:19:27Z</time>
      </trkpt>
      <trkpt lat="44.54122" lon="1.04105">
        <ele>146</ele>
        <time>2012-09-02T07:19:32Z</time>
      </trkpt>
      <trkpt lat="44.54081" lon="1.04101">
        <ele>145</ele>
        <time>2012-09-02T07:19:37Z</time>
      </trkpt>
      <trkpt lat="44.54045" lon="1.04096">
        <ele>143</ele>
        <time>2012-09-02T07:19:42Z</time>
      </trkpt>
      <trkpt lat="44.54013" lon="1.04099">
        <ele>141</ele>
        <time>2012-09-02T07:19:47Z</time>
      </trkpt>
      <trkpt lat="44.53977" lon="1.04109">
        <ele>140</ele>
        <time>2012-09-02T07:19:52Z</time>
      </trkpt>
      <trkpt lat="44.53939" lon="1.04116">
        <ele>139</ele>
        <time>2012-09-02T07:19:57Z</time>
      </trkpt>
      <trkpt lat="44.53903" lon="1.04122">
        <ele>139</ele>
        <time>2012-09-02T07:20:02Z</time>
      </trkpt>
      <trkpt lat="44.53864" lon="1.04122">
        <ele>139</ele>
        <time>2012-09-02T07:20:07Z</time>
      </trkpt>
      <trkpt lat="44.53828" lon="1.04141">
        <ele>143</ele>
        <time>2012-09-02T07:20:12Z</time>
      </trkpt>
      <trkpt lat="44.538" lon="1.04167">
        <ele>143</ele>
        <time>2012-09-02T07:20:17Z</time>
      </trkpt>
      <trkpt lat="44.53768" lon="1.04201">
        <ele>143</ele>
        <time>2012-09-02T07:20:22Z</time>
      </trkpt>
      <trkpt lat="44.53734" lon="1.04245">
        <ele>139</ele>
        <time>2012-09-02T07:20:27Z</time>
      </trkpt>
      <trkpt lat="44.53711" lon="1.04287">
        <ele>136</ele>
        <time>2012-09-02T07:20:32Z</time>
      </trkpt>
      <trkpt lat="44.53701" lon="1.04333">
        <ele>131</ele>
        <time>2012-09-02T07:20:37Z</time>
      </trkpt>
      <trkpt lat="44.53696" lon="1.04388">
        <ele>127</ele>
        <time>2012-09-02T07:20:42Z</time>
      </trkpt>
      <trkpt lat="44.53686" lon="1.04444">
        <ele>122</ele>
        <time>2012-09-02T07:20:47Z</time>
      </trkpt>
      <trkpt lat="44.53679" lon="1.045">
        <ele>117</ele>
        <time>2012-09-02T07:20:52Z</time>
      </trkpt>
      <trkpt lat="44.53675" lon="1.04548">
        <ele>113</ele>
        <time>2012-09-02T07:20:57Z</time>
      </trkpt>
      <trkpt lat="44.53666" lon="1.0459">
        <ele>109</ele>
        <time>2012-09-02T07:21:02Z</time>
      </trkpt>
      <trkpt lat="44.53633" lon="1.0462">
        <ele>108</ele>
        <time>2012-09-02T07:21:07Z</time>
      </trkpt>
      <trkpt lat="44.53608" lon="1.04649">
        <ele>107</ele>
        <time>2012-09-02T07:21:12Z</time>
      </trkpt>
      <trkpt lat="44.5358" lon="1.04677">
        <ele>107</ele>
        <time>2012-09-02T07:21:17Z</time>
      </trkpt>
      <trkpt lat="44.53564" lon="1.0469">
        <ele>107</ele>
        <time>2012-09-02T07:21:22Z</time>
      </trkpt>
      <trkpt lat="44.53549" lon="1.04693">
        <ele>112</ele>
        <time>2012-09-02T07:21:27Z</time>
      </trkpt>
      <trkpt lat="44.5355" lon="1.04691">
        <ele>118</ele>
        <time>2012-09-02T07:21:33Z</time>
      </trkpt>
      <trkpt lat="44.53553" lon="1.04687">
        <ele>118</ele>
        <time>2012-09-02T07:21:42Z</time>
      </trkpt>
      <trkpt lat="44.53553" lon="1.04688">
        <ele>116</ele>
        <time>2012-09-02T07:21:51Z</time>
      </trkpt>
      <trkpt lat="44.53553" lon="1.0469">
        <ele>115</ele>
        <time>2012-09-02T07:21:57Z</time>
      </trkpt>
      <trkpt lat="44.53553" lon="1.04691">
        <ele>115</ele>
        <time>2012-09-02T07:22:07Z</time>
      </trkpt>
      <trkpt lat="44.53554" lon="1.04691">
        <ele>115</ele>
        <time>2012-09-02T07:22:23Z</time>
      </trkpt>
      <trkpt lat="44.53557" lon="1.04691">
        <ele>115</ele>
        <time>2012-09-02T07:22:36Z</time>
      </trkpt>
      <trkpt lat="44.53556" lon="1.04691">
        <ele>115</ele>
        <time>2012-09-02T07:22:55Z</time>
      </trkpt>
      <trkpt lat="44.53557" lon="1.04691">
        <ele>117</ele>
        <time>2012-09-02T07:23:09Z</time>
      </trkpt>
      <trkpt lat="44.5356" lon="1.04692">
        <ele>119</ele>
        <time>2012-09-02T07:23:16Z</time>
      </trkpt>
      <trkpt lat="44.53561" lon="1.0469">
        <ele>119</ele>
        <time>2012-09-02T07:23:24Z</time>
      </trkpt>
      <trkpt lat="44.53562" lon="1.0469">
        <ele>119</ele>
        <time>2012-09-02T07:23:32Z</time>
      </trkpt>
      <trkpt lat="44.53567" lon="1.04692">
        <ele>122</ele>
        <time>2012-09-02T07:23:39Z</time>
      </trkpt>
      <trkpt lat="44.53569" lon="1.04693">
        <ele>124</ele>
        <time>2012-09-02T07:23:46Z</time>
      </trkpt>
      <trkpt lat="44.53569" lon="1.04694">
        <ele>128</ele>
        <time>2012-09-02T07:24:03Z</time>
      </trkpt>
      <trkpt lat="44.53569" lon="1.04692">
        <ele>128</ele>
        <time>2012-09-02T07:24:10Z</time>
      </trkpt>
      <trkpt lat="44.53568" lon="1.04693">
        <ele>129</ele>
        <time>2012-09-02T07:24:20Z</time>
      </trkpt>
      <trkpt lat="44.53566" lon="1.04692">
        <ele>129</ele>
        <time>2012-09-02T07:24:29Z</time>
      </trkpt>
      <trkpt lat="44.53565" lon="1.04691">
        <ele>133</ele>
        <time>2012-09-02T07:24:44Z</time>
      </trkpt>
      <trkpt lat="44.53561" lon="1.04691">
        <ele>134</ele>
        <time>2012-09-02T07:24:50Z</time>
      </trkpt>
      <trkpt lat="44.53555" lon="1.04692">
        <ele>138</ele>
        <time>2012-09-02T07:24:55Z</time>
      </trkpt>
      <trkpt lat="44.5355" lon="1.04692">
        <ele>141</ele>
        <time>2012-09-02T07:25:02Z</time>
      </trkpt>
      <trkpt lat="44.53548" lon="1.0469">
        <ele>141</ele>
        <time>2012-09-02T07:25:11Z</time>
      </trkpt>
      <trkpt lat="44.53548" lon="1.04688">
        <ele>141</ele>
        <time>2012-09-02T07:25:17Z</time>
      </trkpt>
      <trkpt lat="44.53548" lon="1.04687">
        <ele>138</ele>
        <time>2012-09-02T07:25:24Z</time>
      </trkpt>
      <trkpt lat="44.53549" lon="1.04687">
        <ele>136</ele>
        <time>2012-09-02T07:25:37Z</time>
      </trkpt>
      <trkpt lat="44.53552" lon="1.04688">
        <ele>136</ele>
        <time>2012-09-02T07:25:43Z</time>
      </trkpt>
      <trkpt lat="44.53553" lon="1.04689">
        <ele>136</ele>
        <time>2012-09-02T07:25:49Z</time>
      </trkpt>
      <trkpt lat="44.53554" lon="1.04692">
        <ele>136</ele>
        <time>2012-09-02T07:26:11Z</time>
      </trkpt>
      <trkpt lat="44.53556" lon="1.04692">
        <ele>136</ele>
        <time>2012-09-02T07:26:25Z</time>
      </trkpt>
      <trkpt lat="44.53556" lon="1.04692">
        <ele>136</ele>
        <time>2012-09-02T07:26:35Z</time>
      </trkpt>
      <trkpt lat="44.53557" lon="1.04693">
        <ele>136</ele>
        <time>2012-09-02T07:26:43Z</time>
      </trkpt>
      <trkpt lat="44.53559" lon="1.04695">
        <ele>136</ele>
        <time>2012-09-02T07:26:50Z</time>
      </trkpt>
      <trkpt lat="44.53561" lon="1.04696">
        <ele>138</ele>
        <time>2012-09-02T07:26:58Z</time>
      </trkpt>
      <trkpt lat="44.53563" lon="1.04698">
        <ele>139</ele>
        <time>2012-09-02T07:27:07Z</time>
      </trkpt>
      <trkpt lat="44.53563" lon="1.04695">
        <ele>139</ele>
        <time>2012-09-02T07:27:16Z</time>
      </trkpt>
      <trkpt lat="44.5356" lon="1.04692">
        <ele>139</ele>
        <time>2012-09-02T07:27:22Z</time>
      </trkpt>
      <trkpt lat="44.53558" lon="1.0469">
        <ele>136</ele>
        <time>2012-09-02T07:27:31Z</time>
      </trkpt>
      <trkpt lat="44.53557" lon="1.0469">
        <ele>133</ele>
        <time>2012-09-02T07:27:40Z</time>
      </trkpt>
      <trkpt lat="44.53556" lon="1.0469">
        <ele>132</ele>
        <time>2012-09-02T07:27:48Z</time>
      </trkpt>
      <trkpt lat="44.53557" lon="1.04689">
        <ele>130</ele>
        <time>2012-09-02T07:27:54Z</time>
      </trkpt>
      <trkpt lat="44.53555" lon="1.0469">
        <ele>129</ele>
        <time>2012-09-02T07:28:01Z</time>
      </trkpt>
      <trkpt lat="44.53553" lon="1.04692">
        <ele>129</ele>
        <time>2012-09-02T07:28:07Z</time>
      </trkpt>
      <trkpt lat="44.53553" lon="1.04693">
        <ele>130</ele>
        <time>2012-09-02T07:28:13Z</time>
      </trkpt>
      <trkpt lat="44.53554" lon="1.04695">
        <ele>134</ele>
        <time>2012-09-02T07:28:25Z</time>
      </trkpt>
      <trkpt lat="44.53556" lon="1.04695">
        <ele>139</ele>
        <time>2012-09-02T07:28:38Z</time>
      </trkpt>
      <trkpt lat="44.53558" lon="1.04695">
        <ele>140</ele>
        <time>2012-09-02T07:28:44Z</time>
      </trkpt>
      <trkpt lat="44.53561" lon="1.04694">
        <ele>140</ele>
        <time>2012-09-02T07:28:53Z</time>
      </trkpt>
      <trkpt lat="44.53561" lon="1.04692">
        <ele>140</ele>
        <time>2012-09-02T07:28:59Z</time>
      </trkpt>
      <trkpt lat="44.53559" lon="1.04689">
        <ele>140</ele>
        <time>2012-09-02T07:29:04Z</time>
      </trkpt>
      <trkpt lat="44.53554" lon="1.04685">
        <ele>139</ele>
        <time>2012-09-02T07:29:09Z</time>
      </trkpt>
      <trkpt lat="44.53552" lon="1.04684">
        <ele>137</ele>
        <time>2012-09-02T07:29:14Z</time>
      </trkpt>
      <trkpt lat="44.5355" lon="1.04683">
        <ele>135</ele>
        <time>2012-09-02T07:29:21Z</time>
      </trkpt>
      <trkpt lat="44.53548" lon="1.04681">
        <ele>134</ele>
        <time>2012-09-02T07:29:49Z</time>
      </trkpt>
      <trkpt lat="44.53547" lon="1.04682">
        <ele>134</ele>
        <time>2012-09-02T07:29:58Z</time>
      </trkpt>
      <trkpt lat="44.53547" lon="1.04684">
        <ele>134</ele>
        <time>2012-09-02T07:30:06Z</time>
      </trkpt>
      <trkpt lat="44.53547" lon="1.04685">
        <ele>135</ele>
        <time>2012-09-02T07:30:13Z</time>
      </trkpt>
      <trkpt lat="44.53546" lon="1.04686">
        <ele>136</ele>
        <time>2012-09-02T07:30:23Z</time>
      </trkpt>
      <trkpt lat="44.53546" lon="1.04685">
        <ele>136</ele>
        <time>2012-09-02T07:30:30Z</time>
      </trkpt>
      <trkpt lat="44.53555" lon="1.04681">
        <ele>134</ele>
        <time>2012-09-02T07:30:35Z</time>
      </trkpt>
      <trkpt lat="44.53568" lon="1.04696">
        <ele>129</ele>
        <time>2012-09-02T07:30:40Z</time>
      </trkpt>
      <trkpt lat="44.53583" lon="1.0473">
        <ele>124</ele>
        <time>2012-09-02T07:30:45Z</time>
      </trkpt>
      <trkpt lat="44.53587" lon="1.04764">
        <ele>121</ele>
        <time>2012-09-02T07:30:50Z</time>
      </trkpt>
      <trkpt lat="44.53597" lon="1.04804">
        <ele>119</ele>
        <time>2012-09-02T07:30:55Z</time>
      </trkpt>
      <trkpt lat="44.53608" lon="1.04848">
        <ele>115</ele>
        <time>2012-09-02T07:31:00Z</time>
      </trkpt>
      <trkpt lat="44.53596" lon="1.04885">
        <ele>111</ele>
        <time>2012-09-02T07:31:05Z</time>
      </trkpt>
      <trkpt lat="44.53589" lon="1.04919">
        <ele>110</ele>
        <time>2012-09-02T07:31:10Z</time>
      </trkpt>
      <trkpt lat="44.5359" lon="1.04949">
        <ele>107</ele>
        <time>2012-09-02T07:31:15Z</time>
      </trkpt>
      <trkpt lat="44.53591" lon="1.04974">
        <ele>105</ele>
        <time>2012-09-02T07:31:20Z</time>
      </trkpt>
      <trkpt lat="44.53595" lon="1.05007">
        <ele>105</ele>
        <time>2012-09-02T07:31:25Z</time>
      </trkpt>
      <trkpt lat="44.53605" lon="1.05044">
        <ele>105</ele>
        <time>2012-09-02T07:31:30Z</time>
      </trkpt>
      <trkpt lat="44.53621" lon="1.05078">
        <ele>105</ele>
        <time>2012-09-02T07:31:35Z</time>
      </trkpt>
      <trkpt lat="44.53633" lon="1.05104">
        <ele>105</ele>
        <time>2012-09-02T07:31:40Z</time>
      </trkpt>
      <trkpt lat="44.53638" lon="1.05135">
        <ele>105</ele>
        <time>2012-09-02T07:31:45Z</time>
      </trkpt>
      <trkpt lat="44.53641" lon="1.05168">
        <ele>105</ele>
        <time>2012-09-02T07:31:50Z</time>
      </trkpt>
      <trkpt lat="44.53646" lon="1.05188">
        <ele>106</ele>
        <time>2012-09-02T07:31:55Z</time>
      </trkpt>
      <trkpt lat="44.53656" lon="1.05216">
        <ele>106</ele>
        <time>2012-09-02T07:32:00Z</time>
      </trkpt>
      <trkpt lat="44.53672" lon="1.05244">
        <ele>108</ele>
        <time>2012-09-02T07:32:05Z</time>
      </trkpt>
      <trkpt lat="44.53691" lon="1.05266">
        <ele>108</ele>
        <time>2012-09-02T07:32:10Z</time>
      </trkpt>
      <trkpt lat="44.53711" lon="1.05288">
        <ele>109</ele>
        <time>2012-09-02T07:32:15Z</time>
      </trkpt>
      <trkpt lat="44.53732" lon="1.05308">
        <ele>109</ele>
        <time>2012-09-02T07:32:20Z</time>
      </trkpt>
      <trkpt lat="44.5375" lon="1.05331">
        <ele>109</ele>
        <time>2012-09-02T07:32:25Z</time>
      </trkpt>
      <trkpt lat="44.53769" lon="1.05358">
        <ele>109</ele>
        <time>2012-09-02T07:32:30Z</time>
      </trkpt>
      <trkpt lat="44.53786" lon="1.05387">
        <ele>111</ele>
        <time>2012-09-02T07:32:35Z</time>
      </trkpt>
      <trkpt lat="44.53799" lon="1.05422">
        <ele>111</ele>
        <time>2012-09-02T07:32:40Z</time>
      </trkpt>
      <trkpt lat="44.53812" lon="1.0546">
        <ele>111</ele>
        <time>2012-09-02T07:32:45Z</time>
      </trkpt>
      <trkpt lat="44.53825" lon="1.05495">
        <ele>111</ele>
        <time>2012-09-02T07:32:50Z</time>
      </trkpt>
      <trkpt lat="44.53826" lon="1.05521">
        <ele>111</ele>
        <time>2012-09-02T07:32:55Z</time>
      </trkpt>
      <trkpt lat="44.53831" lon="1.05555">
        <ele>113</ele>
        <time>2012-09-02T07:33:00Z</time>
      </trkpt>
      <trkpt lat="44.53837" lon="1.05589">
        <ele>113</ele>
        <time>2012-09-02T07:33:05Z</time>
      </trkpt>
      <trkpt lat="44.53849" lon="1.05624">
        <ele>113</ele>
        <time>2012-09-02T07:33:10Z</time>
      </trkpt>
      <trkpt lat="44.53861" lon="1.0566">
        <ele>113</ele>
        <time>2012-09-02T07:33:15Z</time>
      </trkpt>
      <trkpt lat="44.5387" lon="1.05694">
        <ele>113</ele>
        <time>2012-09-02T07:33:20Z</time>
      </trkpt>
      <trkpt lat="44.53879" lon="1.05729">
        <ele>113</ele>
        <time>2012-09-02T07:33:25Z</time>
      </trkpt>
      <trkpt lat="44.53883" lon="1.05765">
        <ele>113</ele>
        <time>2012-09-02T07:33:30Z</time>
      </trkpt>
      <trkpt lat="44.53888" lon="1.05803">
        <ele>113</ele>
        <time>2012-09-02T07:33:35Z</time>
      </trkpt>
      <trkpt lat="44.53893" lon="1.05841">
        <ele>113</ele>
        <time>2012-09-02T07:33:40Z</time>
      </trkpt>
      <trkpt lat="44.53897" lon="1.05877">
        <ele>113</ele>
        <time>2012-09-02T07:33:45Z</time>
      </trkpt>
      <trkpt lat="44.53904" lon="1.05914">
        <ele>113</ele>
        <time>2012-09-02T07:33:50Z</time>
      </trkpt>
      <trkpt lat="44.53913" lon="1.0595">
        <ele>113</ele>
        <time>2012-09-02T07:33:55Z</time>
      </trkpt>
      <trkpt lat="44.53912" lon="1.05985">
        <ele>113</ele>
        <time>2012-09-02T07:34:00Z</time>
      </trkpt>
      <trkpt lat="44.53897" lon="1.06022">
        <ele>113</ele>
        <time>2012-09-02T07:34:05Z</time>
      </trkpt>
      <trkpt lat="44.53885" lon="1.0606">
        <ele>113</ele>
        <time>2012-09-02T07:34:10Z</time>
      </trkpt>
      <trkpt lat="44.53895" lon="1.06091">
        <ele>113</ele>
        <time>2012-09-02T07:34:15Z</time>
      </trkpt>
      <trkpt lat="44.53894" lon="1.06119">
        <ele>113</ele>
        <time>2012-09-02T07:34:20Z</time>
      </trkpt>
      <trkpt lat="44.53877" lon="1.06144">
        <ele>113</ele>
        <time>2012-09-02T07:34:25Z</time>
      </trkpt>
      <trkpt lat="44.5387" lon="1.0616">
        <ele>113</ele>
        <time>2012-09-02T07:34:30Z</time>
      </trkpt>
      <trkpt lat="44.53883" lon="1.06184">
        <ele>113</ele>
        <time>2012-09-02T07:34:35Z</time>
      </trkpt>
      <trkpt lat="44.53899" lon="1.06211">
        <ele>113</ele>
        <time>2012-09-02T07:34:40Z</time>
      </trkpt>
      <trkpt lat="44.53917" lon="1.06239">
        <ele>113</ele>
        <time>2012-09-02T07:34:45Z</time>
      </trkpt>
      <trkpt lat="44.53935" lon="1.06269">
        <ele>113</ele>
        <time>2012-09-02T07:34:50Z</time>
      </trkpt>
      <trkpt lat="44.53954" lon="1.06301">
        <ele>113</ele>
        <time>2012-09-02T07:34:55Z</time>
      </trkpt>
      <trkpt lat="44.53974" lon="1.06335">
        <ele>113</ele>
        <time>2012-09-02T07:35:00Z</time>
      </trkpt>
      <trkpt lat="44.53995" lon="1.06369">
        <ele>113</ele>
        <time>2012-09-02T07:35:05Z</time>
      </trkpt>
      <trkpt lat="44.54014" lon="1.06404">
        <ele>113</ele>
        <time>2012-09-02T07:35:10Z</time>
      </trkpt>
      <trkpt lat="44.5403" lon="1.0644">
        <ele>113</ele>
        <time>2012-09-02T07:35:15Z</time>
      </trkpt>
      <trkpt lat="44.54043" lon="1.06478">
        <ele>113</ele>
        <time>2012-09-02T07:35:20Z</time>
      </trkpt>
      <trkpt lat="44.5405" lon="1.06511">
        <ele>113</ele>
        <time>2012-09-02T07:35:25Z</time>
      </trkpt>
      <trkpt lat="44.54067" lon="1.06525">
        <ele>113</ele>
        <time>2012-09-02T07:35:30Z</time>
      </trkpt>
      <trkpt lat="44.54094" lon="1.06528">
        <ele>113</ele>
        <time>2012-09-02T07:35:35Z</time>
      </trkpt>
      <trkpt lat="44.54118" lon="1.06544">
        <ele>113</ele>
        <time>2012-09-02T07:35:40Z</time>
      </trkpt>
      <trkpt lat="44.54137" lon="1.06545">
        <ele>113</ele>
        <time>2012-09-02T07:35:45Z</time>
      </trkpt>
      <trkpt lat="44.54147" lon="1.06549">
        <ele>113</ele>
        <time>2012-09-02T07:35:50Z</time>
      </trkpt>
      <trkpt lat="44.54152" lon="1.06557">
        <ele>113</ele>
        <time>2012-09-02T07:35:55Z</time>
      </trkpt>
      <trkpt lat="44.54158" lon="1.06566">
        <ele>114</ele>
        <time>2012-09-02T07:36:00Z</time>
      </trkpt>
      <trkpt lat="44.54164" lon="1.0657">
        <ele>117</ele>
        <time>2012-09-02T07:36:05Z</time>
      </trkpt>
      <trkpt lat="44.54171" lon="1.06578">
        <ele>117</ele>
        <time>2012-09-02T07:36:10Z</time>
      </trkpt>
      <trkpt lat="44.54178" lon="1.06586">
        <ele>118</ele>
        <time>2012-09-02T07:36:15Z</time>
      </trkpt>
      <trkpt lat="44.54185" lon="1.06594">
        <ele>120</ele>
        <time>2012-09-02T07:36:20Z</time>
      </trkpt>
      <trkpt lat="44.54191" lon="1.066">
        <ele>122</ele>
        <time>2012-09-02T07:36:25Z</time>
      </trkpt>
      <trkpt lat="44.54196" lon="1.06605">
        <ele>123</ele>
        <time>2012-09-02T07:36:30Z</time>
      </trkpt>
      <trkpt lat="44.54201" lon="1.06614">
        <ele>126</ele>
        <time>2012-09-02T07:36:35Z</time>
      </trkpt>
      <trkpt lat="44.54202" lon="1.06624">
        <ele>129</ele>
        <time>2012-09-02T07:36:40Z</time>
      </trkpt>
      <trkpt lat="44.54206" lon="1.06639">
        <ele>134</ele>
        <time>2012-09-02T07:36:45Z</time>
      </trkpt>
      <trkpt lat="44.54205" lon="1.06649">
        <ele>139</ele>
        <time>2012-09-02T07:36:50Z</time>
      </trkpt>
      <trkpt lat="44.54206" lon="1.0665">
        <ele>149</ele>
        <time>2012-09-02T07:37:00Z</time>
      </trkpt>
      <trkpt lat="44.54205" lon="1.06649">
        <ele>153</ele>
        <time>2012-09-02T07:37:05Z</time>
      </trkpt>
      <trkpt lat="44.54206" lon="1.06653">
        <ele>155</ele>
        <time>2012-09-02T07:37:12Z</time>
      </trkpt>
      <trkpt lat="44.54212" lon="1.06658">
        <ele>155</ele>
        <time>2012-09-02T07:37:17Z</time>
      </trkpt>
      <trkpt lat="44.54221" lon="1.06669">
        <ele>154</ele>
        <time>2012-09-02T07:37:22Z</time>
      </trkpt>
      <trkpt lat="44.54232" lon="1.06686">
        <ele>154</ele>
        <time>2012-09-02T07:37:27Z</time>
      </trkpt>
      <trkpt lat="44.54242" lon="1.06697">
        <ele>154</ele>
        <time>2012-09-02T07:37:32Z</time>
      </trkpt>
      <trkpt lat="44.54259" lon="1.06712">
        <ele>154</ele>
        <time>2012-09-02T07:37:37Z</time>
      </trkpt>
      <trkpt lat="44.5428" lon="1.0673">
        <ele>153</ele>
        <time>2012-09-02T07:37:42Z</time>
      </trkpt>
      <trkpt lat="44.54297" lon="1.06758">
        <ele>148</ele>
        <time>2012-09-02T07:37:47Z</time>
      </trkpt>
      <trkpt lat="44.54318" lon="1.06786">
        <ele>143</ele>
        <time>2012-09-02T07:37:52Z</time>
      </trkpt>
      <trkpt lat="44.54341" lon="1.06811">
        <ele>138</ele>
        <time>2012-09-02T07:37:57Z</time>
      </trkpt>
      <trkpt lat="44.54359" lon="1.06829">
        <ele>133</ele>
        <time>2012-09-02T07:38:02Z</time>
      </trkpt>
      <trkpt lat="44.5438" lon="1.06855">
        <ele>128</ele>
        <time>2012-09-02T07:38:07Z</time>
      </trkpt>
      <trkpt lat="44.54397" lon="1.06878">
        <ele>123</ele>
        <time>2012-09-02T07:38:12Z</time>
      </trkpt>
      <trkpt lat="44.54409" lon="1.06874">
        <ele>119</ele>
        <time>2012-09-02T07:38:17Z</time>
      </trkpt>
      <trkpt lat="44.54422" lon="1.06872">
        <ele>116</ele>
        <time>2012-09-02T07:38:22Z</time>
      </trkpt>
      <trkpt lat="44.54428" lon="1.06897">
        <ele>116</ele>
        <time>2012-09-02T07:38:27Z</time>
      </trkpt>
      <trkpt lat="44.5443" lon="1.06933">
        <ele>117</ele>
        <time>2012-09-02T07:38:32Z</time>
      </trkpt>
      <trkpt lat="44.54435" lon="1.06961">
        <ele>119</ele>
        <time>2012-09-02T07:38:37Z</time>
      </trkpt>
      <trkpt lat="44.5445" lon="1.0699">
        <ele>119</ele>
        <time>2012-09-02T07:38:42Z</time>
      </trkpt>
      <trkpt lat="44.54469" lon="1.07028">
        <ele>119</ele>
        <time>2012-09-02T07:38:47Z</time>
      </trkpt>
      <trkpt lat="44.54488" lon="1.07066">
        <ele>119</ele>
        <time>2012-09-02T07:38:52Z</time>
      </trkpt>
      <trkpt lat="44.54507" lon="1.07102">
        <ele>119</ele>
        <time>2012-09-02T07:38:57Z</time>
      </trkpt>
      <trkpt lat="44.54529" lon="1.07134">
        <ele>119</ele>
        <time>2012-09-02T07:39:02Z</time>
      </trkpt>
      <trkpt lat="44.54551" lon="1.07161">
        <ele>119</ele>
        <time>2012-09-02T07:39:07Z</time>
      </trkpt>
      <trkpt lat="44.54574" lon="1.07187">
        <ele>119</ele>
        <time>2012-09-02T07:39:12Z</time>
      </trkpt>
      <trkpt lat="44.54596" lon="1.07212">
        <ele>119</ele>
        <time>2012-09-02T07:39:17Z</time>
      </trkpt>
      <trkpt lat="44.54618" lon="1.07231">
        <ele>119</ele>
        <time>2012-09-02T07:39:22Z</time>
      </trkpt>
      <trkpt lat="44.5464" lon="1.0725">
        <ele>119</ele>
        <time>2012-09-02T07:39:27Z</time>
      </trkpt>
      <trkpt lat="44.54651" lon="1.07278">
        <ele>121</ele>
        <time>2012-09-02T07:39:32Z</time>
      </trkpt>
      <trkpt lat="44.54666" lon="1.07298">
        <ele>124</ele>
        <time>2012-09-02T07:39:37Z</time>
      </trkpt>
      <trkpt lat="44.54667" lon="1.0732">
        <ele>126</ele>
        <time>2012-09-02T07:39:42Z</time>
      </trkpt>
      <trkpt lat="44.54637" lon="1.0733">
        <ele>127</ele>
        <time>2012-09-02T07:39:47Z</time>
      </trkpt>
      <trkpt lat="44.54621" lon="1.07361">
        <ele>127</ele>
        <time>2012-09-02T07:39:52Z</time>
      </trkpt>
      <trkpt lat="44.54617" lon="1.07395">
        <ele>127</ele>
        <time>2012-09-02T07:39:57Z</time>
      </trkpt>
      <trkpt lat="44.54617" lon="1.07434">
        <ele>127</ele>
        <time>2012-09-02T07:40:02Z</time>
      </trkpt>
      <trkpt lat="44.54616" lon="1.07471">
        <ele>127</ele>
        <time>2012-09-02T07:40:07Z</time>
      </trkpt>
      <trkpt lat="44.54613" lon="1.07507">
        <ele>129</ele>
        <time>2012-09-02T07:40:14Z</time>
      </trkpt>
      <trkpt lat="44.54624" lon="1.07553">
        <ele>132</ele>
        <time>2012-09-02T07:40:19Z</time>
      </trkpt>
      <trkpt lat="44.54635" lon="1.07587">
        <ele>132</ele>
        <time>2012-09-02T07:40:24Z</time>
      </trkpt>
      <trkpt lat="44.54647" lon="1.07621">
        <ele>132</ele>
        <time>2012-09-02T07:40:29Z</time>
      </trkpt>
      <trkpt lat="44.54661" lon="1.07654">
        <ele>128</ele>
        <time>2012-09-02T07:40:34Z</time>
      </trkpt>
      <trkpt lat="44.54682" lon="1.07684">
        <ele>123</ele>
        <time>2012-09-02T07:40:39Z</time>
      </trkpt>
      <trkpt lat="44.54703" lon="1.07713">
        <ele>119</ele>
        <time>2012-09-02T07:40:44Z</time>
      </trkpt>
      <trkpt lat="44.54719" lon="1.07736">
        <ele>117</ele>
        <time>2012-09-02T07:40:49Z</time>
      </trkpt>
      <trkpt lat="44.54745" lon="1.07763">
        <ele>117</ele>
        <time>2012-09-02T07:40:54Z</time>
      </trkpt>
      <trkpt lat="44.54774" lon="1.07795">
        <ele>122</ele>
        <time>2012-09-02T07:40:59Z</time>
      </trkpt>
      <trkpt lat="44.54794" lon="1.07826">
        <ele>125</ele>
        <time>2012-09-02T07:41:04Z</time>
      </trkpt>
      <trkpt lat="44.54808" lon="1.07856">
        <ele>125</ele>
        <time>2012-09-02T07:41:09Z</time>
      </trkpt>
      <trkpt lat="44.54808" lon="1.07884">
        <ele>125</ele>
        <time>2012-09-02T07:41:14Z</time>
      </trkpt>
      <trkpt lat="44.54785" lon="1.07901">
        <ele>125</ele>
        <time>2012-09-02T07:41:19Z</time>
      </trkpt>
      <trkpt lat="44.54758" lon="1.07914">
        <ele>125</ele>
        <time>2012-09-02T07:41:24Z</time>
      </trkpt>
      <trkpt lat="44.5473" lon="1.07928">
        <ele>122</ele>
        <time>2012-09-02T07:41:29Z</time>
      </trkpt>
      <trkpt lat="44.54701" lon="1.07939">
        <ele>120</ele>
        <time>2012-09-02T07:41:34Z</time>
      </trkpt>
      <trkpt lat="44.54675" lon="1.07948">
        <ele>118</ele>
        <time>2012-09-02T07:41:39Z</time>
      </trkpt>
      <trkpt lat="44.54651" lon="1.07957">
        <ele>118</ele>
        <time>2012-09-02T07:41:44Z</time>
      </trkpt>
      <trkpt lat="44.54633" lon="1.07968">
        <ele>118</ele>
        <time>2012-09-02T07:41:49Z</time>
      </trkpt>
      <trkpt lat="44.5462" lon="1.07965">
        <ele>120</ele>
        <time>2012-09-02T07:41:54Z</time>
      </trkpt>
      <trkpt lat="44.54614" lon="1.07959">
        <ele>122</ele>
        <time>2012-09-02T07:41:59Z</time>
      </trkpt>
      <trkpt lat="44.54604" lon="1.07955">
        <ele>123</ele>
        <time>2012-09-02T07:42:04Z</time>
      </trkpt>
      <trkpt lat="44.54593" lon="1.07958">
        <ele>123</ele>
        <time>2012-09-02T07:42:09Z</time>
      </trkpt>
      <trkpt lat="44.54581" lon="1.07964">
        <ele>125</ele>
        <time>2012-09-02T07:42:14Z</time>
      </trkpt>
      <trkpt lat="44.54571" lon="1.07966">
        <ele>128</ele>
        <time>2012-09-02T07:42:20Z</time>
      </trkpt>
      <trkpt lat="44.54566" lon="1.07963">
        <ele>130</ele>
        <time>2012-09-02T07:42:26Z</time>
      </trkpt>
      <trkpt lat="44.54565" lon="1.07959">
        <ele>132</ele>
        <time>2012-09-02T07:42:31Z</time>
      </trkpt>
      <trkpt lat="44.54562" lon="1.07949">
        <ele>133</ele>
        <time>2012-09-02T07:42:36Z</time>
      </trkpt>
      <trkpt lat="44.5456" lon="1.0794">
        <ele>133</ele>
        <time>2012-09-02T07:42:41Z</time>
      </trkpt>
      <trkpt lat="44.54555" lon="1.07927">
        <ele>134</ele>
        <time>2012-09-02T07:42:47Z</time>
      </trkpt>
      <trkpt lat="44.54549" lon="1.07913">
        <ele>136</ele>
        <time>2012-09-02T07:42:52Z</time>
      </trkpt>
      <trkpt lat="44.54543" lon="1.07902">
        <ele>138</ele>
        <time>2012-09-02T07:42:57Z</time>
      </trkpt>
      <trkpt lat="44.54532" lon="1.07893">
        <ele>140</ele>
        <time>2012-09-02T07:43:02Z</time>
      </trkpt>
      <trkpt lat="44.54525" lon="1.07886">
        <ele>141</ele>
        <time>2012-09-02T07:43:07Z</time>
      </trkpt>
      <trkpt lat="44.54521" lon="1.07878">
        <ele>141</ele>
        <time>2012-09-02T07:43:12Z</time>
      </trkpt>
      <trkpt lat="44.54513" lon="1.07866">
        <ele>142</ele>
        <time>2012-09-02T07:43:18Z</time>
      </trkpt>
      <trkpt lat="44.54509" lon="1.07856">
        <ele>142</ele>
        <time>2012-09-02T07:43:23Z</time>
      </trkpt>
      <trkpt lat="44.54508" lon="1.07846">
        <ele>142</ele>
        <time>2012-09-02T07:43:28Z</time>
      </trkpt>
      <trkpt lat="44.54504" lon="1.07835">
        <ele>142</ele>
        <time>2012-09-02T07:43:33Z</time>
      </trkpt>
      <trkpt lat="44.545" lon="1.07824">
        <ele>142</ele>
        <time>2012-09-02T07:43:38Z</time>
      </trkpt>
      <trkpt lat="44.54494" lon="1.07813">
        <ele>142</ele>
        <time>2012-09-02T07:43:43Z</time>
      </trkpt>
      <trkpt lat="44.54493" lon="1.07804">
        <ele>142</ele>
        <time>2012-09-02T07:43:48Z</time>
      </trkpt>
      <trkpt lat="44.54487" lon="1.07793">
        <ele>142</ele>
        <time>2012-09-02T07:43:53Z</time>
      </trkpt>
      <trkpt lat="44.54482" lon="1.07779">
        <ele>142</ele>
        <time>2012-09-02T07:43:59Z</time>
      </trkpt>
      <trkpt lat="44.54479" lon="1.07769">
        <ele>142</ele>
        <time>2012-09-02T07:44:04Z</time>
      </trkpt>
      <trkpt lat="44.54471" lon="1.07756">
        <ele>142</ele>
        <time>2012-09-02T07:44:09Z</time>
      </trkpt>
      <trkpt lat="44.54464" lon="1.07746">
        <ele>142</ele>
        <time>2012-09-02T07:44:14Z</time>
      </trkpt>
      <trkpt lat="44.54459" lon="1.07734">
        <ele>143</ele>
        <time>2012-09-02T07:44:20Z</time>
      </trkpt>
      <trkpt lat="44.54455" lon="1.07725">
        <ele>144</ele>
        <time>2012-09-02T07:44:25Z</time>
      </trkpt>
      <trkpt lat="44.54452" lon="1.07716">
        <ele>144</ele>
        <time>2012-09-02T07:44:30Z</time>
      </trkpt>
      <trkpt lat="44.54447" lon="1.07704">
        <ele>145</ele>
        <time>2012-09-02T07:44:35Z</time>
      </trkpt>
      <trkpt lat="44.5444" lon="1.07691">
        <ele>147</ele>
        <time>2012-09-02T07:44:40Z</time>
      </trkpt>
      <trkpt lat="44.54436" lon="1.07682">
        <ele>147</ele>
        <time>2012-09-02T07:44:46Z</time>
      </trkpt>
      <trkpt lat="44.54427" lon="1.0767">
        <ele>147</ele>
        <time>2012-09-02T07:44:52Z</time>
      </trkpt>
      <trkpt lat="44.54412" lon="1.07655">
        <ele>147</ele>
        <time>2012-09-02T07:44:58Z</time>
      </trkpt>
      <trkpt lat="44.54401" lon="1.07638">
        <ele>147</ele>
        <time>2012-09-02T07:45:04Z</time>
      </trkpt>
      <trkpt lat="44.54384" lon="1.07618">
        <ele>149</ele>
        <time>2012-09-02T07:45:10Z</time>
      </trkpt>
      <trkpt lat="44.54372" lon="1.07603">
        <ele>152</ele>
        <time>2012-09-02T07:45:16Z</time>
      </trkpt>
      <trkpt lat="44.54359" lon="1.07588">
        <ele>156</ele>
        <time>2012-09-02T07:45:22Z</time>
      </trkpt>
      <trkpt lat="44.5435" lon="1.07583">
        <ele>159</ele>
        <time>2012-09-02T07:45:27Z</time>
      </trkpt>
      <trkpt lat="44.54329" lon="1.07578">
        <ele>164</ele>
        <time>2012-09-02T07:45:33Z</time>
      </trkpt>
      <trkpt lat="44.54316" lon="1.07577">
        <ele>166</ele>
        <time>2012-09-02T07:45:38Z</time>
      </trkpt>
      <trkpt lat="44.543" lon="1.07575">
        <ele>168</ele>
        <time>2012-09-02T07:45:43Z</time>
      </trkpt>
      <trkpt lat="44.54285" lon="1.07574">
        <ele>171</ele>
        <time>2012-09-02T07:45:48Z</time>
      </trkpt>
      <trkpt lat="44.54273" lon="1.07571">
        <ele>172</ele>
        <time>2012-09-02T07:45:53Z</time>
      </trkpt>
      <trkpt lat="44.54263" lon="1.07567">
        <ele>173</ele>
        <time>2012-09-02T07:45:59Z</time>
      </trkpt>
      <trkpt lat="44.54256" lon="1.07561">
        <ele>173</ele>
        <time>2012-09-02T07:46:04Z</time>
      </trkpt>
      <trkpt lat="44.54249" lon="1.07555">
        <ele>173</ele>
        <time>2012-09-02T07:46:09Z</time>
      </trkpt>
      <trkpt lat="44.54244" lon="1.07547">
        <ele>173</ele>
        <time>2012-09-02T07:46:15Z</time>
      </trkpt>
      <trkpt lat="44.54234" lon="1.07543">
        <ele>173</ele>
        <time>2012-09-02T07:46:20Z</time>
      </trkpt>
      <trkpt lat="44.54224" lon="1.07545">
        <ele>174</ele>
        <time>2012-09-02T07:46:25Z</time>
      </trkpt>
      <trkpt lat="44.54214" lon="1.07546">
        <ele>178</ele>
        <time>2012-09-02T07:46:30Z</time>
      </trkpt>
      <trkpt lat="44.54205" lon="1.0755">
        <ele>180</ele>
        <time>2012-09-02T07:46:35Z</time>
      </trkpt>
      <trkpt lat="44.54198" lon="1.07559">
        <ele>181</ele>
        <time>2012-09-02T07:46:40Z</time>
      </trkpt>
      <trkpt lat="44.54198" lon="1.07565">
        <ele>181</ele>
        <time>2012-09-02T07:46:45Z</time>
      </trkpt>
      <trkpt lat="44.542" lon="1.07577">
        <ele>182</ele>
        <time>2012-09-02T07:46:50Z</time>
      </trkpt>
      <trkpt lat="44.54202" lon="1.07588">
        <ele>183</ele>
        <time>2012-09-02T07:46:55Z</time>
      </trkpt>
      <trkpt lat="44.54204" lon="1.076">
        <ele>184</ele>
        <time>2012-09-02T07:47:00Z</time>
      </trkpt>
      <trkpt lat="44.54205" lon="1.0761">
        <ele>184</ele>
        <time>2012-09-02T07:47:05Z</time>
      </trkpt>
      <trkpt lat="44.54205" lon="1.07621">
        <ele>184</ele>
        <time>2012-09-02T07:47:11Z</time>
      </trkpt>
      <trkpt lat="44.54205" lon="1.07629">
        <ele>185</ele>
        <time>2012-09-02T07:47:16Z</time>
      </trkpt>
      <trkpt lat="44.54206" lon="1.07638">
        <ele>186</ele>
        <time>2012-09-02T07:47:21Z</time>
      </trkpt>
      <trkpt lat="44.54208" lon="1.07647">
        <ele>186</ele>
        <time>2012-09-02T07:47:27Z</time>
      </trkpt>
      <trkpt lat="44.54211" lon="1.07656">
        <ele>186</ele>
        <time>2012-09-02T07:47:32Z</time>
      </trkpt>
      <trkpt lat="44.54212" lon="1.07666">
        <ele>186</ele>
        <time>2012-09-02T07:47:37Z</time>
      </trkpt>
      <trkpt lat="44.54211" lon="1.07674">
        <ele>186</ele>
        <time>2012-09-02T07:47:42Z</time>
      </trkpt>
      <trkpt lat="44.54213" lon="1.07684">
        <ele>186</ele>
        <time>2012-09-02T07:47:47Z</time>
      </trkpt>
      <trkpt lat="44.54211" lon="1.07692">
        <ele>187</ele>
        <time>2012-09-02T07:47:52Z</time>
      </trkpt>
      <trkpt lat="44.54213" lon="1.07701">
        <ele>190</ele>
        <time>2012-09-02T07:47:57Z</time>
      </trkpt>
      <trkpt lat="44.54214" lon="1.07708">
        <ele>192</ele>
        <time>2012-09-02T07:48:02Z</time>
      </trkpt>
      <trkpt lat="44.54213" lon="1.07715">
        <ele>196</ele>
        <time>2012-09-02T07:48:07Z</time>
      </trkpt>
      <trkpt lat="44.54213" lon="1.07724">
        <ele>199</ele>
        <time>2012-09-02T07:48:12Z</time>
      </trkpt>
      <trkpt lat="44.54216" lon="1.07734">
        <ele>203</ele>
        <time>2012-09-02T07:48:17Z</time>
      </trkpt>
      <trkpt lat="44.54216" lon="1.07745">
        <ele>207</ele>
        <time>2012-09-02T07:48:22Z</time>
      </trkpt>
      <trkpt lat="44.54215" lon="1.07754">
        <ele>209</ele>
        <time>2012-09-02T07:48:27Z</time>
      </trkpt>
      <trkpt lat="44.54216" lon="1.07764">
        <ele>211</ele>
        <time>2012-09-02T07:48:32Z</time>
      </trkpt>
      <trkpt lat="44.5421" lon="1.0778">
        <ele>217</ele>
        <time>2012-09-02T07:48:38Z</time>
      </trkpt>
      <trkpt lat="44.542" lon="1.0779">
        <ele>221</ele>
        <time>2012-09-02T07:48:43Z</time>
      </trkpt>
      <trkpt lat="44.54195" lon="1.07802">
        <ele>223</ele>
        <time>2012-09-02T07:48:48Z</time>
      </trkpt>
      <trkpt lat="44.54186" lon="1.07812">
        <ele>225</ele>
        <time>2012-09-02T07:48:53Z</time>
      </trkpt>
      <trkpt lat="44.54177" lon="1.0783">
        <ele>227</ele>
        <time>2012-09-02T07:48:59Z</time>
      </trkpt>
      <trkpt lat="44.54165" lon="1.07849">
        <ele>227</ele>
        <time>2012-09-02T07:49:05Z</time>
      </trkpt>
      <trkpt lat="44.54156" lon="1.07864">
        <ele>227</ele>
        <time>2012-09-02T07:49:10Z</time>
      </trkpt>
      <trkpt lat="44.54155" lon="1.0789">
        <ele>227</ele>
        <time>2012-09-02T07:49:15Z</time>
      </trkpt>
      <trkpt lat="44.54147" lon="1.07922">
        <ele>226</ele>
        <time>2012-09-02T07:49:20Z</time>
      </trkpt>
      <trkpt lat="44.54147" lon="1.07943">
        <ele>223</ele>
        <time>2012-09-02T07:49:25Z</time>
      </trkpt>
      <trkpt lat="44.5415" lon="1.07951">
        <ele>220</ele>
        <time>2012-09-02T07:49:31Z</time>
      </trkpt>
      <trkpt lat="44.54137" lon="1.07949">
        <ele>218</ele>
        <time>2012-09-02T07:49:36Z</time>
      </trkpt>
      <trkpt lat="44.54116" lon="1.07948">
        <ele>214</ele>
        <time>2012-09-02T07:49:41Z</time>
      </trkpt>
      <trkpt lat="44.54105" lon="1.07963">
        <ele>209</ele>
        <time>2012-09-02T07:49:47Z</time>
      </trkpt>
      <trkpt lat="44.54111" lon="1.07988">
        <ele>205</ele>
        <time>2012-09-02T07:49:52Z</time>
      </trkpt>
      <trkpt lat="44.54114" lon="1.08024">
        <ele>204</ele>
        <time>2012-09-02T07:49:58Z</time>
      </trkpt>
      <trkpt lat="44.54115" lon="1.08054">
        <ele>202</ele>
        <time>2012-09-02T07:50:03Z</time>
      </trkpt>
      <trkpt lat="44.54117" lon="1.08082">
        <ele>202</ele>
        <time>2012-09-02T07:50:08Z</time>
      </trkpt>
      <trkpt lat="44.54125" lon="1.08116">
        <ele>202</ele>
        <time>2012-09-02T07:50:14Z</time>
      </trkpt>
      <trkpt lat="44.54134" lon="1.08142">
        <ele>203</ele>
        <time>2012-09-02T07:50:19Z</time>
      </trkpt>
      <trkpt lat="44.54131" lon="1.08176">
        <ele>209</ele>
        <time>2012-09-02T07:50:25Z</time>
      </trkpt>
      <trkpt lat="44.54115" lon="1.08208">
        <ele>211</ele>
        <time>2012-09-02T07:50:30Z</time>
      </trkpt>
      <trkpt lat="44.54108" lon="1.08236">
        <ele>211</ele>
        <time>2012-09-02T07:50:35Z</time>
      </trkpt>
      <trkpt lat="44.54117" lon="1.08271">
        <ele>211</ele>
        <time>2012-09-02T07:50:40Z</time>
      </trkpt>
      <trkpt lat="44.54134" lon="1.08312">
        <ele>211</ele>
        <time>2012-09-02T07:50:45Z</time>
      </trkpt>
      <trkpt lat="44.5415" lon="1.0835">
        <ele>210</ele>
        <time>2012-09-02T07:50:50Z</time>
      </trkpt>
      <trkpt lat="44.54169" lon="1.08371">
        <ele>208</ele>
        <time>2012-09-02T07:50:55Z</time>
      </trkpt>
      <trkpt lat="44.54178" lon="1.08403">
        <ele>206</ele>
        <time>2012-09-02T07:51:00Z</time>
      </trkpt>
      <trkpt lat="44.54189" lon="1.08448">
        <ele>204</ele>
        <time>2012-09-02T07:51:06Z</time>
      </trkpt>
      <trkpt lat="44.54193" lon="1.08479">
        <ele>204</ele>
        <time>2012-09-02T07:51:11Z</time>
      </trkpt>
      <trkpt lat="44.54199" lon="1.08505">
        <ele>204</ele>
        <time>2012-09-02T07:51:16Z</time>
      </trkpt>
      <trkpt lat="44.54209" lon="1.0853">
        <ele>204</ele>
        <time>2012-09-02T07:51:21Z</time>
      </trkpt>
      <trkpt lat="44.54215" lon="1.08553">
        <ele>204</ele>
        <time>2012-09-02T07:51:26Z</time>
      </trkpt>
      <trkpt lat="44.54222" lon="1.08586">
        <ele>204</ele>
        <time>2012-09-02T07:51:31Z</time>
      </trkpt>
      <trkpt lat="44.54226" lon="1.0863">
        <ele>204</ele>
        <time>2012-09-02T07:51:36Z</time>
      </trkpt>
      <trkpt lat="44.54232" lon="1.08678">
        <ele>204</ele>
        <time>2012-09-02T07:51:41Z</time>
      </trkpt>
      <trkpt lat="44.54242" lon="1.0872">
        <ele>204</ele>
        <time>2012-09-02T07:51:46Z</time>
      </trkpt>
      <trkpt lat="44.54259" lon="1.0876">
        <ele>204</ele>
        <time>2012-09-02T07:51:51Z</time>
      </trkpt>
      <trkpt lat="44.54264" lon="1.08783">
        <ele>204</ele>
        <time>2012-09-02T07:51:56Z</time>
      </trkpt>
      <trkpt lat="44.54265" lon="1.08797">
        <ele>205</ele>
        <time>2012-09-02T07:52:01Z</time>
      </trkpt>
      <trkpt lat="44.54262" lon="1.08808">
        <ele>209</ele>
        <time>2012-09-02T07:52:06Z</time>
      </trkpt>
      <trkpt lat="44.54254" lon="1.08823">
        <ele>213</ele>
        <time>2012-09-02T07:52:11Z</time>
      </trkpt>
      <trkpt lat="44.54234" lon="1.08839">
        <ele>218</ele>
        <time>2012-09-02T07:52:16Z</time>
      </trkpt>
      <trkpt lat="44.54213" lon="1.0885">
        <ele>219</ele>
        <time>2012-09-02T07:52:21Z</time>
      </trkpt>
      <trkpt lat="44.54202" lon="1.08858">
        <ele>222</ele>
        <time>2012-09-02T07:52:26Z</time>
      </trkpt>
      <trkpt lat="44.54187" lon="1.08863">
        <ele>222</ele>
        <time>2012-09-02T07:52:31Z</time>
      </trkpt>
      <trkpt lat="44.54177" lon="1.08865">
        <ele>222</ele>
        <time>2012-09-02T07:52:36Z</time>
      </trkpt>
      <trkpt lat="44.54168" lon="1.08869">
        <ele>223</ele>
        <time>2012-09-02T07:52:41Z</time>
      </trkpt>
      <trkpt lat="44.54158" lon="1.08872">
        <ele>225</ele>
        <time>2012-09-02T07:52:46Z</time>
      </trkpt>
      <trkpt lat="44.5415" lon="1.08877">
        <ele>228</ele>
        <time>2012-09-02T07:52:51Z</time>
      </trkpt>
      <trkpt lat="44.54141" lon="1.08882">
        <ele>228</ele>
        <time>2012-09-02T07:52:56Z</time>
      </trkpt>
      <trkpt lat="44.54131" lon="1.08884">
        <ele>228</ele>
        <time>2012-09-02T07:53:01Z</time>
      </trkpt>
      <trkpt lat="44.54121" lon="1.08885">
        <ele>228</ele>
        <time>2012-09-02T07:53:06Z</time>
      </trkpt>
      <trkpt lat="44.54113" lon="1.08892">
        <ele>228</ele>
        <time>2012-09-02T07:53:11Z</time>
      </trkpt>
      <trkpt lat="44.54111" lon="1.08903">
        <ele>228</ele>
        <time>2012-09-02T07:53:16Z</time>
      </trkpt>
      <trkpt lat="44.54112" lon="1.08916">
        <ele>228</ele>
        <time>2012-09-02T07:53:21Z</time>
      </trkpt>
      <trkpt lat="44.54112" lon="1.08929">
        <ele>229</ele>
        <time>2012-09-02T07:53:26Z</time>
      </trkpt>
      <trkpt lat="44.54114" lon="1.08944">
        <ele>231</ele>
        <time>2012-09-02T07:53:31Z</time>
      </trkpt>
      <trkpt lat="44.54116" lon="1.0896">
        <ele>233</ele>
        <time>2012-09-02T07:53:36Z</time>
      </trkpt>
      <trkpt lat="44.54117" lon="1.08976">
        <ele>233</ele>
        <time>2012-09-02T07:53:41Z</time>
      </trkpt>
      <trkpt lat="44.54116" lon="1.08992">
        <ele>235</ele>
        <time>2012-09-02T07:53:46Z</time>
      </trkpt>
      <trkpt lat="44.54119" lon="1.09009">
        <ele>235</ele>
        <time>2012-09-02T07:53:51Z</time>
      </trkpt>
      <trkpt lat="44.54116" lon="1.09026">
        <ele>235</ele>
        <time>2012-09-02T07:53:56Z</time>
      </trkpt>
      <trkpt lat="44.54107" lon="1.09048">
        <ele>235</ele>
        <time>2012-09-02T07:54:01Z</time>
      </trkpt>
      <trkpt lat="44.54103" lon="1.09077">
        <ele>235</ele>
        <time>2012-09-02T07:54:06Z</time>
      </trkpt>
      <trkpt lat="44.541" lon="1.09103">
        <ele>235</ele>
        <time>2012-09-02T07:54:11Z</time>
      </trkpt>
      <trkpt lat="44.54101" lon="1.09125">
        <ele>235</ele>
        <time>2012-09-02T07:54:16Z</time>
      </trkpt>
      <trkpt lat="44.54099" lon="1.09148">
        <ele>236</ele>
        <time>2012-09-02T07:54:21Z</time>
      </trkpt>
      <trkpt lat="44.54094" lon="1.09173">
        <ele>237</ele>
        <time>2012-09-02T07:54:26Z</time>
      </trkpt>
      <trkpt lat="44.54091" lon="1.092">
        <ele>239</ele>
        <time>2012-09-02T07:54:31Z</time>
      </trkpt>
      <trkpt lat="44.54089" lon="1.09244">
        <ele>239</ele>
        <time>2012-09-02T07:54:36Z</time>
      </trkpt>
      <trkpt lat="44.54081" lon="1.09295">
        <ele>239</ele>
        <time>2012-09-02T07:54:41Z</time>
      </trkpt>
      <trkpt lat="44.54063" lon="1.09341">
        <ele>238</ele>
        <time>2012-09-02T07:54:46Z</time>
      </trkpt>
      <trkpt lat="44.54045" lon="1.09381">
        <ele>233</ele>
        <time>2012-09-02T07:54:51Z</time>
      </trkpt>
      <trkpt lat="44.54027" lon="1.09422">
        <ele>230</ele>
        <time>2012-09-02T07:54:56Z</time>
      </trkpt>
      <trkpt lat="44.53996" lon="1.09461">
        <ele>229</ele>
        <time>2012-09-02T07:55:01Z</time>
      </trkpt>
      <trkpt lat="44.53968" lon="1.09496">
        <ele>229</ele>
        <time>2012-09-02T07:55:06Z</time>
      </trkpt>
      <trkpt lat="44.53962" lon="1.09528">
        <ele>233</ele>
        <time>2012-09-02T07:55:11Z</time>
      </trkpt>
      <trkpt lat="44.53965" lon="1.09553">
        <ele>237</ele>
        <time>2012-09-02T07:55:16Z</time>
      </trkpt>
      <trkpt lat="44.53968" lon="1.0957">
        <ele>237</ele>
        <time>2012-09-02T07:55:21Z</time>
      </trkpt>
      <trkpt lat="44.53964" lon="1.09582">
        <ele>235</ele>
        <time>2012-09-02T07:55:27Z</time>
      </trkpt>
      <trkpt lat="44.53961" lon="1.0958">
        <ele>233</ele>
        <time>2012-09-02T07:55:32Z</time>
      </trkpt>
      <trkpt lat="44.5396" lon="1.09578">
        <ele>231</ele>
        <time>2012-09-02T07:55:38Z</time>
      </trkpt>
      <trkpt lat="44.53962" lon="1.09579">
        <ele>231</ele>
        <time>2012-09-02T07:55:43Z</time>
      </trkpt>
      <trkpt lat="44.53963" lon="1.09583">
        <ele>231</ele>
        <time>2012-09-02T07:55:48Z</time>
      </trkpt>
      <trkpt lat="44.53958" lon="1.09597">
        <ele>231</ele>
        <time>2012-09-02T07:55:53Z</time>
      </trkpt>
      <trkpt lat="44.53949" lon="1.0961">
        <ele>233</ele>
        <time>2012-09-02T07:55:58Z</time>
      </trkpt>
      <trkpt lat="44.5394" lon="1.0962">
        <ele>236</ele>
        <time>2012-09-02T07:56:03Z</time>
      </trkpt>
      <trkpt lat="44.53932" lon="1.09629">
        <ele>239</ele>
        <time>2012-09-02T07:56:08Z</time>
      </trkpt>
      <trkpt lat="44.53923" lon="1.09638">
        <ele>239</ele>
        <time>2012-09-02T07:56:13Z</time>
      </trkpt>
      <trkpt lat="44.53917" lon="1.09648">
        <ele>241</ele>
        <time>2012-09-02T07:56:18Z</time>
      </trkpt>
      <trkpt lat="44.53908" lon="1.09657">
        <ele>245</ele>
        <time>2012-09-02T07:56:23Z</time>
      </trkpt>
      <trkpt lat="44.53903" lon="1.09669">
        <ele>248</ele>
        <time>2012-09-02T07:56:28Z</time>
      </trkpt>
      <trkpt lat="44.53892" lon="1.0968">
        <ele>251</ele>
        <time>2012-09-02T07:56:33Z</time>
      </trkpt>
      <trkpt lat="44.53881" lon="1.09693">
        <ele>256</ele>
        <time>2012-09-02T07:56:38Z</time>
      </trkpt>
      <trkpt lat="44.53871" lon="1.09704">
        <ele>259</ele>
        <time>2012-09-02T07:56:43Z</time>
      </trkpt>
      <trkpt lat="44.53862" lon="1.0972">
        <ele>260</ele>
        <time>2012-09-02T07:56:48Z</time>
      </trkpt>
      <trkpt lat="44.53852" lon="1.09739">
        <ele>260</ele>
        <time>2012-09-02T07:56:53Z</time>
      </trkpt>
      <trkpt lat="44.53843" lon="1.09761">
        <ele>260</ele>
        <time>2012-09-02T07:56:58Z</time>
      </trkpt>
      <trkpt lat="44.53832" lon="1.09782">
        <ele>260</ele>
        <time>2012-09-02T07:57:03Z</time>
      </trkpt>
      <trkpt lat="44.53822" lon="1.09802">
        <ele>260</ele>
        <time>2012-09-02T07:57:08Z</time>
      </trkpt>
      <trkpt lat="44.53809" lon="1.09822">
        <ele>256</ele>
        <time>2012-09-02T07:57:13Z</time>
      </trkpt>
      <trkpt lat="44.53794" lon="1.09843">
        <ele>254</ele>
        <time>2012-09-02T07:57:18Z</time>
      </trkpt>
      <trkpt lat="44.53782" lon="1.09866">
        <ele>253</ele>
        <time>2012-09-02T07:57:23Z</time>
      </trkpt>
      <trkpt lat="44.53775" lon="1.09885">
        <ele>252</ele>
        <time>2012-09-02T07:57:28Z</time>
      </trkpt>
      <trkpt lat="44.53776" lon="1.09899">
        <ele>251</ele>
        <time>2012-09-02T07:57:33Z</time>
      </trkpt>
      <trkpt lat="44.53774" lon="1.09919">
        <ele>250</ele>
        <time>2012-09-02T07:57:38Z</time>
      </trkpt>
      <trkpt lat="44.53771" lon="1.09947">
        <ele>250</ele>
        <time>2012-09-02T07:57:43Z</time>
      </trkpt>
      <trkpt lat="44.53773" lon="1.09978">
        <ele>250</ele>
        <time>2012-09-02T07:57:48Z</time>
      </trkpt>
      <trkpt lat="44.53769" lon="1.10017">
        <ele>250</ele>
        <time>2012-09-02T07:57:54Z</time>
      </trkpt>
      <trkpt lat="44.53764" lon="1.1005">
        <ele>252</ele>
        <time>2012-09-02T07:57:59Z</time>
      </trkpt>
      <trkpt lat="44.53761" lon="1.10092">
        <ele>257</ele>
        <time>2012-09-02T07:58:04Z</time>
      </trkpt>
      <trkpt lat="44.53757" lon="1.10138">
        <ele>263</ele>
        <time>2012-09-02T07:58:09Z</time>
      </trkpt>
      <trkpt lat="44.53752" lon="1.10184">
        <ele>273</ele>
        <time>2012-09-02T07:58:14Z</time>
      </trkpt>
      <trkpt lat="44.5375" lon="1.1023">
        <ele>278</ele>
        <time>2012-09-02T07:58:19Z</time>
      </trkpt>
      <trkpt lat="44.53756" lon="1.10274">
        <ele>279</ele>
        <time>2012-09-02T07:58:24Z</time>
      </trkpt>
      <trkpt lat="44.53765" lon="1.1032">
        <ele>279</ele>
        <time>2012-09-02T07:58:29Z</time>
      </trkpt>
      <trkpt lat="44.53775" lon="1.10364">
        <ele>279</ele>
        <time>2012-09-02T07:58:34Z</time>
      </trkpt>
      <trkpt lat="44.53789" lon="1.10395">
        <ele>277</ele>
        <time>2012-09-02T07:58:39Z</time>
      </trkpt>
      <trkpt lat="44.53797" lon="1.10437">
        <ele>277</ele>
        <time>2012-09-02T07:58:44Z</time>
      </trkpt>
      <trkpt lat="44.53811" lon="1.10468">
        <ele>272</ele>
        <time>2012-09-02T07:58:49Z</time>
      </trkpt>
      <trkpt lat="44.53823" lon="1.10512">
        <ele>265</ele>
        <time>2012-09-02T07:58:54Z</time>
      </trkpt>
      <trkpt lat="44.53823" lon="1.10548">
        <ele>260</ele>
        <time>2012-09-02T07:58:59Z</time>
      </trkpt>
      <trkpt lat="44.53809" lon="1.10587">
        <ele>255</ele>
        <time>2012-09-02T07:59:04Z</time>
      </trkpt>
      <trkpt lat="44.538" lon="1.10623">
        <ele>250</ele>
        <time>2012-09-02T07:59:09Z</time>
      </trkpt>
      <trkpt lat="44.53808" lon="1.10656">
        <ele>250</ele>
        <time>2012-09-02T07:59:14Z</time>
      </trkpt>
      <trkpt lat="44.53815" lon="1.10696">
        <ele>250</ele>
        <time>2012-09-02T07:59:19Z</time>
      </trkpt>
      <trkpt lat="44.53819" lon="1.10728">
        <ele>254</ele>
        <time>2012-09-02T07:59:24Z</time>
      </trkpt>
      <trkpt lat="44.53822" lon="1.1075">
        <ele>259</ele>
        <time>2012-09-02T07:59:29Z</time>
      </trkpt>
      <trkpt lat="44.53825" lon="1.10765">
        <ele>262</ele>
        <time>2012-09-02T07:59:34Z</time>
      </trkpt>
      <trkpt lat="44.53826" lon="1.10782">
        <ele>266</ele>
        <time>2012-09-02T07:59:39Z</time>
      </trkpt>
      <trkpt lat="44.53826" lon="1.10798">
        <ele>270</ele>
        <time>2012-09-02T07:59:44Z</time>
      </trkpt>
      <trkpt lat="44.53826" lon="1.10813">
        <ele>273</ele>
        <time>2012-09-02T07:59:49Z</time>
      </trkpt>
      <trkpt lat="44.53829" lon="1.10826">
        <ele>273</ele>
        <time>2012-09-02T07:59:54Z</time>
      </trkpt>
      <trkpt lat="44.53828" lon="1.10844">
        <ele>274</ele>
        <time>2012-09-02T07:59:59Z</time>
      </trkpt>
      <trkpt lat="44.53827" lon="1.10858">
        <ele>277</ele>
        <time>2012-09-02T08:00:04Z</time>
      </trkpt>
      <trkpt lat="44.53831" lon="1.10869">
        <ele>279</ele>
        <time>2012-09-02T08:00:09Z</time>
      </trkpt>
      <trkpt lat="44.53834" lon="1.10881">
        <ele>279</ele>
        <time>2012-09-02T08:00:14Z</time>
      </trkpt>
      <trkpt lat="44.53841" lon="1.10893">
        <ele>279</ele>
        <time>2012-09-02T08:00:19Z</time>
      </trkpt>
      <trkpt lat="44.53844" lon="1.10907">
        <ele>279</ele>
        <time>2012-09-02T08:00:24Z</time>
      </trkpt>
      <trkpt lat="44.53846" lon="1.10919">
        <ele>279</ele>
        <time>2012-09-02T08:00:29Z</time>
      </trkpt>
      <trkpt lat="44.53848" lon="1.10932">
        <ele>279</ele>
        <time>2012-09-02T08:00:34Z</time>
      </trkpt>
      <trkpt lat="44.53848" lon="1.10948">
        <ele>279</ele>
        <time>2012-09-02T08:00:39Z</time>
      </trkpt>
      <trkpt lat="44.53848" lon="1.10965">
        <ele>279</ele>
        <time>2012-09-02T08:00:44Z</time>
      </trkpt>
      <trkpt lat="44.53851" lon="1.1098">
        <ele>279</ele>
        <time>2012-09-02T08:00:49Z</time>
      </trkpt>
      <trkpt lat="44.53849" lon="1.10993">
        <ele>279</ele>
        <time>2012-09-02T08:00:54Z</time>
      </trkpt>
      <trkpt lat="44.5385" lon="1.11007">
        <ele>279</ele>
        <time>2012-09-02T08:00:59Z</time>
      </trkpt>
      <trkpt lat="44.53846" lon="1.1102">
        <ele>279</ele>
        <time>2012-09-02T08:01:04Z</time>
      </trkpt>
      <trkpt lat="44.53841" lon="1.11035">
        <ele>283</ele>
        <time>2012-09-02T08:01:09Z</time>
      </trkpt>
      <trkpt lat="44.53837" lon="1.1105">
        <ele>287</ele>
        <time>2012-09-02T08:01:14Z</time>
      </trkpt>
      <trkpt lat="44.53836" lon="1.11061">
        <ele>291</ele>
        <time>2012-09-02T08:01:19Z</time>
      </trkpt>
      <trkpt lat="44.53831" lon="1.11077">
        <ele>294</ele>
        <time>2012-09-02T08:01:24Z</time>
      </trkpt>
      <trkpt lat="44.53828" lon="1.11091">
        <ele>296</ele>
        <time>2012-09-02T08:01:29Z</time>
      </trkpt>
      <trkpt lat="44.53827" lon="1.11103">
        <ele>298</ele>
        <time>2012-09-02T08:01:34Z</time>
      </trkpt>
      <trkpt lat="44.53826" lon="1.1112">
        <ele>298</ele>
        <time>2012-09-02T08:01:39Z</time>
      </trkpt>
      <trkpt lat="44.53824" lon="1.1114">
        <ele>298</ele>
        <time>2012-09-02T08:01:44Z</time>
      </trkpt>
      <trkpt lat="44.53822" lon="1.11158">
        <ele>298</ele>
        <time>2012-09-02T08:01:49Z</time>
      </trkpt>
      <trkpt lat="44.53819" lon="1.11188">
        <ele>301</ele>
        <time>2012-09-02T08:01:54Z</time>
      </trkpt>
      <trkpt lat="44.53817" lon="1.11221">
        <ele>302</ele>
        <time>2012-09-02T08:01:59Z</time>
      </trkpt>
      <trkpt lat="44.53815" lon="1.11252">
        <ele>302</ele>
        <time>2012-09-02T08:02:04Z</time>
      </trkpt>
      <trkpt lat="44.53817" lon="1.11292">
        <ele>301</ele>
        <time>2012-09-02T08:02:09Z</time>
      </trkpt>
      <trkpt lat="44.53821" lon="1.11329">
        <ele>296</ele>
        <time>2012-09-02T08:02:14Z</time>
      </trkpt>
      <trkpt lat="44.53822" lon="1.11348">
        <ele>291</ele>
        <time>2012-09-02T08:02:19Z</time>
      </trkpt>
      <trkpt lat="44.53814" lon="1.11348">
        <ele>281</ele>
        <time>2012-09-02T08:02:24Z</time>
      </trkpt>
      <trkpt lat="44.53803" lon="1.11343">
        <ele>275</ele>
        <time>2012-09-02T08:02:29Z</time>
      </trkpt>
      <trkpt lat="44.53786" lon="1.11335">
        <ele>270</ele>
        <time>2012-09-02T08:02:34Z</time>
      </trkpt>
      <trkpt lat="44.53763" lon="1.11325">
        <ele>265</ele>
        <time>2012-09-02T08:02:39Z</time>
      </trkpt>
      <trkpt lat="44.53742" lon="1.11307">
        <ele>260</ele>
        <time>2012-09-02T08:02:44Z</time>
      </trkpt>
      <trkpt lat="44.53722" lon="1.11283">
        <ele>255</ele>
        <time>2012-09-02T08:02:49Z</time>
      </trkpt>
      <trkpt lat="44.537" lon="1.11258">
        <ele>249</ele>
        <time>2012-09-02T08:02:54Z</time>
      </trkpt>
      <trkpt lat="44.53678" lon="1.11237">
        <ele>239</ele>
        <time>2012-09-02T08:02:59Z</time>
      </trkpt>
      <trkpt lat="44.53666" lon="1.1122">
        <ele>233</ele>
        <time>2012-09-02T08:03:04Z</time>
      </trkpt>
      <trkpt lat="44.5364" lon="1.11197">
        <ele>228</ele>
        <time>2012-09-02T08:03:09Z</time>
      </trkpt>
      <trkpt lat="44.53616" lon="1.1117">
        <ele>224</ele>
        <time>2012-09-02T08:03:14Z</time>
      </trkpt>
      <trkpt lat="44.53593" lon="1.11125">
        <ele>220</ele>
        <time>2012-09-02T08:03:19Z</time>
      </trkpt>
      <trkpt lat="44.5357" lon="1.11104">
        <ele>216</ele>
        <time>2012-09-02T08:03:24Z</time>
      </trkpt>
      <trkpt lat="44.53538" lon="1.11101">
        <ele>213</ele>
        <time>2012-09-02T08:03:29Z</time>
      </trkpt>
      <trkpt lat="44.53503" lon="1.11098">
        <ele>210</ele>
        <time>2012-09-02T08:03:34Z</time>
      </trkpt>
      <trkpt lat="44.53471" lon="1.11089">
        <ele>210</ele>
        <time>2012-09-02T08:03:39Z</time>
      </trkpt>
      <trkpt lat="44.53444" lon="1.11104">
        <ele>209</ele>
        <time>2012-09-02T08:03:44Z</time>
      </trkpt>
      <trkpt lat="44.53423" lon="1.11122">
        <ele>205</ele>
        <time>2012-09-02T08:03:49Z</time>
      </trkpt>
      <trkpt lat="44.53399" lon="1.11158">
        <ele>200</ele>
        <time>2012-09-02T08:03:54Z</time>
      </trkpt>
      <trkpt lat="44.53388" lon="1.1119">
        <ele>199</ele>
        <time>2012-09-02T08:03:59Z</time>
      </trkpt>
      <trkpt lat="44.53382" lon="1.11222">
        <ele>199</ele>
        <time>2012-09-02T08:04:04Z</time>
      </trkpt>
      <trkpt lat="44.53381" lon="1.1124">
        <ele>197</ele>
        <time>2012-09-02T08:04:09Z</time>
      </trkpt>
      <trkpt lat="44.5338" lon="1.1124">
        <ele>198</ele>
        <time>2012-09-02T08:04:15Z</time>
      </trkpt>
      <trkpt lat="44.53371" lon="1.11218">
        <ele>200</ele>
        <time>2012-09-02T08:04:20Z</time>
      </trkpt>
      <trkpt lat="44.5336" lon="1.11182">
        <ele>200</ele>
        <time>2012-09-02T08:04:25Z</time>
      </trkpt>
      <trkpt lat="44.53358" lon="1.11135">
        <ele>199</ele>
        <time>2012-09-02T08:04:30Z</time>
      </trkpt>
      <trkpt lat="44.53344" lon="1.11092">
        <ele>197</ele>
        <time>2012-09-02T08:04:35Z</time>
      </trkpt>
      <trkpt lat="44.53327" lon="1.11055">
        <ele>192</ele>
        <time>2012-09-02T08:04:40Z</time>
      </trkpt>
      <trkpt lat="44.53307" lon="1.11018">
        <ele>187</ele>
        <time>2012-09-02T08:04:45Z</time>
      </trkpt>
      <trkpt lat="44.53281" lon="1.10985">
        <ele>182</ele>
        <time>2012-09-02T08:04:50Z</time>
      </trkpt>
      <trkpt lat="44.53258" lon="1.10966">
        <ele>177</ele>
        <time>2012-09-02T08:04:55Z</time>
      </trkpt>
      <trkpt lat="44.53233" lon="1.10971">
        <ele>175</ele>
        <time>2012-09-02T08:05:00Z</time>
      </trkpt>
      <trkpt lat="44.53201" lon="1.10976">
        <ele>173</ele>
        <time>2012-09-02T08:05:05Z</time>
      </trkpt>
      <trkpt lat="44.5317" lon="1.10964">
        <ele>173</ele>
        <time>2012-09-02T08:05:10Z</time>
      </trkpt>
      <trkpt lat="44.53142" lon="1.10934">
        <ele>173</ele>
        <time>2012-09-02T08:05:15Z</time>
      </trkpt>
      <trkpt lat="44.53123" lon="1.10892">
        <ele>170</ele>
        <time>2012-09-02T08:05:20Z</time>
      </trkpt>
      <trkpt lat="44.531" lon="1.10863">
        <ele>165</ele>
        <time>2012-09-02T08:05:25Z</time>
      </trkpt>
      <trkpt lat="44.53064" lon="1.10846">
        <ele>160</ele>
        <time>2012-09-02T08:05:30Z</time>
      </trkpt>
      <trkpt lat="44.53033" lon="1.10845">
        <ele>155</ele>
        <time>2012-09-02T08:05:35Z</time>
      </trkpt>
      <trkpt lat="44.53" lon="1.10854">
        <ele>154</ele>
        <time>2012-09-02T08:05:40Z</time>
      </trkpt>
      <trkpt lat="44.52969" lon="1.10841">
        <ele>152</ele>
        <time>2012-09-02T08:05:45Z</time>
      </trkpt>
      <trkpt lat="44.52936" lon="1.10807">
        <ele>150</ele>
        <time>2012-09-02T08:05:50Z</time>
      </trkpt>
      <trkpt lat="44.52891" lon="1.10778">
        <ele>150</ele>
        <time>2012-09-02T08:05:55Z</time>
      </trkpt>
      <trkpt lat="44.52852" lon="1.10772">
        <ele>155</ele>
        <time>2012-09-02T08:06:00Z</time>
      </trkpt>
      <trkpt lat="44.52822" lon="1.10766">
        <ele>159</ele>
        <time>2012-09-02T08:06:05Z</time>
      </trkpt>
      <trkpt lat="44.52785" lon="1.10753">
        <ele>160</ele>
        <time>2012-09-02T08:06:10Z</time>
      </trkpt>
      <trkpt lat="44.52749" lon="1.10741">
        <ele>161</ele>
        <time>2012-09-02T08:06:15Z</time>
      </trkpt>
      <trkpt lat="44.52718" lon="1.10736">
        <ele>158</ele>
        <time>2012-09-02T08:06:20Z</time>
      </trkpt>
      <trkpt lat="44.52705" lon="1.10728">
        <ele>153</ele>
        <time>2012-09-02T08:06:25Z</time>
      </trkpt>
      <trkpt lat="44.52713" lon="1.10709">
        <ele>153</ele>
        <time>2012-09-02T08:06:30Z</time>
      </trkpt>
      <trkpt lat="44.52722" lon="1.10681">
        <ele>153</ele>
        <time>2012-09-02T08:06:35Z</time>
      </trkpt>
      <trkpt lat="44.52732" lon="1.10659">
        <ele>152</ele>
        <time>2012-09-02T08:06:40Z</time>
      </trkpt>
      <trkpt lat="44.52732" lon="1.1065">
        <ele>152</ele>
        <time>2012-09-02T08:06:45Z</time>
      </trkpt>
      <trkpt lat="44.52717" lon="1.10625">
        <ele>147</ele>
        <time>2012-09-02T08:06:50Z</time>
      </trkpt>
      <trkpt lat="44.5269" lon="1.10595">
        <ele>141</ele>
        <time>2012-09-02T08:06:55Z</time>
      </trkpt>
      <trkpt lat="44.52679" lon="1.10568">
        <ele>139</ele>
        <time>2012-09-02T08:07:00Z</time>
      </trkpt>
      <trkpt lat="44.52657" lon="1.10535">
        <ele>135</ele>
        <time>2012-09-02T08:07:05Z</time>
      </trkpt>
      <trkpt lat="44.52635" lon="1.10498">
        <ele>133</ele>
        <time>2012-09-02T08:07:10Z</time>
      </trkpt>
      <trkpt lat="44.52611" lon="1.10471">
        <ele>133</ele>
        <time>2012-09-02T08:07:15Z</time>
      </trkpt>
      <trkpt lat="44.52586" lon="1.10439">
        <ele>136</ele>
        <time>2012-09-02T08:07:20Z</time>
      </trkpt>
      <trkpt lat="44.52564" lon="1.10417">
        <ele>136</ele>
        <time>2012-09-02T08:07:25Z</time>
      </trkpt>
      <trkpt lat="44.52536" lon="1.10399">
        <ele>136</ele>
        <time>2012-09-02T08:07:30Z</time>
      </trkpt>
      <trkpt lat="44.52499" lon="1.10372">
        <ele>136</ele>
        <time>2012-09-02T08:07:35Z</time>
      </trkpt>
      <trkpt lat="44.52459" lon="1.10336">
        <ele>134</ele>
        <time>2012-09-02T08:07:40Z</time>
      </trkpt>
      <trkpt lat="44.52428" lon="1.10306">
        <ele>129</ele>
        <time>2012-09-02T08:07:45Z</time>
      </trkpt>
      <trkpt lat="44.52405" lon="1.10274">
        <ele>124</ele>
        <time>2012-09-02T08:07:50Z</time>
      </trkpt>
      <trkpt lat="44.52397" lon="1.10234">
        <ele>120</ele>
        <time>2012-09-02T08:07:55Z</time>
      </trkpt>
      <trkpt lat="44.52401" lon="1.10195">
        <ele>115</ele>
        <time>2012-09-02T08:08:00Z</time>
      </trkpt>
      <trkpt lat="44.5238" lon="1.10213">
        <ele>115</ele>
        <time>2012-09-02T08:08:05Z</time>
      </trkpt>
      <trkpt lat="44.52354" lon="1.1023">
        <ele>115</ele>
        <time>2012-09-02T08:08:10Z</time>
      </trkpt>
      <trkpt lat="44.52321" lon="1.10248">
        <ele>115</ele>
        <time>2012-09-02T08:08:15Z</time>
      </trkpt>
      <trkpt lat="44.52283" lon="1.10251">
        <ele>115</ele>
        <time>2012-09-02T08:08:20Z</time>
      </trkpt>
      <trkpt lat="44.52243" lon="1.10251">
        <ele>115</ele>
        <time>2012-09-02T08:08:25Z</time>
      </trkpt>
      <trkpt lat="44.52204" lon="1.10251">
        <ele>115</ele>
        <time>2012-09-02T08:08:30Z</time>
      </trkpt>
      <trkpt lat="44.52167" lon="1.10263">
        <ele>115</ele>
        <time>2012-09-02T08:08:35Z</time>
      </trkpt>
      <trkpt lat="44.52133" lon="1.10264">
        <ele>115</ele>
        <time>2012-09-02T08:08:40Z</time>
      </trkpt>
      <trkpt lat="44.52099" lon="1.10263">
        <ele>114</ele>
        <time>2012-09-02T08:08:45Z</time>
      </trkpt>
      <trkpt lat="44.52063" lon="1.10275">
        <ele>112</ele>
        <time>2012-09-02T08:08:50Z</time>
      </trkpt>
      <trkpt lat="44.52023" lon="1.103">
        <ele>112</ele>
        <time>2012-09-02T08:08:55Z</time>
      </trkpt>
      <trkpt lat="44.51985" lon="1.10324">
        <ele>111</ele>
        <time>2012-09-02T08:09:00Z</time>
      </trkpt>
      <trkpt lat="44.51952" lon="1.10355">
        <ele>111</ele>
        <time>2012-09-02T08:09:05Z</time>
      </trkpt>
      <trkpt lat="44.51919" lon="1.10384">
        <ele>111</ele>
        <time>2012-09-02T08:09:10Z</time>
      </trkpt>
      <trkpt lat="44.51895" lon="1.10386">
        <ele>111</ele>
        <time>2012-09-02T08:09:15Z</time>
      </trkpt>
      <trkpt lat="44.51869" lon="1.10397">
        <ele>110</ele>
        <time>2012-09-02T08:09:20Z</time>
      </trkpt>
      <trkpt lat="44.51837" lon="1.10398">
        <ele>109</ele>
        <time>2012-09-02T08:09:25Z</time>
      </trkpt>
      <trkpt lat="44.51805" lon="1.10384">
        <ele>109</ele>
        <time>2012-09-02T08:09:30Z</time>
      </trkpt>
      <trkpt lat="44.51774" lon="1.10382">
        <ele>109</ele>
        <time>2012-09-02T08:09:35Z</time>
      </trkpt>
      <trkpt lat="44.51735" lon="1.10405">
        <ele>105</ele>
        <time>2012-09-02T08:09:40Z</time>
      </trkpt>
      <trkpt lat="44.51686" lon="1.1043">
        <ele>102</ele>
        <time>2012-09-02T08:09:45Z</time>
      </trkpt>
      <trkpt lat="44.51637" lon="1.10461">
        <ele>98</ele>
        <time>2012-09-02T08:09:50Z</time>
      </trkpt>
      <trkpt lat="44.51588" lon="1.10494">
        <ele>95</ele>
        <time>2012-09-02T08:09:55Z</time>
      </trkpt>
      <trkpt lat="44.5154" lon="1.10511">
        <ele>95</ele>
        <time>2012-09-02T08:10:00Z</time>
      </trkpt>
      <trkpt lat="44.515" lon="1.10505">
        <ele>95</ele>
        <time>2012-09-02T08:10:05Z</time>
      </trkpt>
      <trkpt lat="44.5147" lon="1.10468">
        <ele>95</ele>
        <time>2012-09-02T08:10:10Z</time>
      </trkpt>
      <trkpt lat="44.51438" lon="1.10429">
        <ele>94</ele>
        <time>2012-09-02T08:10:15Z</time>
      </trkpt>
      <trkpt lat="44.514" lon="1.10405">
        <ele>92</ele>
        <time>2012-09-02T08:10:20Z</time>
      </trkpt>
      <trkpt lat="44.5136" lon="1.10388">
        <ele>92</ele>
        <time>2012-09-02T08:10:25Z</time>
      </trkpt>
      <trkpt lat="44.51334" lon="1.10351">
        <ele>91</ele>
        <time>2012-09-02T08:10:30Z</time>
      </trkpt>
      <trkpt lat="44.51318" lon="1.10318">
        <ele>91</ele>
        <time>2012-09-02T08:10:35Z</time>
      </trkpt>
      <trkpt lat="44.51303" lon="1.10288">
        <ele>91</ele>
        <time>2012-09-02T08:10:40Z</time>
      </trkpt>
      <trkpt lat="44.51289" lon="1.10259">
        <ele>92</ele>
        <time>2012-09-02T08:10:45Z</time>
      </trkpt>
      <trkpt lat="44.51273" lon="1.10231">
        <ele>95</ele>
        <time>2012-09-02T08:10:50Z</time>
      </trkpt>
      <trkpt lat="44.51257" lon="1.102">
        <ele>97</ele>
        <time>2012-09-02T08:10:55Z</time>
      </trkpt>
      <trkpt lat="44.51246" lon="1.10168">
        <ele>98</ele>
        <time>2012-09-02T08:11:00Z</time>
      </trkpt>
      <trkpt lat="44.51233" lon="1.10138">
        <ele>100</ele>
        <time>2012-09-02T08:11:05Z</time>
      </trkpt>
      <trkpt lat="44.51217" lon="1.10105">
        <ele>103</ele>
        <time>2012-09-02T08:11:10Z</time>
      </trkpt>
      <trkpt lat="44.51202" lon="1.10073">
        <ele>105</ele>
        <time>2012-09-02T08:11:15Z</time>
      </trkpt>
      <trkpt lat="44.51186" lon="1.1004">
        <ele>105</ele>
        <time>2012-09-02T08:11:20Z</time>
      </trkpt>
      <trkpt lat="44.51166" lon="1.10004">
        <ele>105</ele>
        <time>2012-09-02T08:11:25Z</time>
      </trkpt>
      <trkpt lat="44.51141" lon="1.09967">
        <ele>105</ele>
        <time>2012-09-02T08:11:30Z</time>
      </trkpt>
      <trkpt lat="44.51108" lon="1.09939">
        <ele>105</ele>
        <time>2012-09-02T08:11:35Z</time>
      </trkpt>
      <trkpt lat="44.51065" lon="1.09919">
        <ele>101</ele>
        <time>2012-09-02T08:11:40Z</time>
      </trkpt>
      <trkpt lat="44.51019" lon="1.09898">
        <ele>98</ele>
        <time>2012-09-02T08:11:45Z</time>
      </trkpt>
      <trkpt lat="44.5098" lon="1.09869">
        <ele>97</ele>
        <time>2012-09-02T08:11:50Z</time>
      </trkpt>
      <trkpt lat="44.50958" lon="1.09824">
        <ele>97</ele>
        <time>2012-09-02T08:11:55Z</time>
      </trkpt>
      <trkpt lat="44.5094" lon="1.09784">
        <ele>97</ele>
        <time>2012-09-02T08:12:00Z</time>
      </trkpt>
      <trkpt lat="44.50926" lon="1.09744">
        <ele>97</ele>
        <time>2012-09-02T08:12:05Z</time>
      </trkpt>
      <trkpt lat="44.50912" lon="1.09704">
        <ele>97</ele>
        <time>2012-09-02T08:12:10Z</time>
      </trkpt>
      <trkpt lat="44.50899" lon="1.09664">
        <ele>97</ele>
        <time>2012-09-02T08:12:15Z</time>
      </trkpt>
      <trkpt lat="44.50886" lon="1.09625">
        <ele>98</ele>
        <time>2012-09-02T08:12:20Z</time>
      </trkpt>
      <trkpt lat="44.50871" lon="1.09592">
        <ele>101</ele>
        <time>2012-09-02T08:12:25Z</time>
      </trkpt>
      <trkpt lat="44.50856" lon="1.09567">
        <ele>103</ele>
        <time>2012-09-02T08:12:30Z</time>
      </trkpt>
      <trkpt lat="44.50845" lon="1.09549">
        <ele>104</ele>
        <time>2012-09-02T08:12:35Z</time>
      </trkpt>
      <trkpt lat="44.50832" lon="1.09533">
        <ele>105</ele>
        <time>2012-09-02T08:12:40Z</time>
      </trkpt>
      <trkpt lat="44.50818" lon="1.09517">
        <ele>106</ele>
        <time>2012-09-02T08:12:45Z</time>
      </trkpt>
      <trkpt lat="44.50803" lon="1.095">
        <ele>107</ele>
        <time>2012-09-02T08:12:50Z</time>
      </trkpt>
      <trkpt lat="44.5079" lon="1.09483">
        <ele>108</ele>
        <time>2012-09-02T08:12:55Z</time>
      </trkpt>
      <trkpt lat="44.50776" lon="1.09466">
        <ele>108</ele>
        <time>2012-09-02T08:13:00Z</time>
      </trkpt>
      <trkpt lat="44.50763" lon="1.09452">
        <ele>109</ele>
        <time>2012-09-02T08:13:05Z</time>
      </trkpt>
      <trkpt lat="44.50751" lon="1.09439">
        <ele>110</ele>
        <time>2012-09-02T08:13:10Z</time>
      </trkpt>
      <trkpt lat="44.5074" lon="1.09424">
        <ele>112</ele>
        <time>2012-09-02T08:13:15Z</time>
      </trkpt>
      <trkpt lat="44.5073" lon="1.09409">
        <ele>114</ele>
        <time>2012-09-02T08:13:20Z</time>
      </trkpt>
      <trkpt lat="44.50721" lon="1.09392">
        <ele>115</ele>
        <time>2012-09-02T08:13:25Z</time>
      </trkpt>
      <trkpt lat="44.50713" lon="1.09374">
        <ele>116</ele>
        <time>2012-09-02T08:13:30Z</time>
      </trkpt>
      <trkpt lat="44.50705" lon="1.09356">
        <ele>119</ele>
        <time>2012-09-02T08:13:35Z</time>
      </trkpt>
      <trkpt lat="44.50699" lon="1.09334">
        <ele>123</ele>
        <time>2012-09-02T08:13:40Z</time>
      </trkpt>
      <trkpt lat="44.507" lon="1.09312">
        <ele>127</ele>
        <time>2012-09-02T08:13:45Z</time>
      </trkpt>
      <trkpt lat="44.50705" lon="1.09289">
        <ele>127</ele>
        <time>2012-09-02T08:13:50Z</time>
      </trkpt>
      <trkpt lat="44.5071" lon="1.09266">
        <ele>127</ele>
        <time>2012-09-02T08:13:55Z</time>
      </trkpt>
      <trkpt lat="44.50719" lon="1.09245">
        <ele>127</ele>
        <time>2012-09-02T08:14:00Z</time>
      </trkpt>
      <trkpt lat="44.50729" lon="1.09227">
        <ele>127</ele>
        <time>2012-09-02T08:14:05Z</time>
      </trkpt>
      <trkpt lat="44.50739" lon="1.09208">
        <ele>127</ele>
        <time>2012-09-02T08:14:10Z</time>
      </trkpt>
      <trkpt lat="44.5075" lon="1.09186">
        <ele>127</ele>
        <time>2012-09-02T08:14:15Z</time>
      </trkpt>
      <trkpt lat="44.50764" lon="1.09163">
        <ele>127</ele>
        <time>2012-09-02T08:14:20Z</time>
      </trkpt>
      <trkpt lat="44.50781" lon="1.09138">
        <ele>127</ele>
        <time>2012-09-02T08:14:25Z</time>
      </trkpt>
      <trkpt lat="44.50802" lon="1.09105">
        <ele>126</ele>
        <time>2012-09-02T08:14:30Z</time>
      </trkpt>
      <trkpt lat="44.50827" lon="1.09069">
        <ele>123</ele>
        <time>2012-09-02T08:14:35Z</time>
      </trkpt>
      <trkpt lat="44.50858" lon="1.09034">
        <ele>119</ele>
        <time>2012-09-02T08:14:40Z</time>
      </trkpt>
      <trkpt lat="44.5089" lon="1.08997">
        <ele>114</ele>
        <time>2012-09-02T08:14:45Z</time>
      </trkpt>
      <trkpt lat="44.50929" lon="1.0896">
        <ele>109</ele>
        <time>2012-09-02T08:14:50Z</time>
      </trkpt>
      <trkpt lat="44.50961" lon="1.08924">
        <ele>105</ele>
        <time>2012-09-02T08:14:55Z</time>
      </trkpt>
      <trkpt lat="44.50985" lon="1.08887">
        <ele>104</ele>
        <time>2012-09-02T08:15:00Z</time>
      </trkpt>
      <trkpt lat="44.51016" lon="1.08848">
        <ele>104</ele>
        <time>2012-09-02T08:15:05Z</time>
      </trkpt>
      <trkpt lat="44.51049" lon="1.08813">
        <ele>100</ele>
        <time>2012-09-02T08:15:10Z</time>
      </trkpt>
      <trkpt lat="44.5108" lon="1.08776">
        <ele>98</ele>
        <time>2012-09-02T08:15:15Z</time>
      </trkpt>
      <trkpt lat="44.51101" lon="1.0873">
        <ele>100</ele>
        <time>2012-09-02T08:15:20Z</time>
      </trkpt>
      <trkpt lat="44.51123" lon="1.08688">
        <ele>104</ele>
        <time>2012-09-02T08:15:25Z</time>
      </trkpt>
      <trkpt lat="44.51152" lon="1.08653">
        <ele>109</ele>
        <time>2012-09-02T08:15:30Z</time>
      </trkpt>
      <trkpt lat="44.51178" lon="1.08623">
        <ele>111</ele>
        <time>2012-09-02T08:15:35Z</time>
      </trkpt>
      <trkpt lat="44.51205" lon="1.08599">
        <ele>112</ele>
        <time>2012-09-02T08:15:40Z</time>
      </trkpt>
      <trkpt lat="44.51229" lon="1.08578">
        <ele>112</ele>
        <time>2012-09-02T08:15:45Z</time>
      </trkpt>
      <trkpt lat="44.51255" lon="1.08557">
        <ele>108</ele>
        <time>2012-09-02T08:15:50Z</time>
      </trkpt>
      <trkpt lat="44.51282" lon="1.08545">
        <ele>107</ele>
        <time>2012-09-02T08:15:55Z</time>
      </trkpt>
      <trkpt lat="44.51308" lon="1.08528">
        <ele>108</ele>
        <time>2012-09-02T08:16:00Z</time>
      </trkpt>
      <trkpt lat="44.51321" lon="1.08493">
        <ele>115</ele>
        <time>2012-09-02T08:16:05Z</time>
      </trkpt>
      <trkpt lat="44.5134" lon="1.08444">
        <ele>121</ele>
        <time>2012-09-02T08:16:10Z</time>
      </trkpt>
      <trkpt lat="44.51367" lon="1.08392">
        <ele>126</ele>
        <time>2012-09-02T08:16:15Z</time>
      </trkpt>
      <trkpt lat="44.51398" lon="1.08345">
        <ele>131</ele>
        <time>2012-09-02T08:16:20Z</time>
      </trkpt>
      <trkpt lat="44.51427" lon="1.08313">
        <ele>131</ele>
        <time>2012-09-02T08:16:25Z</time>
      </trkpt>
      <trkpt lat="44.51457" lon="1.08281">
        <ele>128</ele>
        <time>2012-09-02T08:16:30Z</time>
      </trkpt>
      <trkpt lat="44.51474" lon="1.08261">
        <ele>123</ele>
        <time>2012-09-02T08:16:35Z</time>
      </trkpt>
      <trkpt lat="44.51499" lon="1.08243">
        <ele>114</ele>
        <time>2012-09-02T08:16:40Z</time>
      </trkpt>
      <trkpt lat="44.51526" lon="1.08226">
        <ele>104</ele>
        <time>2012-09-02T08:16:45Z</time>
      </trkpt>
      <trkpt lat="44.51553" lon="1.08207">
        <ele>94</ele>
        <time>2012-09-02T08:16:50Z</time>
      </trkpt>
      <trkpt lat="44.51574" lon="1.08187">
        <ele>88</ele>
        <time>2012-09-02T08:16:55Z</time>
      </trkpt>
      <trkpt lat="44.51593" lon="1.08159">
        <ele>88</ele>
        <time>2012-09-02T08:17:00Z</time>
      </trkpt>
      <trkpt lat="44.51613" lon="1.08129">
        <ele>88</ele>
        <time>2012-09-02T08:17:05Z</time>
      </trkpt>
      <trkpt lat="44.51614" lon="1.081">
        <ele>92</ele>
        <time>2012-09-02T08:17:10Z</time>
      </trkpt>
      <trkpt lat="44.51594" lon="1.08075">
        <ele>95</ele>
        <time>2012-09-02T08:17:15Z</time>
      </trkpt>
      <trkpt lat="44.5157" lon="1.08046">
        <ele>98</ele>
        <time>2012-09-02T08:17:20Z</time>
      </trkpt>
      <trkpt lat="44.51558" lon="1.08001">
        <ele>98</ele>
        <time>2012-09-02T08:17:25Z</time>
      </trkpt>
      <trkpt lat="44.51546" lon="1.07957">
        <ele>98</ele>
        <time>2012-09-02T08:17:30Z</time>
      </trkpt>
      <trkpt lat="44.51535" lon="1.07914">
        <ele>99</ele>
        <time>2012-09-02T08:17:35Z</time>
      </trkpt>
      <trkpt lat="44.51517" lon="1.07884">
        <ele>99</ele>
        <time>2012-09-02T08:17:40Z</time>
      </trkpt>
      <trkpt lat="44.51496" lon="1.07882">
        <ele>99</ele>
        <time>2012-09-02T08:17:45Z</time>
      </trkpt>
      <trkpt lat="44.51495" lon="1.07895">
        <ele>99</ele>
        <time>2012-09-02T08:17:50Z</time>
      </trkpt>
      <trkpt lat="44.51495" lon="1.07916">
        <ele>99</ele>
        <time>2012-09-02T08:17:55Z</time>
      </trkpt>
      <trkpt lat="44.51492" lon="1.07937">
        <ele>99</ele>
        <time>2012-09-02T08:18:00Z</time>
      </trkpt>
      <trkpt lat="44.51493" lon="1.07946">
        <ele>99</ele>
        <time>2012-09-02T08:18:05Z</time>
      </trkpt>
      <trkpt lat="44.51497" lon="1.07946">
        <ele>97</ele>
        <time>2012-09-02T08:18:10Z</time>
      </trkpt>
      <trkpt lat="44.515" lon="1.07947">
        <ele>93</ele>
        <time>2012-09-02T08:18:21Z</time>
      </trkpt>
      <trkpt lat="44.515" lon="1.07946">
        <ele>93</ele>
        <time>2012-09-02T08:18:23Z</time>
      </trkpt>
    </trkseg>
  </trk>
</gpx>